<?xml version="1.0" encoding="UTF-8" standalone="no" ?>
<gpx xmlns="http://www.topografix.com/GPX/1/1" xmlns:xsi="http://www.w3.org/2001/XMLSchema-instance" xsi:schemaLocation="http://www.topografix.com/GPX/1/1 http://www.topografix.com/GPX/1/1/gpx.xsd" version="1.1" creator="VisuGPX - https://www.visugpx.com">
  <metadata>
    <name>Rando &quot;Le verdon des collines&quot;</name>
    <desc><![CDATA[Randonnée organisée à Gréoux.]]></desc>
  </metadata>
  <trk>
    <name><![CDATA[Greoux]]></name>
    <trkseg>
      <trkpt lat="43.75748" lon="5.89252">
        <ele>317</ele>
        <time>2009-11-11T09:38:23Z</time>
      </trkpt>
      <trkpt lat="43.75748" lon="5.89249">
        <ele>312</ele>
        <time>2009-11-11T09:38:49Z</time>
      </trkpt>
      <trkpt lat="43.75749" lon="5.89248">
        <ele>313</ele>
        <time>2009-11-11T09:38:54Z</time>
      </trkpt>
      <trkpt lat="43.75724" lon="5.89227">
        <ele>314</ele>
        <time>2009-11-11T09:39:06Z</time>
      </trkpt>
      <trkpt lat="43.75711" lon="5.89221">
        <ele>313</ele>
        <time>2009-11-11T09:39:13Z</time>
      </trkpt>
      <trkpt lat="43.75708" lon="5.89218">
        <ele>313</ele>
        <time>2009-11-11T09:39:15Z</time>
      </trkpt>
      <trkpt lat="43.75706" lon="5.89209">
        <ele>312</ele>
        <time>2009-11-11T09:39:19Z</time>
      </trkpt>
      <trkpt lat="43.75708" lon="5.89181">
        <ele>311</ele>
        <time>2009-11-11T09:39:32Z</time>
      </trkpt>
      <trkpt lat="43.75709" lon="5.8917">
        <ele>311</ele>
        <time>2009-11-11T09:39:37Z</time>
      </trkpt>
      <trkpt lat="43.75708" lon="5.89165">
        <ele>311</ele>
        <time>2009-11-11T09:39:39Z</time>
      </trkpt>
      <trkpt lat="43.75708" lon="5.89139">
        <ele>311</ele>
        <time>2009-11-11T09:39:50Z</time>
      </trkpt>
      <trkpt lat="43.75705" lon="5.89133">
        <ele>312</ele>
        <time>2009-11-11T09:39:55Z</time>
      </trkpt>
      <trkpt lat="43.75706" lon="5.89127">
        <ele>313</ele>
        <time>2009-11-11T09:40:10Z</time>
      </trkpt>
      <trkpt lat="43.75705" lon="5.89128">
        <ele>312</ele>
        <time>2009-11-11T09:40:33Z</time>
      </trkpt>
      <trkpt lat="43.75704" lon="5.89126">
        <ele>313</ele>
        <time>2009-11-11T09:40:42Z</time>
      </trkpt>
      <trkpt lat="43.75702" lon="5.89118">
        <ele>313</ele>
        <time>2009-11-11T09:40:47Z</time>
      </trkpt>
      <trkpt lat="43.75708" lon="5.89075">
        <ele>315</ele>
        <time>2009-11-11T09:41:03Z</time>
      </trkpt>
      <trkpt lat="43.75714" lon="5.89045">
        <ele>315</ele>
        <time>2009-11-11T09:41:13Z</time>
      </trkpt>
      <trkpt lat="43.75704" lon="5.89036">
        <ele>316</ele>
        <time>2009-11-11T09:41:19Z</time>
      </trkpt>
      <trkpt lat="43.75671" lon="5.89012">
        <ele>317</ele>
        <time>2009-11-11T09:41:35Z</time>
      </trkpt>
      <trkpt lat="43.75669" lon="5.89006">
        <ele>317</ele>
        <time>2009-11-11T09:41:37Z</time>
      </trkpt>
      <trkpt lat="43.75691" lon="5.88965">
        <ele>317</ele>
        <time>2009-11-11T09:41:52Z</time>
      </trkpt>
      <trkpt lat="43.75715" lon="5.88929">
        <ele>319</ele>
        <time>2009-11-11T09:42:08Z</time>
      </trkpt>
      <trkpt lat="43.75734" lon="5.88876">
        <ele>322</ele>
        <time>2009-11-11T09:42:27Z</time>
      </trkpt>
      <trkpt lat="43.75747" lon="5.88839">
        <ele>322</ele>
        <time>2009-11-11T09:42:41Z</time>
      </trkpt>
      <trkpt lat="43.75772" lon="5.88803">
        <ele>323</ele>
        <time>2009-11-11T09:42:56Z</time>
      </trkpt>
      <trkpt lat="43.75789" lon="5.88781">
        <ele>325</ele>
        <time>2009-11-11T09:43:07Z</time>
      </trkpt>
      <trkpt lat="43.7578" lon="5.88774">
        <ele>326</ele>
        <time>2009-11-11T09:43:12Z</time>
      </trkpt>
      <trkpt lat="43.75735" lon="5.8879">
        <ele>327</ele>
        <time>2009-11-11T09:43:29Z</time>
      </trkpt>
      <trkpt lat="43.75701" lon="5.88803">
        <ele>329</ele>
        <time>2009-11-11T09:43:42Z</time>
      </trkpt>
      <trkpt lat="43.75665" lon="5.88803">
        <ele>332</ele>
        <time>2009-11-11T09:43:56Z</time>
      </trkpt>
      <trkpt lat="43.75639" lon="5.88764">
        <ele>335</ele>
        <time>2009-11-11T09:44:11Z</time>
      </trkpt>
      <trkpt lat="43.75629" lon="5.88712">
        <ele>338</ele>
        <time>2009-11-11T09:44:26Z</time>
      </trkpt>
      <trkpt lat="43.7563" lon="5.88688">
        <ele>339</ele>
        <time>2009-11-11T09:44:33Z</time>
      </trkpt>
      <trkpt lat="43.75615" lon="5.88689">
        <ele>340</ele>
        <time>2009-11-11T09:44:44Z</time>
      </trkpt>
      <trkpt lat="43.7561" lon="5.887">
        <ele>339</ele>
        <time>2009-11-11T09:44:46Z</time>
      </trkpt>
      <trkpt lat="43.75595" lon="5.88726">
        <ele>338</ele>
        <time>2009-11-11T09:44:50Z</time>
      </trkpt>
      <trkpt lat="43.75586" lon="5.88751">
        <ele>337</ele>
        <time>2009-11-11T09:44:53Z</time>
      </trkpt>
      <trkpt lat="43.75544" lon="5.88862">
        <ele>333</ele>
        <time>2009-11-11T09:45:07Z</time>
      </trkpt>
      <trkpt lat="43.75527" lon="5.88904">
        <ele>330</ele>
        <time>2009-11-11T09:45:12Z</time>
      </trkpt>
      <trkpt lat="43.75494" lon="5.88943">
        <ele>326</ele>
        <time>2009-11-11T09:45:18Z</time>
      </trkpt>
      <trkpt lat="43.7547" lon="5.8898">
        <ele>322</ele>
        <time>2009-11-11T09:45:23Z</time>
      </trkpt>
      <trkpt lat="43.75446" lon="5.88987">
        <ele>319</ele>
        <time>2009-11-11T09:45:27Z</time>
      </trkpt>
      <trkpt lat="43.75417" lon="5.88983">
        <ele>314</ele>
        <time>2009-11-11T09:45:34Z</time>
      </trkpt>
      <trkpt lat="43.75347" lon="5.88993">
        <ele>311</ele>
        <time>2009-11-11T09:45:49Z</time>
      </trkpt>
      <trkpt lat="43.7532" lon="5.8897">
        <ele>309</ele>
        <time>2009-11-11T09:45:56Z</time>
      </trkpt>
      <trkpt lat="43.75313" lon="5.88933">
        <ele>307</ele>
        <time>2009-11-11T09:46:04Z</time>
      </trkpt>
      <trkpt lat="43.75311" lon="5.88924">
        <ele>307</ele>
        <time>2009-11-11T09:46:11Z</time>
      </trkpt>
      <trkpt lat="43.75311" lon="5.88921">
        <ele>307</ele>
        <time>2009-11-11T09:46:13Z</time>
      </trkpt>
      <trkpt lat="43.75309" lon="5.88931">
        <ele>307</ele>
        <time>2009-11-11T09:46:22Z</time>
      </trkpt>
      <trkpt lat="43.75312" lon="5.88931">
        <ele>307</ele>
        <time>2009-11-11T09:46:27Z</time>
      </trkpt>
      <trkpt lat="43.75311" lon="5.88918">
        <ele>305</ele>
        <time>2009-11-11T09:46:53Z</time>
      </trkpt>
      <trkpt lat="43.75304" lon="5.88869">
        <ele>304</ele>
        <time>2009-11-11T09:47:03Z</time>
      </trkpt>
      <trkpt lat="43.75301" lon="5.88822">
        <ele>304</ele>
        <time>2009-11-11T09:47:11Z</time>
      </trkpt>
      <trkpt lat="43.75301" lon="5.88799">
        <ele>305</ele>
        <time>2009-11-11T09:47:15Z</time>
      </trkpt>
      <trkpt lat="43.75295" lon="5.88769">
        <ele>305</ele>
        <time>2009-11-11T09:47:20Z</time>
      </trkpt>
      <trkpt lat="43.75274" lon="5.88701">
        <ele>303</ele>
        <time>2009-11-11T09:47:34Z</time>
      </trkpt>
      <trkpt lat="43.75252" lon="5.88644">
        <ele>304</ele>
        <time>2009-11-11T09:47:47Z</time>
      </trkpt>
      <trkpt lat="43.75217" lon="5.88593">
        <ele>307</ele>
        <time>2009-11-11T09:48:02Z</time>
      </trkpt>
      <trkpt lat="43.75178" lon="5.8858">
        <ele>310</ele>
        <time>2009-11-11T09:48:14Z</time>
      </trkpt>
      <trkpt lat="43.75138" lon="5.8858">
        <ele>313</ele>
        <time>2009-11-11T09:48:27Z</time>
      </trkpt>
      <trkpt lat="43.75129" lon="5.88537">
        <ele>314</ele>
        <time>2009-11-11T09:48:37Z</time>
      </trkpt>
      <trkpt lat="43.75101" lon="5.88504">
        <ele>316</ele>
        <time>2009-11-11T09:48:49Z</time>
      </trkpt>
      <trkpt lat="43.75059" lon="5.88477">
        <ele>317</ele>
        <time>2009-11-11T09:49:04Z</time>
      </trkpt>
      <trkpt lat="43.75054" lon="5.88473">
        <ele>317</ele>
        <time>2009-11-11T09:49:06Z</time>
      </trkpt>
      <trkpt lat="43.75038" lon="5.88489">
        <ele>318</ele>
        <time>2009-11-11T09:49:14Z</time>
      </trkpt>
      <trkpt lat="43.75032" lon="5.88501">
        <ele>321</ele>
        <time>2009-11-11T09:49:19Z</time>
      </trkpt>
      <trkpt lat="43.75025" lon="5.88505">
        <ele>322</ele>
        <time>2009-11-11T09:49:23Z</time>
      </trkpt>
      <trkpt lat="43.74993" lon="5.88502">
        <ele>325</ele>
        <time>2009-11-11T09:49:39Z</time>
      </trkpt>
      <trkpt lat="43.74963" lon="5.885">
        <ele>326</ele>
        <time>2009-11-11T09:49:54Z</time>
      </trkpt>
      <trkpt lat="43.7494" lon="5.88509">
        <ele>328</ele>
        <time>2009-11-11T09:50:06Z</time>
      </trkpt>
      <trkpt lat="43.74917" lon="5.88526">
        <ele>331</ele>
        <time>2009-11-11T09:50:19Z</time>
      </trkpt>
      <trkpt lat="43.74895" lon="5.88544">
        <ele>333</ele>
        <time>2009-11-11T09:50:31Z</time>
      </trkpt>
      <trkpt lat="43.74869" lon="5.88562">
        <ele>336</ele>
        <time>2009-11-11T09:50:44Z</time>
      </trkpt>
      <trkpt lat="43.74847" lon="5.88583">
        <ele>339</ele>
        <time>2009-11-11T09:50:57Z</time>
      </trkpt>
      <trkpt lat="43.74831" lon="5.88609">
        <ele>340</ele>
        <time>2009-11-11T09:51:09Z</time>
      </trkpt>
      <trkpt lat="43.74814" lon="5.88636">
        <ele>344</ele>
        <time>2009-11-11T09:51:22Z</time>
      </trkpt>
      <trkpt lat="43.74798" lon="5.88661">
        <ele>344</ele>
        <time>2009-11-11T09:51:34Z</time>
      </trkpt>
      <trkpt lat="43.74778" lon="5.88658">
        <ele>344</ele>
        <time>2009-11-11T09:51:44Z</time>
      </trkpt>
      <trkpt lat="43.74758" lon="5.88626">
        <ele>344</ele>
        <time>2009-11-11T09:51:59Z</time>
      </trkpt>
      <trkpt lat="43.74745" lon="5.88583">
        <ele>348</ele>
        <time>2009-11-11T09:52:15Z</time>
      </trkpt>
      <trkpt lat="43.74739" lon="5.88552">
        <ele>348</ele>
        <time>2009-11-11T09:52:26Z</time>
      </trkpt>
      <trkpt lat="43.74715" lon="5.88554">
        <ele>348</ele>
        <time>2009-11-11T09:52:40Z</time>
      </trkpt>
      <trkpt lat="43.74683" lon="5.88555">
        <ele>351</ele>
        <time>2009-11-11T09:52:55Z</time>
      </trkpt>
      <trkpt lat="43.74654" lon="5.88556">
        <ele>352</ele>
        <time>2009-11-11T09:53:10Z</time>
      </trkpt>
      <trkpt lat="43.7464" lon="5.88577">
        <ele>354</ele>
        <time>2009-11-11T09:53:21Z</time>
      </trkpt>
      <trkpt lat="43.74616" lon="5.88588">
        <ele>358</ele>
        <time>2009-11-11T09:53:35Z</time>
      </trkpt>
      <trkpt lat="43.74593" lon="5.88572">
        <ele>362</ele>
        <time>2009-11-11T09:53:47Z</time>
      </trkpt>
      <trkpt lat="43.74567" lon="5.88548">
        <ele>360</ele>
        <time>2009-11-11T09:54:02Z</time>
      </trkpt>
      <trkpt lat="43.74559" lon="5.88546">
        <ele>360</ele>
        <time>2009-11-11T09:54:07Z</time>
      </trkpt>
      <trkpt lat="43.74533" lon="5.88548">
        <ele>364</ele>
        <time>2009-11-11T09:54:21Z</time>
      </trkpt>
      <trkpt lat="43.74501" lon="5.88536">
        <ele>367</ele>
        <time>2009-11-11T09:54:35Z</time>
      </trkpt>
      <trkpt lat="43.74477" lon="5.88534">
        <ele>368</ele>
        <time>2009-11-11T09:54:47Z</time>
      </trkpt>
      <trkpt lat="43.74452" lon="5.88546">
        <ele>370</ele>
        <time>2009-11-11T09:54:59Z</time>
      </trkpt>
      <trkpt lat="43.74446" lon="5.8855">
        <ele>371</ele>
        <time>2009-11-11T09:55:02Z</time>
      </trkpt>
      <trkpt lat="43.74424" lon="5.88552">
        <ele>372</ele>
        <time>2009-11-11T09:55:13Z</time>
      </trkpt>
      <trkpt lat="43.74425" lon="5.88541">
        <ele>372</ele>
        <time>2009-11-11T09:55:17Z</time>
      </trkpt>
      <trkpt lat="43.74443" lon="5.88513">
        <ele>368</ele>
        <time>2009-11-11T09:55:32Z</time>
      </trkpt>
      <trkpt lat="43.74458" lon="5.88493">
        <ele>364</ele>
        <time>2009-11-11T09:55:44Z</time>
      </trkpt>
      <trkpt lat="43.7448" lon="5.88476">
        <ele>366</ele>
        <time>2009-11-11T09:55:57Z</time>
      </trkpt>
      <trkpt lat="43.74506" lon="5.8847">
        <ele>370</ele>
        <time>2009-11-11T09:56:10Z</time>
      </trkpt>
      <trkpt lat="43.74534" lon="5.88459">
        <ele>371</ele>
        <time>2009-11-11T09:56:23Z</time>
      </trkpt>
      <trkpt lat="43.74565" lon="5.88443">
        <ele>372</ele>
        <time>2009-11-11T09:56:38Z</time>
      </trkpt>
      <trkpt lat="43.7457" lon="5.88406">
        <ele>372</ele>
        <time>2009-11-11T09:56:50Z</time>
      </trkpt>
      <trkpt lat="43.74562" lon="5.88371">
        <ele>373</ele>
        <time>2009-11-11T09:57:02Z</time>
      </trkpt>
      <trkpt lat="43.74564" lon="5.88333">
        <ele>373</ele>
        <time>2009-11-11T09:57:15Z</time>
      </trkpt>
      <trkpt lat="43.74558" lon="5.88299">
        <ele>373</ele>
        <time>2009-11-11T09:57:27Z</time>
      </trkpt>
      <trkpt lat="43.74552" lon="5.88261">
        <ele>374</ele>
        <time>2009-11-11T09:57:40Z</time>
      </trkpt>
      <trkpt lat="43.74547" lon="5.88252">
        <ele>376</ele>
        <time>2009-11-11T09:57:44Z</time>
      </trkpt>
      <trkpt lat="43.74528" lon="5.88261">
        <ele>379</ele>
        <time>2009-11-11T09:57:54Z</time>
      </trkpt>
      <trkpt lat="43.74509" lon="5.88271">
        <ele>385</ele>
        <time>2009-11-11T09:58:05Z</time>
      </trkpt>
      <trkpt lat="43.74499" lon="5.88276">
        <ele>386</ele>
        <time>2009-11-11T09:58:10Z</time>
      </trkpt>
      <trkpt lat="43.74468" lon="5.883">
        <ele>393</ele>
        <time>2009-11-11T09:58:26Z</time>
      </trkpt>
      <trkpt lat="43.74442" lon="5.88318">
        <ele>397</ele>
        <time>2009-11-11T09:58:39Z</time>
      </trkpt>
      <trkpt lat="43.74411" lon="5.88337">
        <ele>401</ele>
        <time>2009-11-11T09:58:54Z</time>
      </trkpt>
      <trkpt lat="43.74395" lon="5.88373">
        <ele>403</ele>
        <time>2009-11-11T09:59:08Z</time>
      </trkpt>
      <trkpt lat="43.74376" lon="5.88407">
        <ele>405</ele>
        <time>2009-11-11T09:59:21Z</time>
      </trkpt>
      <trkpt lat="43.74351" lon="5.88437">
        <ele>407</ele>
        <time>2009-11-11T09:59:36Z</time>
      </trkpt>
      <trkpt lat="43.74339" lon="5.88444">
        <ele>408</ele>
        <time>2009-11-11T09:59:42Z</time>
      </trkpt>
      <trkpt lat="43.74316" lon="5.88459">
        <ele>411</ele>
        <time>2009-11-11T09:59:55Z</time>
      </trkpt>
      <trkpt lat="43.743" lon="5.88487">
        <ele>414</ele>
        <time>2009-11-11T10:00:07Z</time>
      </trkpt>
      <trkpt lat="43.74297" lon="5.88525">
        <ele>414</ele>
        <time>2009-11-11T10:00:21Z</time>
      </trkpt>
      <trkpt lat="43.7429" lon="5.88573">
        <ele>418</ele>
        <time>2009-11-11T10:00:35Z</time>
      </trkpt>
      <trkpt lat="43.74274" lon="5.88591">
        <ele>419</ele>
        <time>2009-11-11T10:00:43Z</time>
      </trkpt>
      <trkpt lat="43.7425" lon="5.88629">
        <ele>420</ele>
        <time>2009-11-11T10:00:57Z</time>
      </trkpt>
      <trkpt lat="43.74222" lon="5.88672">
        <ele>421</ele>
        <time>2009-11-11T10:01:14Z</time>
      </trkpt>
      <trkpt lat="43.7419" lon="5.88705">
        <ele>423</ele>
        <time>2009-11-11T10:01:29Z</time>
      </trkpt>
      <trkpt lat="43.74158" lon="5.88729">
        <ele>422</ele>
        <time>2009-11-11T10:01:43Z</time>
      </trkpt>
      <trkpt lat="43.74135" lon="5.88735">
        <ele>422</ele>
        <time>2009-11-11T10:01:54Z</time>
      </trkpt>
      <trkpt lat="43.74126" lon="5.88738">
        <ele>423</ele>
        <time>2009-11-11T10:01:58Z</time>
      </trkpt>
      <trkpt lat="43.74119" lon="5.88739">
        <ele>423</ele>
        <time>2009-11-11T10:02:02Z</time>
      </trkpt>
      <trkpt lat="43.74097" lon="5.88742">
        <ele>424</ele>
        <time>2009-11-11T10:02:11Z</time>
      </trkpt>
      <trkpt lat="43.7407" lon="5.88749">
        <ele>425</ele>
        <time>2009-11-11T10:02:22Z</time>
      </trkpt>
      <trkpt lat="43.7404" lon="5.8874">
        <ele>423</ele>
        <time>2009-11-11T10:02:35Z</time>
      </trkpt>
      <trkpt lat="43.74026" lon="5.88706">
        <ele>424</ele>
        <time>2009-11-11T10:02:48Z</time>
      </trkpt>
      <trkpt lat="43.7402" lon="5.88661">
        <ele>424</ele>
        <time>2009-11-11T10:03:03Z</time>
      </trkpt>
      <trkpt lat="43.73991" lon="5.88637">
        <ele>427</ele>
        <time>2009-11-11T10:03:18Z</time>
      </trkpt>
      <trkpt lat="43.73955" lon="5.88632">
        <ele>430</ele>
        <time>2009-11-11T10:03:34Z</time>
      </trkpt>
      <trkpt lat="43.73926" lon="5.88659">
        <ele>432</ele>
        <time>2009-11-11T10:03:49Z</time>
      </trkpt>
      <trkpt lat="43.73908" lon="5.887">
        <ele>437</ele>
        <time>2009-11-11T10:04:03Z</time>
      </trkpt>
      <trkpt lat="43.7391" lon="5.88754">
        <ele>438</ele>
        <time>2009-11-11T10:04:18Z</time>
      </trkpt>
      <trkpt lat="43.73909" lon="5.88804">
        <ele>441</ele>
        <time>2009-11-11T10:04:33Z</time>
      </trkpt>
      <trkpt lat="43.73909" lon="5.88853">
        <ele>443</ele>
        <time>2009-11-11T10:04:47Z</time>
      </trkpt>
      <trkpt lat="43.7391" lon="5.88879">
        <ele>443</ele>
        <time>2009-11-11T10:04:55Z</time>
      </trkpt>
      <trkpt lat="43.73908" lon="5.88883">
        <ele>443</ele>
        <time>2009-11-11T10:04:57Z</time>
      </trkpt>
      <trkpt lat="43.73902" lon="5.88891">
        <ele>443</ele>
        <time>2009-11-11T10:05:01Z</time>
      </trkpt>
      <trkpt lat="43.7387" lon="5.88911">
        <ele>447</ele>
        <time>2009-11-11T10:05:16Z</time>
      </trkpt>
      <trkpt lat="43.73839" lon="5.88916">
        <ele>450</ele>
        <time>2009-11-11T10:05:29Z</time>
      </trkpt>
      <trkpt lat="43.73815" lon="5.88895">
        <ele>451</ele>
        <time>2009-11-11T10:05:42Z</time>
      </trkpt>
      <trkpt lat="43.73784" lon="5.88879">
        <ele>453</ele>
        <time>2009-11-11T10:05:56Z</time>
      </trkpt>
      <trkpt lat="43.73762" lon="5.88905">
        <ele>456</ele>
        <time>2009-11-11T10:06:08Z</time>
      </trkpt>
      <trkpt lat="43.73755" lon="5.88907">
        <ele>457</ele>
        <time>2009-11-11T10:06:11Z</time>
      </trkpt>
      <trkpt lat="43.73729" lon="5.88901">
        <ele>458</ele>
        <time>2009-11-11T10:06:22Z</time>
      </trkpt>
      <trkpt lat="43.73705" lon="5.88866">
        <ele>461</ele>
        <time>2009-11-11T10:06:38Z</time>
      </trkpt>
      <trkpt lat="43.73676" lon="5.88877">
        <ele>463</ele>
        <time>2009-11-11T10:06:51Z</time>
      </trkpt>
      <trkpt lat="43.73642" lon="5.88896">
        <ele>465</ele>
        <time>2009-11-11T10:07:05Z</time>
      </trkpt>
      <trkpt lat="43.73622" lon="5.88922">
        <ele>465</ele>
        <time>2009-11-11T10:07:16Z</time>
      </trkpt>
      <trkpt lat="43.73594" lon="5.88946">
        <ele>466</ele>
        <time>2009-11-11T10:07:30Z</time>
      </trkpt>
      <trkpt lat="43.73575" lon="5.8896">
        <ele>468</ele>
        <time>2009-11-11T10:07:41Z</time>
      </trkpt>
      <trkpt lat="43.73554" lon="5.88982">
        <ele>468</ele>
        <time>2009-11-11T10:07:53Z</time>
      </trkpt>
      <trkpt lat="43.73537" lon="5.89017">
        <ele>470</ele>
        <time>2009-11-11T10:08:07Z</time>
      </trkpt>
      <trkpt lat="43.73508" lon="5.89057">
        <ele>472</ele>
        <time>2009-11-11T10:08:24Z</time>
      </trkpt>
      <trkpt lat="43.73483" lon="5.89076">
        <ele>474</ele>
        <time>2009-11-11T10:08:36Z</time>
      </trkpt>
      <trkpt lat="43.73461" lon="5.89091">
        <ele>474</ele>
        <time>2009-11-11T10:08:50Z</time>
      </trkpt>
      <trkpt lat="43.73459" lon="5.89092">
        <ele>475</ele>
        <time>2009-11-11T10:08:57Z</time>
      </trkpt>
      <trkpt lat="43.73452" lon="5.89091">
        <ele>474</ele>
        <time>2009-11-11T10:09:02Z</time>
      </trkpt>
      <trkpt lat="43.73432" lon="5.89071">
        <ele>473</ele>
        <time>2009-11-11T10:09:14Z</time>
      </trkpt>
      <trkpt lat="43.73396" lon="5.89033">
        <ele>473</ele>
        <time>2009-11-11T10:09:29Z</time>
      </trkpt>
      <trkpt lat="43.73362" lon="5.89018">
        <ele>472</ele>
        <time>2009-11-11T10:09:42Z</time>
      </trkpt>
      <trkpt lat="43.73331" lon="5.89018">
        <ele>475</ele>
        <time>2009-11-11T10:09:54Z</time>
      </trkpt>
      <trkpt lat="43.73329" lon="5.89017">
        <ele>476</ele>
        <time>2009-11-11T10:09:55Z</time>
      </trkpt>
      <trkpt lat="43.73309" lon="5.88995">
        <ele>479</ele>
        <time>2009-11-11T10:10:09Z</time>
      </trkpt>
      <trkpt lat="43.73307" lon="5.88985">
        <ele>480</ele>
        <time>2009-11-11T10:10:13Z</time>
      </trkpt>
      <trkpt lat="43.7331" lon="5.88956">
        <ele>482</ele>
        <time>2009-11-11T10:10:27Z</time>
      </trkpt>
      <trkpt lat="43.7331" lon="5.88944">
        <ele>484</ele>
        <time>2009-11-11T10:10:33Z</time>
      </trkpt>
      <trkpt lat="43.73312" lon="5.88934">
        <ele>485</ele>
        <time>2009-11-11T10:10:39Z</time>
      </trkpt>
      <trkpt lat="43.73313" lon="5.88931">
        <ele>486</ele>
        <time>2009-11-11T10:10:41Z</time>
      </trkpt>
      <trkpt lat="43.73315" lon="5.8892">
        <ele>488</ele>
        <time>2009-11-11T10:10:57Z</time>
      </trkpt>
      <trkpt lat="43.73315" lon="5.88919">
        <ele>487</ele>
        <time>2009-11-11T10:11:03Z</time>
      </trkpt>
      <trkpt lat="43.73318" lon="5.88908">
        <ele>487</ele>
        <time>2009-11-11T10:11:10Z</time>
      </trkpt>
      <trkpt lat="43.73319" lon="5.88901">
        <ele>487</ele>
        <time>2009-11-11T10:11:14Z</time>
      </trkpt>
      <trkpt lat="43.73314" lon="5.88876">
        <ele>489</ele>
        <time>2009-11-11T10:11:28Z</time>
      </trkpt>
      <trkpt lat="43.73315" lon="5.88871">
        <ele>489</ele>
        <time>2009-11-11T10:11:30Z</time>
      </trkpt>
      <trkpt lat="43.73317" lon="5.88852">
        <ele>491</ele>
        <time>2009-11-11T10:11:38Z</time>
      </trkpt>
      <trkpt lat="43.73318" lon="5.88846">
        <ele>490</ele>
        <time>2009-11-11T10:11:45Z</time>
      </trkpt>
      <trkpt lat="43.73326" lon="5.88836">
        <ele>489</ele>
        <time>2009-11-11T10:11:50Z</time>
      </trkpt>
      <trkpt lat="43.73323" lon="5.88787">
        <ele>485</ele>
        <time>2009-11-11T10:12:00Z</time>
      </trkpt>
      <trkpt lat="43.73325" lon="5.88744">
        <ele>480</ele>
        <time>2009-11-11T10:12:09Z</time>
      </trkpt>
      <trkpt lat="43.73323" lon="5.88726">
        <ele>478</ele>
        <time>2009-11-11T10:12:13Z</time>
      </trkpt>
      <trkpt lat="43.73321" lon="5.88701">
        <ele>473</ele>
        <time>2009-11-11T10:12:20Z</time>
      </trkpt>
      <trkpt lat="43.73322" lon="5.88689">
        <ele>472</ele>
        <time>2009-11-11T10:12:25Z</time>
      </trkpt>
      <trkpt lat="43.73324" lon="5.88669">
        <ele>468</ele>
        <time>2009-11-11T10:12:32Z</time>
      </trkpt>
      <trkpt lat="43.73324" lon="5.88654">
        <ele>465</ele>
        <time>2009-11-11T10:12:39Z</time>
      </trkpt>
      <trkpt lat="43.73324" lon="5.88627">
        <ele>460</ele>
        <time>2009-11-11T10:12:50Z</time>
      </trkpt>
      <trkpt lat="43.73326" lon="5.88607">
        <ele>455</ele>
        <time>2009-11-11T10:12:59Z</time>
      </trkpt>
      <trkpt lat="43.7333" lon="5.88583">
        <ele>453</ele>
        <time>2009-11-11T10:13:08Z</time>
      </trkpt>
      <trkpt lat="43.7333" lon="5.88574">
        <ele>453</ele>
        <time>2009-11-11T10:13:12Z</time>
      </trkpt>
      <trkpt lat="43.73327" lon="5.88561">
        <ele>453</ele>
        <time>2009-11-11T10:13:17Z</time>
      </trkpt>
      <trkpt lat="43.73326" lon="5.88558">
        <ele>454</ele>
        <time>2009-11-11T10:13:19Z</time>
      </trkpt>
      <trkpt lat="43.73326" lon="5.88548">
        <ele>455</ele>
        <time>2009-11-11T10:13:30Z</time>
      </trkpt>
      <trkpt lat="43.73329" lon="5.8854">
        <ele>454</ele>
        <time>2009-11-11T10:13:34Z</time>
      </trkpt>
      <trkpt lat="43.73335" lon="5.88535">
        <ele>454</ele>
        <time>2009-11-11T10:13:39Z</time>
      </trkpt>
      <trkpt lat="43.73348" lon="5.88533">
        <ele>457</ele>
        <time>2009-11-11T10:13:50Z</time>
      </trkpt>
      <trkpt lat="43.7336" lon="5.8853">
        <ele>458</ele>
        <time>2009-11-11T10:14:01Z</time>
      </trkpt>
      <trkpt lat="43.73367" lon="5.88528">
        <ele>457</ele>
        <time>2009-11-11T10:14:04Z</time>
      </trkpt>
      <trkpt lat="43.73381" lon="5.88525">
        <ele>455</ele>
        <time>2009-11-11T10:14:12Z</time>
      </trkpt>
      <trkpt lat="43.73394" lon="5.88514">
        <ele>452</ele>
        <time>2009-11-11T10:14:22Z</time>
      </trkpt>
      <trkpt lat="43.73398" lon="5.8851">
        <ele>452</ele>
        <time>2009-11-11T10:14:25Z</time>
      </trkpt>
      <trkpt lat="43.73409" lon="5.88498">
        <ele>452</ele>
        <time>2009-11-11T10:14:33Z</time>
      </trkpt>
      <trkpt lat="43.73417" lon="5.88487">
        <ele>453</ele>
        <time>2009-11-11T10:14:40Z</time>
      </trkpt>
      <trkpt lat="43.73432" lon="5.88483">
        <ele>454</ele>
        <time>2009-11-11T10:14:49Z</time>
      </trkpt>
      <trkpt lat="43.73443" lon="5.88466">
        <ele>453</ele>
        <time>2009-11-11T10:15:01Z</time>
      </trkpt>
      <trkpt lat="43.73446" lon="5.88455">
        <ele>452</ele>
        <time>2009-11-11T10:15:06Z</time>
      </trkpt>
      <trkpt lat="43.73452" lon="5.88431">
        <ele>452</ele>
        <time>2009-11-11T10:15:17Z</time>
      </trkpt>
      <trkpt lat="43.73442" lon="5.88416">
        <ele>452</ele>
        <time>2009-11-11T10:15:27Z</time>
      </trkpt>
      <trkpt lat="43.7344" lon="5.88414">
        <ele>451</ele>
        <time>2009-11-11T10:15:29Z</time>
      </trkpt>
      <trkpt lat="43.73437" lon="5.88413">
        <ele>451</ele>
        <time>2009-11-11T10:15:34Z</time>
      </trkpt>
      <trkpt lat="43.73419" lon="5.88395">
        <ele>448</ele>
        <time>2009-11-11T10:15:47Z</time>
      </trkpt>
      <trkpt lat="43.73401" lon="5.88381">
        <ele>443</ele>
        <time>2009-11-11T10:15:55Z</time>
      </trkpt>
      <trkpt lat="43.73371" lon="5.88364">
        <ele>437</ele>
        <time>2009-11-11T10:16:04Z</time>
      </trkpt>
      <trkpt lat="43.73358" lon="5.88352">
        <ele>435</ele>
        <time>2009-11-11T10:16:08Z</time>
      </trkpt>
      <trkpt lat="43.73343" lon="5.88361">
        <ele>432</ele>
        <time>2009-11-11T10:16:15Z</time>
      </trkpt>
      <trkpt lat="43.73342" lon="5.88365">
        <ele>432</ele>
        <time>2009-11-11T10:16:16Z</time>
      </trkpt>
      <trkpt lat="43.73339" lon="5.88377">
        <ele>431</ele>
        <time>2009-11-11T10:16:19Z</time>
      </trkpt>
      <trkpt lat="43.73327" lon="5.88384">
        <ele>430</ele>
        <time>2009-11-11T10:16:26Z</time>
      </trkpt>
      <trkpt lat="43.7332" lon="5.88385">
        <ele>428</ele>
        <time>2009-11-11T10:16:36Z</time>
      </trkpt>
      <trkpt lat="43.73306" lon="5.88386">
        <ele>427</ele>
        <time>2009-11-11T10:16:42Z</time>
      </trkpt>
      <trkpt lat="43.73289" lon="5.88381">
        <ele>424</ele>
        <time>2009-11-11T10:16:52Z</time>
      </trkpt>
      <trkpt lat="43.73283" lon="5.88377">
        <ele>424</ele>
        <time>2009-11-11T10:17:04Z</time>
      </trkpt>
      <trkpt lat="43.7328" lon="5.88366">
        <ele>423</ele>
        <time>2009-11-11T10:17:09Z</time>
      </trkpt>
      <trkpt lat="43.73266" lon="5.88355">
        <ele>418</ele>
        <time>2009-11-11T10:17:18Z</time>
      </trkpt>
      <trkpt lat="43.73261" lon="5.8835">
        <ele>416</ele>
        <time>2009-11-11T10:17:22Z</time>
      </trkpt>
      <trkpt lat="43.7325" lon="5.88351">
        <ele>413</ele>
        <time>2009-11-11T10:17:26Z</time>
      </trkpt>
      <trkpt lat="43.73237" lon="5.88344">
        <ele>409</ele>
        <time>2009-11-11T10:17:33Z</time>
      </trkpt>
      <trkpt lat="43.73204" lon="5.88331">
        <ele>405</ele>
        <time>2009-11-11T10:17:44Z</time>
      </trkpt>
      <trkpt lat="43.73193" lon="5.88318">
        <ele>403</ele>
        <time>2009-11-11T10:17:51Z</time>
      </trkpt>
      <trkpt lat="43.73178" lon="5.88287">
        <ele>398</ele>
        <time>2009-11-11T10:18:00Z</time>
      </trkpt>
      <trkpt lat="43.73168" lon="5.88272">
        <ele>395</ele>
        <time>2009-11-11T10:18:05Z</time>
      </trkpt>
      <trkpt lat="43.7315" lon="5.88262">
        <ele>392</ele>
        <time>2009-11-11T10:18:11Z</time>
      </trkpt>
      <trkpt lat="43.73142" lon="5.88217">
        <ele>388</ele>
        <time>2009-11-11T10:18:21Z</time>
      </trkpt>
      <trkpt lat="43.73141" lon="5.88201">
        <ele>387</ele>
        <time>2009-11-11T10:18:24Z</time>
      </trkpt>
      <trkpt lat="43.73143" lon="5.88158">
        <ele>382</ele>
        <time>2009-11-11T10:18:32Z</time>
      </trkpt>
      <trkpt lat="43.73131" lon="5.88138">
        <ele>380</ele>
        <time>2009-11-11T10:18:36Z</time>
      </trkpt>
      <trkpt lat="43.73122" lon="5.88116">
        <ele>379</ele>
        <time>2009-11-11T10:18:40Z</time>
      </trkpt>
      <trkpt lat="43.73111" lon="5.88096">
        <ele>377</ele>
        <time>2009-11-11T10:18:49Z</time>
      </trkpt>
      <trkpt lat="43.73112" lon="5.88094">
        <ele>376</ele>
        <time>2009-11-11T10:18:58Z</time>
      </trkpt>
      <trkpt lat="43.73127" lon="5.8808">
        <ele>375</ele>
        <time>2009-11-11T10:19:07Z</time>
      </trkpt>
      <trkpt lat="43.73142" lon="5.88047">
        <ele>372</ele>
        <time>2009-11-11T10:19:15Z</time>
      </trkpt>
      <trkpt lat="43.73148" lon="5.88022">
        <ele>371</ele>
        <time>2009-11-11T10:19:19Z</time>
      </trkpt>
      <trkpt lat="43.73127" lon="5.87972">
        <ele>369</ele>
        <time>2009-11-11T10:19:27Z</time>
      </trkpt>
      <trkpt lat="43.7313" lon="5.87937">
        <ele>367</ele>
        <time>2009-11-11T10:19:35Z</time>
      </trkpt>
      <trkpt lat="43.73141" lon="5.87904">
        <ele>367</ele>
        <time>2009-11-11T10:19:41Z</time>
      </trkpt>
      <trkpt lat="43.73127" lon="5.87873">
        <ele>364</ele>
        <time>2009-11-11T10:19:48Z</time>
      </trkpt>
      <trkpt lat="43.73112" lon="5.87853">
        <ele>361</ele>
        <time>2009-11-11T10:19:51Z</time>
      </trkpt>
      <trkpt lat="43.73083" lon="5.87852">
        <ele>356</ele>
        <time>2009-11-11T10:19:57Z</time>
      </trkpt>
      <trkpt lat="43.73065" lon="5.87872">
        <ele>355</ele>
        <time>2009-11-11T10:20:04Z</time>
      </trkpt>
      <trkpt lat="43.73056" lon="5.8787">
        <ele>356</ele>
        <time>2009-11-11T10:20:10Z</time>
      </trkpt>
      <trkpt lat="43.7304" lon="5.87872">
        <ele>358</ele>
        <time>2009-11-11T10:20:21Z</time>
      </trkpt>
      <trkpt lat="43.73024" lon="5.8787">
        <ele>359</ele>
        <time>2009-11-11T10:20:29Z</time>
      </trkpt>
      <trkpt lat="43.73022" lon="5.87869">
        <ele>360</ele>
        <time>2009-11-11T10:20:30Z</time>
      </trkpt>
      <trkpt lat="43.73015" lon="5.87863">
        <ele>360</ele>
        <time>2009-11-11T10:20:35Z</time>
      </trkpt>
      <trkpt lat="43.7301" lon="5.87864">
        <ele>360</ele>
        <time>2009-11-11T10:20:38Z</time>
      </trkpt>
      <trkpt lat="43.73" lon="5.87885">
        <ele>360</ele>
        <time>2009-11-11T10:20:45Z</time>
      </trkpt>
      <trkpt lat="43.73" lon="5.87906">
        <ele>362</ele>
        <time>2009-11-11T10:20:51Z</time>
      </trkpt>
      <trkpt lat="43.73003" lon="5.87914">
        <ele>363</ele>
        <time>2009-11-11T10:20:53Z</time>
      </trkpt>
      <trkpt lat="43.73002" lon="5.87927">
        <ele>366</ele>
        <time>2009-11-11T10:20:56Z</time>
      </trkpt>
      <trkpt lat="43.72988" lon="5.87949">
        <ele>372</ele>
        <time>2009-11-11T10:21:05Z</time>
      </trkpt>
      <trkpt lat="43.72975" lon="5.87958">
        <ele>375</ele>
        <time>2009-11-11T10:21:12Z</time>
      </trkpt>
      <trkpt lat="43.72963" lon="5.87961">
        <ele>376</ele>
        <time>2009-11-11T10:21:18Z</time>
      </trkpt>
      <trkpt lat="43.72957" lon="5.87963">
        <ele>375</ele>
        <time>2009-11-11T10:21:25Z</time>
      </trkpt>
      <trkpt lat="43.72944" lon="5.87964">
        <ele>377</ele>
        <time>2009-11-11T10:21:32Z</time>
      </trkpt>
      <trkpt lat="43.72923" lon="5.87984">
        <ele>374</ele>
        <time>2009-11-11T10:21:40Z</time>
      </trkpt>
      <trkpt lat="43.72902" lon="5.87995">
        <ele>373</ele>
        <time>2009-11-11T10:21:47Z</time>
      </trkpt>
      <trkpt lat="43.72884" lon="5.88002">
        <ele>372</ele>
        <time>2009-11-11T10:21:53Z</time>
      </trkpt>
      <trkpt lat="43.72864" lon="5.88019">
        <ele>373</ele>
        <time>2009-11-11T10:22:01Z</time>
      </trkpt>
      <trkpt lat="43.72852" lon="5.88024">
        <ele>375</ele>
        <time>2009-11-11T10:22:08Z</time>
      </trkpt>
      <trkpt lat="43.72843" lon="5.88032">
        <ele>376</ele>
        <time>2009-11-11T10:22:15Z</time>
      </trkpt>
      <trkpt lat="43.72836" lon="5.88047">
        <ele>377</ele>
        <time>2009-11-11T10:22:21Z</time>
      </trkpt>
      <trkpt lat="43.72817" lon="5.88058">
        <ele>376</ele>
        <time>2009-11-11T10:22:30Z</time>
      </trkpt>
      <trkpt lat="43.72815" lon="5.88057">
        <ele>376</ele>
        <time>2009-11-11T10:22:31Z</time>
      </trkpt>
      <trkpt lat="43.72804" lon="5.88043">
        <ele>376</ele>
        <time>2009-11-11T10:22:38Z</time>
      </trkpt>
      <trkpt lat="43.728" lon="5.88032">
        <ele>377</ele>
        <time>2009-11-11T10:22:45Z</time>
      </trkpt>
      <trkpt lat="43.72787" lon="5.88025">
        <ele>378</ele>
        <time>2009-11-11T10:22:54Z</time>
      </trkpt>
      <trkpt lat="43.72781" lon="5.88029">
        <ele>377</ele>
        <time>2009-11-11T10:22:57Z</time>
      </trkpt>
      <trkpt lat="43.72761" lon="5.88027">
        <ele>377</ele>
        <time>2009-11-11T10:23:05Z</time>
      </trkpt>
      <trkpt lat="43.72759" lon="5.88026">
        <ele>377</ele>
        <time>2009-11-11T10:23:06Z</time>
      </trkpt>
      <trkpt lat="43.72739" lon="5.88018">
        <ele>377</ele>
        <time>2009-11-11T10:23:16Z</time>
      </trkpt>
      <trkpt lat="43.72728" lon="5.88008">
        <ele>378</ele>
        <time>2009-11-11T10:23:23Z</time>
      </trkpt>
      <trkpt lat="43.72698" lon="5.88018">
        <ele>380</ele>
        <time>2009-11-11T10:23:34Z</time>
      </trkpt>
      <trkpt lat="43.72667" lon="5.88032">
        <ele>381</ele>
        <time>2009-11-11T10:23:46Z</time>
      </trkpt>
      <trkpt lat="43.72664" lon="5.8806">
        <ele>382</ele>
        <time>2009-11-11T10:23:53Z</time>
      </trkpt>
      <trkpt lat="43.72661" lon="5.88079">
        <ele>381</ele>
        <time>2009-11-11T10:24:02Z</time>
      </trkpt>
      <trkpt lat="43.72657" lon="5.88081">
        <ele>381</ele>
        <time>2009-11-11T10:24:05Z</time>
      </trkpt>
      <trkpt lat="43.72652" lon="5.88082">
        <ele>382</ele>
        <time>2009-11-11T10:24:08Z</time>
      </trkpt>
      <trkpt lat="43.72633" lon="5.8808">
        <ele>386</ele>
        <time>2009-11-11T10:24:17Z</time>
      </trkpt>
      <trkpt lat="43.72619" lon="5.88083">
        <ele>385</ele>
        <time>2009-11-11T10:24:23Z</time>
      </trkpt>
      <trkpt lat="43.72612" lon="5.88088">
        <ele>384</ele>
        <time>2009-11-11T10:24:26Z</time>
      </trkpt>
      <trkpt lat="43.72585" lon="5.88094">
        <ele>383</ele>
        <time>2009-11-11T10:24:35Z</time>
      </trkpt>
      <trkpt lat="43.72551" lon="5.88094">
        <ele>385</ele>
        <time>2009-11-11T10:24:45Z</time>
      </trkpt>
      <trkpt lat="43.72507" lon="5.88095">
        <ele>385</ele>
        <time>2009-11-11T10:24:58Z</time>
      </trkpt>
      <trkpt lat="43.72457" lon="5.88109">
        <ele>382</ele>
        <time>2009-11-11T10:25:11Z</time>
      </trkpt>
      <trkpt lat="43.72418" lon="5.88125">
        <ele>381</ele>
        <time>2009-11-11T10:25:22Z</time>
      </trkpt>
      <trkpt lat="43.72416" lon="5.88143">
        <ele>381</ele>
        <time>2009-11-11T10:25:26Z</time>
      </trkpt>
      <trkpt lat="43.72414" lon="5.88206">
        <ele>381</ele>
        <time>2009-11-11T10:25:36Z</time>
      </trkpt>
      <trkpt lat="43.72411" lon="5.8828">
        <ele>380</ele>
        <time>2009-11-11T10:25:47Z</time>
      </trkpt>
      <trkpt lat="43.72412" lon="5.88362">
        <ele>379</ele>
        <time>2009-11-11T10:25:58Z</time>
      </trkpt>
      <trkpt lat="43.72409" lon="5.88443">
        <ele>379</ele>
        <time>2009-11-11T10:26:12Z</time>
      </trkpt>
      <trkpt lat="43.72408" lon="5.88486">
        <ele>380</ele>
        <time>2009-11-11T10:26:21Z</time>
      </trkpt>
      <trkpt lat="43.72403" lon="5.88564">
        <ele>383</ele>
        <time>2009-11-11T10:26:36Z</time>
      </trkpt>
      <trkpt lat="43.72396" lon="5.88648">
        <ele>385</ele>
        <time>2009-11-11T10:26:52Z</time>
      </trkpt>
      <trkpt lat="43.72387" lon="5.887">
        <ele>388</ele>
        <time>2009-11-11T10:27:04Z</time>
      </trkpt>
      <trkpt lat="43.72398" lon="5.88738">
        <ele>391</ele>
        <time>2009-11-11T10:27:16Z</time>
      </trkpt>
      <trkpt lat="43.72413" lon="5.88779">
        <ele>390</ele>
        <time>2009-11-11T10:27:27Z</time>
      </trkpt>
      <trkpt lat="43.72438" lon="5.88807">
        <ele>389</ele>
        <time>2009-11-11T10:27:39Z</time>
      </trkpt>
      <trkpt lat="43.72461" lon="5.88814">
        <ele>391</ele>
        <time>2009-11-11T10:27:49Z</time>
      </trkpt>
      <trkpt lat="43.72488" lon="5.8881">
        <ele>393</ele>
        <time>2009-11-11T10:28:01Z</time>
      </trkpt>
      <trkpt lat="43.72521" lon="5.88813">
        <ele>395</ele>
        <time>2009-11-11T10:28:12Z</time>
      </trkpt>
      <trkpt lat="43.72547" lon="5.88835">
        <ele>394</ele>
        <time>2009-11-11T10:28:21Z</time>
      </trkpt>
      <trkpt lat="43.72558" lon="5.88857">
        <ele>393</ele>
        <time>2009-11-11T10:28:25Z</time>
      </trkpt>
      <trkpt lat="43.72574" lon="5.88899">
        <ele>392</ele>
        <time>2009-11-11T10:28:31Z</time>
      </trkpt>
      <trkpt lat="43.72579" lon="5.88915">
        <ele>392</ele>
        <time>2009-11-11T10:28:33Z</time>
      </trkpt>
      <trkpt lat="43.726" lon="5.88954">
        <ele>392</ele>
        <time>2009-11-11T10:28:40Z</time>
      </trkpt>
      <trkpt lat="43.72598" lon="5.88968">
        <ele>394</ele>
        <time>2009-11-11T10:28:43Z</time>
      </trkpt>
      <trkpt lat="43.7261" lon="5.89021">
        <ele>396</ele>
        <time>2009-11-11T10:28:55Z</time>
      </trkpt>
      <trkpt lat="43.72611" lon="5.89073">
        <ele>398</ele>
        <time>2009-11-11T10:29:06Z</time>
      </trkpt>
      <trkpt lat="43.72612" lon="5.89084">
        <ele>397</ele>
        <time>2009-11-11T10:29:08Z</time>
      </trkpt>
      <trkpt lat="43.72614" lon="5.89116">
        <ele>395</ele>
        <time>2009-11-11T10:29:12Z</time>
      </trkpt>
      <trkpt lat="43.72612" lon="5.89143">
        <ele>394</ele>
        <time>2009-11-11T10:29:15Z</time>
      </trkpt>
      <trkpt lat="43.72609" lon="5.89176">
        <ele>392</ele>
        <time>2009-11-11T10:29:19Z</time>
      </trkpt>
      <trkpt lat="43.7261" lon="5.8923">
        <ele>392</ele>
        <time>2009-11-11T10:29:28Z</time>
      </trkpt>
      <trkpt lat="43.72616" lon="5.89238">
        <ele>393</ele>
        <time>2009-11-11T10:29:32Z</time>
      </trkpt>
      <trkpt lat="43.72619" lon="5.89245">
        <ele>394</ele>
        <time>2009-11-11T10:29:36Z</time>
      </trkpt>
      <trkpt lat="43.72621" lon="5.89249">
        <ele>395</ele>
        <time>2009-11-11T10:29:38Z</time>
      </trkpt>
      <trkpt lat="43.72622" lon="5.89258">
        <ele>396</ele>
        <time>2009-11-11T10:29:47Z</time>
      </trkpt>
      <trkpt lat="43.72622" lon="5.89258">
        <ele>396</ele>
        <time>2009-11-11T10:29:48Z</time>
      </trkpt>
      <trkpt lat="43.72618" lon="5.89274">
        <ele>397</ele>
        <time>2009-11-11T10:29:54Z</time>
      </trkpt>
      <trkpt lat="43.72607" lon="5.89309">
        <ele>399</ele>
        <time>2009-11-11T10:30:04Z</time>
      </trkpt>
      <trkpt lat="43.72589" lon="5.89357">
        <ele>400</ele>
        <time>2009-11-11T10:30:15Z</time>
      </trkpt>
      <trkpt lat="43.72566" lon="5.89374">
        <ele>401</ele>
        <time>2009-11-11T10:30:22Z</time>
      </trkpt>
      <trkpt lat="43.72534" lon="5.89431">
        <ele>405</ele>
        <time>2009-11-11T10:30:36Z</time>
      </trkpt>
      <trkpt lat="43.72519" lon="5.89451">
        <ele>405</ele>
        <time>2009-11-11T10:30:41Z</time>
      </trkpt>
      <trkpt lat="43.72509" lon="5.895">
        <ele>404</ele>
        <time>2009-11-11T10:30:51Z</time>
      </trkpt>
      <trkpt lat="43.72506" lon="5.89508">
        <ele>403</ele>
        <time>2009-11-11T10:30:53Z</time>
      </trkpt>
      <trkpt lat="43.72496" lon="5.89524">
        <ele>403</ele>
        <time>2009-11-11T10:31:01Z</time>
      </trkpt>
      <trkpt lat="43.72494" lon="5.8954">
        <ele>404</ele>
        <time>2009-11-11T10:31:10Z</time>
      </trkpt>
      <trkpt lat="43.72497" lon="5.89561">
        <ele>405</ele>
        <time>2009-11-11T10:31:18Z</time>
      </trkpt>
      <trkpt lat="43.72499" lon="5.89585">
        <ele>409</ele>
        <time>2009-11-11T10:31:26Z</time>
      </trkpt>
      <trkpt lat="43.72501" lon="5.89591">
        <ele>410</ele>
        <time>2009-11-11T10:31:28Z</time>
      </trkpt>
      <trkpt lat="43.7251" lon="5.89595">
        <ele>411</ele>
        <time>2009-11-11T10:31:33Z</time>
      </trkpt>
      <trkpt lat="43.72527" lon="5.89598">
        <ele>410</ele>
        <time>2009-11-11T10:31:45Z</time>
      </trkpt>
      <trkpt lat="43.72529" lon="5.89599">
        <ele>410</ele>
        <time>2009-11-11T10:31:46Z</time>
      </trkpt>
      <trkpt lat="43.72532" lon="5.896">
        <ele>411</ele>
        <time>2009-11-11T10:31:48Z</time>
      </trkpt>
      <trkpt lat="43.72547" lon="5.89591">
        <ele>413</ele>
        <time>2009-11-11T10:31:58Z</time>
      </trkpt>
      <trkpt lat="43.72567" lon="5.89585">
        <ele>417</ele>
        <time>2009-11-11T10:32:11Z</time>
      </trkpt>
      <trkpt lat="43.7257" lon="5.89584">
        <ele>418</ele>
        <time>2009-11-11T10:32:13Z</time>
      </trkpt>
      <trkpt lat="43.72577" lon="5.89585">
        <ele>419</ele>
        <time>2009-11-11T10:32:18Z</time>
      </trkpt>
      <trkpt lat="43.7258" lon="5.89587">
        <ele>419</ele>
        <time>2009-11-11T10:32:20Z</time>
      </trkpt>
      <trkpt lat="43.72592" lon="5.89587">
        <ele>420</ele>
        <time>2009-11-11T10:32:27Z</time>
      </trkpt>
      <trkpt lat="43.726" lon="5.89586">
        <ele>420</ele>
        <time>2009-11-11T10:32:31Z</time>
      </trkpt>
      <trkpt lat="43.72621" lon="5.89577">
        <ele>419</ele>
        <time>2009-11-11T10:32:39Z</time>
      </trkpt>
      <trkpt lat="43.72639" lon="5.8958">
        <ele>422</ele>
        <time>2009-11-11T10:32:49Z</time>
      </trkpt>
      <trkpt lat="43.72639" lon="5.89588">
        <ele>424</ele>
        <time>2009-11-11T10:32:53Z</time>
      </trkpt>
      <trkpt lat="43.72641" lon="5.89592">
        <ele>424</ele>
        <time>2009-11-11T10:32:55Z</time>
      </trkpt>
      <trkpt lat="43.72642" lon="5.89601">
        <ele>426</ele>
        <time>2009-11-11T10:33:00Z</time>
      </trkpt>
      <trkpt lat="43.72645" lon="5.89623">
        <ele>427</ele>
        <time>2009-11-11T10:33:09Z</time>
      </trkpt>
      <trkpt lat="43.72637" lon="5.89657">
        <ele>428</ele>
        <time>2009-11-11T10:33:24Z</time>
      </trkpt>
      <trkpt lat="43.72634" lon="5.89664">
        <ele>428</ele>
        <time>2009-11-11T10:33:27Z</time>
      </trkpt>
      <trkpt lat="43.72628" lon="5.89679">
        <ele>430</ele>
        <time>2009-11-11T10:33:33Z</time>
      </trkpt>
      <trkpt lat="43.72623" lon="5.89695">
        <ele>433</ele>
        <time>2009-11-11T10:33:40Z</time>
      </trkpt>
      <trkpt lat="43.72621" lon="5.89706">
        <ele>434</ele>
        <time>2009-11-11T10:33:44Z</time>
      </trkpt>
      <trkpt lat="43.72614" lon="5.89735">
        <ele>437</ele>
        <time>2009-11-11T10:33:56Z</time>
      </trkpt>
      <trkpt lat="43.72611" lon="5.8975">
        <ele>438</ele>
        <time>2009-11-11T10:34:03Z</time>
      </trkpt>
      <trkpt lat="43.72605" lon="5.89774">
        <ele>439</ele>
        <time>2009-11-11T10:34:15Z</time>
      </trkpt>
      <trkpt lat="43.72605" lon="5.89781">
        <ele>439</ele>
        <time>2009-11-11T10:34:18Z</time>
      </trkpt>
      <trkpt lat="43.72602" lon="5.89803">
        <ele>441</ele>
        <time>2009-11-11T10:34:29Z</time>
      </trkpt>
      <trkpt lat="43.72605" lon="5.89826">
        <ele>444</ele>
        <time>2009-11-11T10:34:39Z</time>
      </trkpt>
      <trkpt lat="43.72605" lon="5.89828">
        <ele>444</ele>
        <time>2009-11-11T10:34:40Z</time>
      </trkpt>
      <trkpt lat="43.72605" lon="5.89838">
        <ele>446</ele>
        <time>2009-11-11T10:34:46Z</time>
      </trkpt>
      <trkpt lat="43.72609" lon="5.8985">
        <ele>447</ele>
        <time>2009-11-11T10:34:52Z</time>
      </trkpt>
      <trkpt lat="43.72611" lon="5.89854">
        <ele>448</ele>
        <time>2009-11-11T10:34:54Z</time>
      </trkpt>
      <trkpt lat="43.72615" lon="5.8987">
        <ele>451</ele>
        <time>2009-11-11T10:35:03Z</time>
      </trkpt>
      <trkpt lat="43.72615" lon="5.89874">
        <ele>451</ele>
        <time>2009-11-11T10:35:05Z</time>
      </trkpt>
      <trkpt lat="43.72617" lon="5.89882">
        <ele>452</ele>
        <time>2009-11-11T10:35:09Z</time>
      </trkpt>
      <trkpt lat="43.7262" lon="5.89886">
        <ele>452</ele>
        <time>2009-11-11T10:35:11Z</time>
      </trkpt>
      <trkpt lat="43.72621" lon="5.89893">
        <ele>453</ele>
        <time>2009-11-11T10:35:15Z</time>
      </trkpt>
      <trkpt lat="43.72623" lon="5.899">
        <ele>453</ele>
        <time>2009-11-11T10:35:20Z</time>
      </trkpt>
      <trkpt lat="43.72629" lon="5.89904">
        <ele>453</ele>
        <time>2009-11-11T10:35:25Z</time>
      </trkpt>
      <trkpt lat="43.72641" lon="5.89904">
        <ele>454</ele>
        <time>2009-11-11T10:35:37Z</time>
      </trkpt>
      <trkpt lat="43.72644" lon="5.89905">
        <ele>453</ele>
        <time>2009-11-11T10:35:53Z</time>
      </trkpt>
      <trkpt lat="43.72642" lon="5.89907">
        <ele>452</ele>
        <time>2009-11-11T10:36:24Z</time>
      </trkpt>
      <trkpt lat="43.72642" lon="5.89908">
        <ele>452</ele>
        <time>2009-11-11T10:40:29Z</time>
      </trkpt>
      <trkpt lat="43.7265" lon="5.899">
        <ele>451</ele>
        <time>2009-11-11T10:40:35Z</time>
      </trkpt>
      <trkpt lat="43.72655" lon="5.89892">
        <ele>449</ele>
        <time>2009-11-11T10:40:45Z</time>
      </trkpt>
      <trkpt lat="43.72655" lon="5.89892">
        <ele>449</ele>
        <time>2009-11-11T10:40:48Z</time>
      </trkpt>
      <trkpt lat="43.72661" lon="5.89891">
        <ele>448</ele>
        <time>2009-11-11T10:40:52Z</time>
      </trkpt>
      <trkpt lat="43.72667" lon="5.89888">
        <ele>446</ele>
        <time>2009-11-11T10:41:00Z</time>
      </trkpt>
      <trkpt lat="43.72667" lon="5.89888">
        <ele>446</ele>
        <time>2009-11-11T10:41:02Z</time>
      </trkpt>
      <trkpt lat="43.72666" lon="5.89892">
        <ele>447</ele>
        <time>2009-11-11T10:41:07Z</time>
      </trkpt>
      <trkpt lat="43.72668" lon="5.89901">
        <ele>446</ele>
        <time>2009-11-11T10:41:17Z</time>
      </trkpt>
      <trkpt lat="43.72684" lon="5.89932">
        <ele>449</ele>
        <time>2009-11-11T10:41:32Z</time>
      </trkpt>
      <trkpt lat="43.72698" lon="5.8995">
        <ele>449</ele>
        <time>2009-11-11T10:41:42Z</time>
      </trkpt>
      <trkpt lat="43.727" lon="5.89951">
        <ele>449</ele>
        <time>2009-11-11T10:41:45Z</time>
      </trkpt>
      <trkpt lat="43.72714" lon="5.89956">
        <ele>452</ele>
        <time>2009-11-11T10:41:54Z</time>
      </trkpt>
      <trkpt lat="43.72715" lon="5.89957">
        <ele>452</ele>
        <time>2009-11-11T10:41:55Z</time>
      </trkpt>
      <trkpt lat="43.72721" lon="5.89957">
        <ele>453</ele>
        <time>2009-11-11T10:42:02Z</time>
      </trkpt>
      <trkpt lat="43.72731" lon="5.89957">
        <ele>454</ele>
        <time>2009-11-11T10:42:08Z</time>
      </trkpt>
      <trkpt lat="43.72741" lon="5.89959">
        <ele>456</ele>
        <time>2009-11-11T10:42:15Z</time>
      </trkpt>
      <trkpt lat="43.72744" lon="5.8996">
        <ele>457</ele>
        <time>2009-11-11T10:42:17Z</time>
      </trkpt>
      <trkpt lat="43.72751" lon="5.89962">
        <ele>459</ele>
        <time>2009-11-11T10:42:22Z</time>
      </trkpt>
      <trkpt lat="43.72756" lon="5.89965">
        <ele>460</ele>
        <time>2009-11-11T10:42:25Z</time>
      </trkpt>
      <trkpt lat="43.72759" lon="5.89968">
        <ele>461</ele>
        <time>2009-11-11T10:42:28Z</time>
      </trkpt>
      <trkpt lat="43.72764" lon="5.89964">
        <ele>463</ele>
        <time>2009-11-11T10:42:37Z</time>
      </trkpt>
      <trkpt lat="43.72776" lon="5.89958">
        <ele>464</ele>
        <time>2009-11-11T10:42:51Z</time>
      </trkpt>
      <trkpt lat="43.72779" lon="5.89959">
        <ele>464</ele>
        <time>2009-11-11T10:42:56Z</time>
      </trkpt>
      <trkpt lat="43.72785" lon="5.89966">
        <ele>464</ele>
        <time>2009-11-11T10:43:06Z</time>
      </trkpt>
      <trkpt lat="43.72789" lon="5.89974">
        <ele>465</ele>
        <time>2009-11-11T10:43:12Z</time>
      </trkpt>
      <trkpt lat="43.72791" lon="5.89987">
        <ele>466</ele>
        <time>2009-11-11T10:43:19Z</time>
      </trkpt>
      <trkpt lat="43.72792" lon="5.89992">
        <ele>466</ele>
        <time>2009-11-11T10:43:21Z</time>
      </trkpt>
      <trkpt lat="43.72791" lon="5.90001">
        <ele>467</ele>
        <time>2009-11-11T10:43:26Z</time>
      </trkpt>
      <trkpt lat="43.72802" lon="5.90028">
        <ele>469</ele>
        <time>2009-11-11T10:43:41Z</time>
      </trkpt>
      <trkpt lat="43.72818" lon="5.90045">
        <ele>472</ele>
        <time>2009-11-11T10:43:53Z</time>
      </trkpt>
      <trkpt lat="43.72829" lon="5.90056">
        <ele>474</ele>
        <time>2009-11-11T10:44:02Z</time>
      </trkpt>
      <trkpt lat="43.72834" lon="5.90071">
        <ele>476</ele>
        <time>2009-11-11T10:44:14Z</time>
      </trkpt>
      <trkpt lat="43.72835" lon="5.90082">
        <ele>478</ele>
        <time>2009-11-11T10:44:22Z</time>
      </trkpt>
      <trkpt lat="43.72838" lon="5.90084">
        <ele>479</ele>
        <time>2009-11-11T10:44:24Z</time>
      </trkpt>
      <trkpt lat="43.72845" lon="5.90093">
        <ele>479</ele>
        <time>2009-11-11T10:44:31Z</time>
      </trkpt>
      <trkpt lat="43.72846" lon="5.90119">
        <ele>479</ele>
        <time>2009-11-11T10:44:43Z</time>
      </trkpt>
      <trkpt lat="43.72835" lon="5.90147">
        <ele>480</ele>
        <time>2009-11-11T10:44:55Z</time>
      </trkpt>
      <trkpt lat="43.72834" lon="5.90149">
        <ele>480</ele>
        <time>2009-11-11T10:44:56Z</time>
      </trkpt>
      <trkpt lat="43.72822" lon="5.90177">
        <ele>481</ele>
        <time>2009-11-11T10:45:06Z</time>
      </trkpt>
      <trkpt lat="43.7281" lon="5.90185">
        <ele>481</ele>
        <time>2009-11-11T10:45:10Z</time>
      </trkpt>
      <trkpt lat="43.72788" lon="5.90207">
        <ele>479</ele>
        <time>2009-11-11T10:45:22Z</time>
      </trkpt>
      <trkpt lat="43.72785" lon="5.90209">
        <ele>479</ele>
        <time>2009-11-11T10:45:29Z</time>
      </trkpt>
      <trkpt lat="43.72784" lon="5.90212">
        <ele>482</ele>
        <time>2009-11-11T10:45:41Z</time>
      </trkpt>
      <trkpt lat="43.72783" lon="5.90212">
        <ele>484</ele>
        <time>2009-11-11T10:45:59Z</time>
      </trkpt>
      <trkpt lat="43.72779" lon="5.90213">
        <ele>481</ele>
        <time>2009-11-11T10:46:09Z</time>
      </trkpt>
      <trkpt lat="43.72778" lon="5.90213">
        <ele>479</ele>
        <time>2009-11-11T10:46:15Z</time>
      </trkpt>
      <trkpt lat="43.72767" lon="5.90218">
        <ele>480</ele>
        <time>2009-11-11T10:46:22Z</time>
      </trkpt>
      <trkpt lat="43.72746" lon="5.90228">
        <ele>481</ele>
        <time>2009-11-11T10:46:32Z</time>
      </trkpt>
      <trkpt lat="43.7273" lon="5.90233">
        <ele>481</ele>
        <time>2009-11-11T10:46:37Z</time>
      </trkpt>
      <trkpt lat="43.7272" lon="5.90234">
        <ele>482</ele>
        <time>2009-11-11T10:46:42Z</time>
      </trkpt>
      <trkpt lat="43.72694" lon="5.90223">
        <ele>480</ele>
        <time>2009-11-11T10:46:52Z</time>
      </trkpt>
      <trkpt lat="43.72676" lon="5.90227">
        <ele>479</ele>
        <time>2009-11-11T10:46:56Z</time>
      </trkpt>
      <trkpt lat="43.72664" lon="5.90234">
        <ele>478</ele>
        <time>2009-11-11T10:46:59Z</time>
      </trkpt>
      <trkpt lat="43.72638" lon="5.90264">
        <ele>473</ele>
        <time>2009-11-11T10:47:08Z</time>
      </trkpt>
      <trkpt lat="43.72637" lon="5.90268">
        <ele>473</ele>
        <time>2009-11-11T10:47:09Z</time>
      </trkpt>
      <trkpt lat="43.72623" lon="5.90284">
        <ele>472</ele>
        <time>2009-11-11T10:47:13Z</time>
      </trkpt>
      <trkpt lat="43.72615" lon="5.90291">
        <ele>472</ele>
        <time>2009-11-11T10:47:15Z</time>
      </trkpt>
      <trkpt lat="43.726" lon="5.90309">
        <ele>471</ele>
        <time>2009-11-11T10:47:19Z</time>
      </trkpt>
      <trkpt lat="43.72575" lon="5.90334">
        <ele>470</ele>
        <time>2009-11-11T10:47:26Z</time>
      </trkpt>
      <trkpt lat="43.72571" lon="5.90355">
        <ele>467</ele>
        <time>2009-11-11T10:47:30Z</time>
      </trkpt>
      <trkpt lat="43.72577" lon="5.90402">
        <ele>462</ele>
        <time>2009-11-11T10:47:38Z</time>
      </trkpt>
      <trkpt lat="43.72572" lon="5.90402">
        <ele>461</ele>
        <time>2009-11-11T10:47:40Z</time>
      </trkpt>
      <trkpt lat="43.72546" lon="5.90394">
        <ele>458</ele>
        <time>2009-11-11T10:47:47Z</time>
      </trkpt>
      <trkpt lat="43.72527" lon="5.90387">
        <ele>454</ele>
        <time>2009-11-11T10:47:53Z</time>
      </trkpt>
      <trkpt lat="43.72514" lon="5.90384">
        <ele>452</ele>
        <time>2009-11-11T10:47:57Z</time>
      </trkpt>
      <trkpt lat="43.72508" lon="5.90384">
        <ele>451</ele>
        <time>2009-11-11T10:47:59Z</time>
      </trkpt>
      <trkpt lat="43.72501" lon="5.90392">
        <ele>450</ele>
        <time>2009-11-11T10:48:03Z</time>
      </trkpt>
      <trkpt lat="43.72483" lon="5.9041">
        <ele>447</ele>
        <time>2009-11-11T10:48:09Z</time>
      </trkpt>
      <trkpt lat="43.72469" lon="5.90407">
        <ele>446</ele>
        <time>2009-11-11T10:48:12Z</time>
      </trkpt>
      <trkpt lat="43.72459" lon="5.90405">
        <ele>445</ele>
        <time>2009-11-11T10:48:14Z</time>
      </trkpt>
      <trkpt lat="43.72428" lon="5.9038">
        <ele>440</ele>
        <time>2009-11-11T10:48:23Z</time>
      </trkpt>
      <trkpt lat="43.72418" lon="5.90374">
        <ele>439</ele>
        <time>2009-11-11T10:48:26Z</time>
      </trkpt>
      <trkpt lat="43.72393" lon="5.90356">
        <ele>435</ele>
        <time>2009-11-11T10:48:33Z</time>
      </trkpt>
      <trkpt lat="43.7238" lon="5.9033">
        <ele>432</ele>
        <time>2009-11-11T10:48:39Z</time>
      </trkpt>
      <trkpt lat="43.72332" lon="5.90296">
        <ele>429</ele>
        <time>2009-11-11T10:48:51Z</time>
      </trkpt>
      <trkpt lat="43.72319" lon="5.9028">
        <ele>428</ele>
        <time>2009-11-11T10:48:55Z</time>
      </trkpt>
      <trkpt lat="43.72309" lon="5.90264">
        <ele>427</ele>
        <time>2009-11-11T10:48:59Z</time>
      </trkpt>
      <trkpt lat="43.72297" lon="5.90232">
        <ele>429</ele>
        <time>2009-11-11T10:49:09Z</time>
      </trkpt>
      <trkpt lat="43.72283" lon="5.902">
        <ele>430</ele>
        <time>2009-11-11T10:49:20Z</time>
      </trkpt>
      <trkpt lat="43.72272" lon="5.90195">
        <ele>431</ele>
        <time>2009-11-11T10:49:26Z</time>
      </trkpt>
      <trkpt lat="43.72265" lon="5.90195">
        <ele>432</ele>
        <time>2009-11-11T10:49:29Z</time>
      </trkpt>
      <trkpt lat="43.72256" lon="5.90212">
        <ele>433</ele>
        <time>2009-11-11T10:49:37Z</time>
      </trkpt>
      <trkpt lat="43.7225" lon="5.90234">
        <ele>434</ele>
        <time>2009-11-11T10:49:43Z</time>
      </trkpt>
      <trkpt lat="43.72213" lon="5.90266">
        <ele>433</ele>
        <time>2009-11-11T10:49:51Z</time>
      </trkpt>
      <trkpt lat="43.72181" lon="5.90272">
        <ele>430</ele>
        <time>2009-11-11T10:49:56Z</time>
      </trkpt>
      <trkpt lat="43.72132" lon="5.90257">
        <ele>427</ele>
        <time>2009-11-11T10:50:02Z</time>
      </trkpt>
      <trkpt lat="43.72085" lon="5.90263">
        <ele>422</ele>
        <time>2009-11-11T10:50:08Z</time>
      </trkpt>
      <trkpt lat="43.72063" lon="5.90264">
        <ele>419</ele>
        <time>2009-11-11T10:50:14Z</time>
      </trkpt>
      <trkpt lat="43.72063" lon="5.90265">
        <ele>420</ele>
        <time>2009-11-11T10:50:33Z</time>
      </trkpt>
      <trkpt lat="43.72055" lon="5.9027">
        <ele>419</ele>
        <time>2009-11-11T10:50:41Z</time>
      </trkpt>
      <trkpt lat="43.72048" lon="5.90275">
        <ele>418</ele>
        <time>2009-11-11T10:50:54Z</time>
      </trkpt>
      <trkpt lat="43.72047" lon="5.90278">
        <ele>417</ele>
        <time>2009-11-11T10:51:07Z</time>
      </trkpt>
      <trkpt lat="43.72047" lon="5.9028">
        <ele>417</ele>
        <time>2009-11-11T10:51:08Z</time>
      </trkpt>
      <trkpt lat="43.7203" lon="5.90306">
        <ele>415</ele>
        <time>2009-11-11T10:51:18Z</time>
      </trkpt>
      <trkpt lat="43.72013" lon="5.90327">
        <ele>414</ele>
        <time>2009-11-11T10:51:27Z</time>
      </trkpt>
      <trkpt lat="43.72011" lon="5.90312">
        <ele>412</ele>
        <time>2009-11-11T10:51:31Z</time>
      </trkpt>
      <trkpt lat="43.72009" lon="5.90288">
        <ele>411</ele>
        <time>2009-11-11T10:51:36Z</time>
      </trkpt>
      <trkpt lat="43.72" lon="5.90287">
        <ele>409</ele>
        <time>2009-11-11T10:51:40Z</time>
      </trkpt>
      <trkpt lat="43.71989" lon="5.90295">
        <ele>408</ele>
        <time>2009-11-11T10:51:43Z</time>
      </trkpt>
      <trkpt lat="43.71954" lon="5.90303">
        <ele>405</ele>
        <time>2009-11-11T10:51:49Z</time>
      </trkpt>
      <trkpt lat="43.7194" lon="5.9031">
        <ele>403</ele>
        <time>2009-11-11T10:51:51Z</time>
      </trkpt>
      <trkpt lat="43.71912" lon="5.90316">
        <ele>401</ele>
        <time>2009-11-11T10:51:55Z</time>
      </trkpt>
      <trkpt lat="43.7189" lon="5.90323">
        <ele>400</ele>
        <time>2009-11-11T10:52:04Z</time>
      </trkpt>
      <trkpt lat="43.71889" lon="5.90321">
        <ele>401</ele>
        <time>2009-11-11T10:52:19Z</time>
      </trkpt>
      <trkpt lat="43.71889" lon="5.90328">
        <ele>401</ele>
        <time>2009-11-11T10:52:22Z</time>
      </trkpt>
      <trkpt lat="43.71881" lon="5.90356">
        <ele>402</ele>
        <time>2009-11-11T10:52:33Z</time>
      </trkpt>
      <trkpt lat="43.71865" lon="5.90371">
        <ele>405</ele>
        <time>2009-11-11T10:52:45Z</time>
      </trkpt>
      <trkpt lat="43.71839" lon="5.90386">
        <ele>409</ele>
        <time>2009-11-11T10:52:59Z</time>
      </trkpt>
      <trkpt lat="43.71817" lon="5.90398">
        <ele>413</ele>
        <time>2009-11-11T10:53:12Z</time>
      </trkpt>
      <trkpt lat="43.71796" lon="5.90404">
        <ele>416</ele>
        <time>2009-11-11T10:53:25Z</time>
      </trkpt>
      <trkpt lat="43.71777" lon="5.90414">
        <ele>419</ele>
        <time>2009-11-11T10:53:37Z</time>
      </trkpt>
      <trkpt lat="43.71772" lon="5.90416">
        <ele>420</ele>
        <time>2009-11-11T10:53:41Z</time>
      </trkpt>
      <trkpt lat="43.71764" lon="5.90423">
        <ele>421</ele>
        <time>2009-11-11T10:53:48Z</time>
      </trkpt>
      <trkpt lat="43.71759" lon="5.90427">
        <ele>422</ele>
        <time>2009-11-11T10:53:53Z</time>
      </trkpt>
      <trkpt lat="43.7174" lon="5.9044">
        <ele>424</ele>
        <time>2009-11-11T10:54:08Z</time>
      </trkpt>
      <trkpt lat="43.71722" lon="5.90459">
        <ele>423</ele>
        <time>2009-11-11T10:54:22Z</time>
      </trkpt>
      <trkpt lat="43.71702" lon="5.90481">
        <ele>427</ele>
        <time>2009-11-11T10:54:37Z</time>
      </trkpt>
      <trkpt lat="43.71686" lon="5.90505">
        <ele>429</ele>
        <time>2009-11-11T10:54:52Z</time>
      </trkpt>
      <trkpt lat="43.71663" lon="5.90518">
        <ele>430</ele>
        <time>2009-11-11T10:55:07Z</time>
      </trkpt>
      <trkpt lat="43.71655" lon="5.90528">
        <ele>430</ele>
        <time>2009-11-11T10:55:13Z</time>
      </trkpt>
      <trkpt lat="43.71645" lon="5.9055">
        <ele>431</ele>
        <time>2009-11-11T10:55:27Z</time>
      </trkpt>
      <trkpt lat="43.71638" lon="5.90564">
        <ele>433</ele>
        <time>2009-11-11T10:55:34Z</time>
      </trkpt>
      <trkpt lat="43.71623" lon="5.90605">
        <ele>435</ele>
        <time>2009-11-11T10:55:52Z</time>
      </trkpt>
      <trkpt lat="43.71608" lon="5.90642">
        <ele>437</ele>
        <time>2009-11-11T10:56:08Z</time>
      </trkpt>
      <trkpt lat="43.71599" lon="5.90654">
        <ele>438</ele>
        <time>2009-11-11T10:56:15Z</time>
      </trkpt>
      <trkpt lat="43.71583" lon="5.90669">
        <ele>440</ele>
        <time>2009-11-11T10:56:25Z</time>
      </trkpt>
      <trkpt lat="43.71556" lon="5.90686">
        <ele>442</ele>
        <time>2009-11-11T10:56:40Z</time>
      </trkpt>
      <trkpt lat="43.71537" lon="5.90712">
        <ele>443</ele>
        <time>2009-11-11T10:56:54Z</time>
      </trkpt>
      <trkpt lat="43.71531" lon="5.90719">
        <ele>444</ele>
        <time>2009-11-11T10:56:58Z</time>
      </trkpt>
      <trkpt lat="43.71525" lon="5.90726">
        <ele>445</ele>
        <time>2009-11-11T10:57:02Z</time>
      </trkpt>
      <trkpt lat="43.715" lon="5.90753">
        <ele>447</ele>
        <time>2009-11-11T10:57:18Z</time>
      </trkpt>
      <trkpt lat="43.71473" lon="5.90761">
        <ele>446</ele>
        <time>2009-11-11T10:57:31Z</time>
      </trkpt>
      <trkpt lat="43.71448" lon="5.90776">
        <ele>445</ele>
        <time>2009-11-11T10:57:41Z</time>
      </trkpt>
      <trkpt lat="43.71422" lon="5.90803">
        <ele>447</ele>
        <time>2009-11-11T10:57:54Z</time>
      </trkpt>
      <trkpt lat="43.71394" lon="5.90825">
        <ele>447</ele>
        <time>2009-11-11T10:58:06Z</time>
      </trkpt>
      <trkpt lat="43.71371" lon="5.90856">
        <ele>447</ele>
        <time>2009-11-11T10:58:19Z</time>
      </trkpt>
      <trkpt lat="43.71348" lon="5.90899">
        <ele>447</ele>
        <time>2009-11-11T10:58:31Z</time>
      </trkpt>
      <trkpt lat="43.71335" lon="5.9093">
        <ele>446</ele>
        <time>2009-11-11T10:58:37Z</time>
      </trkpt>
      <trkpt lat="43.71329" lon="5.90941">
        <ele>444</ele>
        <time>2009-11-11T10:58:39Z</time>
      </trkpt>
      <trkpt lat="43.71317" lon="5.90969">
        <ele>441</ele>
        <time>2009-11-11T10:58:43Z</time>
      </trkpt>
      <trkpt lat="43.71302" lon="5.91001">
        <ele>438</ele>
        <time>2009-11-11T10:58:47Z</time>
      </trkpt>
      <trkpt lat="43.71295" lon="5.91015">
        <ele>438</ele>
        <time>2009-11-11T10:58:49Z</time>
      </trkpt>
      <trkpt lat="43.71281" lon="5.91048">
        <ele>439</ele>
        <time>2009-11-11T10:58:54Z</time>
      </trkpt>
      <trkpt lat="43.71275" lon="5.91077">
        <ele>438</ele>
        <time>2009-11-11T10:58:58Z</time>
      </trkpt>
      <trkpt lat="43.71243" lon="5.91108">
        <ele>437</ele>
        <time>2009-11-11T10:59:06Z</time>
      </trkpt>
      <trkpt lat="43.71236" lon="5.91113">
        <ele>437</ele>
        <time>2009-11-11T10:59:08Z</time>
      </trkpt>
      <trkpt lat="43.71193" lon="5.91147">
        <ele>438</ele>
        <time>2009-11-11T10:59:21Z</time>
      </trkpt>
      <trkpt lat="43.71186" lon="5.91167">
        <ele>438</ele>
        <time>2009-11-11T10:59:26Z</time>
      </trkpt>
      <trkpt lat="43.71158" lon="5.91219">
        <ele>441</ele>
        <time>2009-11-11T10:59:41Z</time>
      </trkpt>
      <trkpt lat="43.71131" lon="5.91268">
        <ele>442</ele>
        <time>2009-11-11T10:59:56Z</time>
      </trkpt>
      <trkpt lat="43.71098" lon="5.91304">
        <ele>444</ele>
        <time>2009-11-11T11:00:09Z</time>
      </trkpt>
      <trkpt lat="43.71064" lon="5.91342">
        <ele>445</ele>
        <time>2009-11-11T11:00:22Z</time>
      </trkpt>
      <trkpt lat="43.71055" lon="5.91355">
        <ele>446</ele>
        <time>2009-11-11T11:00:26Z</time>
      </trkpt>
      <trkpt lat="43.71062" lon="5.91368">
        <ele>448</ele>
        <time>2009-11-11T11:00:32Z</time>
      </trkpt>
      <trkpt lat="43.71098" lon="5.9135">
        <ele>450</ele>
        <time>2009-11-11T11:00:45Z</time>
      </trkpt>
      <trkpt lat="43.71129" lon="5.91366">
        <ele>450</ele>
        <time>2009-11-11T11:00:56Z</time>
      </trkpt>
      <trkpt lat="43.71175" lon="5.91391">
        <ele>450</ele>
        <time>2009-11-11T11:01:10Z</time>
      </trkpt>
      <trkpt lat="43.71187" lon="5.91392">
        <ele>449</ele>
        <time>2009-11-11T11:01:13Z</time>
      </trkpt>
      <trkpt lat="43.712" lon="5.91389">
        <ele>448</ele>
        <time>2009-11-11T11:01:16Z</time>
      </trkpt>
      <trkpt lat="43.71215" lon="5.9138">
        <ele>448</ele>
        <time>2009-11-11T11:01:20Z</time>
      </trkpt>
      <trkpt lat="43.71268" lon="5.91358">
        <ele>447</ele>
        <time>2009-11-11T11:01:33Z</time>
      </trkpt>
      <trkpt lat="43.71297" lon="5.91349">
        <ele>446</ele>
        <time>2009-11-11T11:01:37Z</time>
      </trkpt>
      <trkpt lat="43.71319" lon="5.91332">
        <ele>443</ele>
        <time>2009-11-11T11:01:41Z</time>
      </trkpt>
      <trkpt lat="43.71346" lon="5.91302">
        <ele>439</ele>
        <time>2009-11-11T11:01:46Z</time>
      </trkpt>
      <trkpt lat="43.71361" lon="5.91288">
        <ele>437</ele>
        <time>2009-11-11T11:01:49Z</time>
      </trkpt>
      <trkpt lat="43.71385" lon="5.91269">
        <ele>435</ele>
        <time>2009-11-11T11:01:54Z</time>
      </trkpt>
      <trkpt lat="43.71415" lon="5.91252">
        <ele>432</ele>
        <time>2009-11-11T11:02:00Z</time>
      </trkpt>
      <trkpt lat="43.71445" lon="5.91256">
        <ele>430</ele>
        <time>2009-11-11T11:02:08Z</time>
      </trkpt>
      <trkpt lat="43.71445" lon="5.91258">
        <ele>430</ele>
        <time>2009-11-11T11:02:09Z</time>
      </trkpt>
      <trkpt lat="43.71444" lon="5.91263">
        <ele>430</ele>
        <time>2009-11-11T11:02:11Z</time>
      </trkpt>
      <trkpt lat="43.71442" lon="5.91277">
        <ele>433</ele>
        <time>2009-11-11T11:02:18Z</time>
      </trkpt>
      <trkpt lat="43.71442" lon="5.91308">
        <ele>435</ele>
        <time>2009-11-11T11:02:32Z</time>
      </trkpt>
      <trkpt lat="43.71442" lon="5.91355">
        <ele>437</ele>
        <time>2009-11-11T11:02:47Z</time>
      </trkpt>
      <trkpt lat="43.71445" lon="5.91365">
        <ele>437</ele>
        <time>2009-11-11T11:02:50Z</time>
      </trkpt>
      <trkpt lat="43.71475" lon="5.91385">
        <ele>441</ele>
        <time>2009-11-11T11:03:04Z</time>
      </trkpt>
      <trkpt lat="43.71484" lon="5.91424">
        <ele>440</ele>
        <time>2009-11-11T11:03:16Z</time>
      </trkpt>
      <trkpt lat="43.71483" lon="5.91465">
        <ele>440</ele>
        <time>2009-11-11T11:03:29Z</time>
      </trkpt>
      <trkpt lat="43.71494" lon="5.91504">
        <ele>442</ele>
        <time>2009-11-11T11:03:43Z</time>
      </trkpt>
      <trkpt lat="43.71517" lon="5.91524">
        <ele>444</ele>
        <time>2009-11-11T11:03:56Z</time>
      </trkpt>
      <trkpt lat="43.71532" lon="5.91539">
        <ele>446</ele>
        <time>2009-11-11T11:04:04Z</time>
      </trkpt>
      <trkpt lat="43.71533" lon="5.91545">
        <ele>447</ele>
        <time>2009-11-11T11:04:06Z</time>
      </trkpt>
      <trkpt lat="43.71525" lon="5.9158">
        <ele>450</ele>
        <time>2009-11-11T11:04:20Z</time>
      </trkpt>
      <trkpt lat="43.71533" lon="5.91608">
        <ele>451</ele>
        <time>2009-11-11T11:04:31Z</time>
      </trkpt>
      <trkpt lat="43.71535" lon="5.91636">
        <ele>453</ele>
        <time>2009-11-11T11:04:42Z</time>
      </trkpt>
      <trkpt lat="43.71537" lon="5.91664">
        <ele>455</ele>
        <time>2009-11-11T11:04:54Z</time>
      </trkpt>
      <trkpt lat="43.71537" lon="5.91681">
        <ele>457</ele>
        <time>2009-11-11T11:05:02Z</time>
      </trkpt>
      <trkpt lat="43.71537" lon="5.91719">
        <ele>460</ele>
        <time>2009-11-11T11:05:17Z</time>
      </trkpt>
      <trkpt lat="43.71535" lon="5.9173">
        <ele>461</ele>
        <time>2009-11-11T11:05:22Z</time>
      </trkpt>
      <trkpt lat="43.7153" lon="5.91759">
        <ele>463</ele>
        <time>2009-11-11T11:05:35Z</time>
      </trkpt>
      <trkpt lat="43.71533" lon="5.91788">
        <ele>463</ele>
        <time>2009-11-11T11:05:47Z</time>
      </trkpt>
      <trkpt lat="43.71522" lon="5.91827">
        <ele>465</ele>
        <time>2009-11-11T11:06:03Z</time>
      </trkpt>
      <trkpt lat="43.71519" lon="5.91837">
        <ele>465</ele>
        <time>2009-11-11T11:06:07Z</time>
      </trkpt>
      <trkpt lat="43.71515" lon="5.91849">
        <ele>466</ele>
        <time>2009-11-11T11:06:12Z</time>
      </trkpt>
      <trkpt lat="43.71508" lon="5.91857">
        <ele>468</ele>
        <time>2009-11-11T11:06:17Z</time>
      </trkpt>
      <trkpt lat="43.71495" lon="5.91864">
        <ele>469</ele>
        <time>2009-11-11T11:06:26Z</time>
      </trkpt>
      <trkpt lat="43.71483" lon="5.9187">
        <ele>469</ele>
        <time>2009-11-11T11:06:33Z</time>
      </trkpt>
      <trkpt lat="43.71455" lon="5.91894">
        <ele>468</ele>
        <time>2009-11-11T11:06:49Z</time>
      </trkpt>
      <trkpt lat="43.71435" lon="5.9191">
        <ele>467</ele>
        <time>2009-11-11T11:06:57Z</time>
      </trkpt>
      <trkpt lat="43.71421" lon="5.91948">
        <ele>462</ele>
        <time>2009-11-11T11:07:05Z</time>
      </trkpt>
      <trkpt lat="43.71413" lon="5.91961">
        <ele>461</ele>
        <time>2009-11-11T11:07:08Z</time>
      </trkpt>
      <trkpt lat="43.71409" lon="5.91981">
        <ele>458</ele>
        <time>2009-11-11T11:07:15Z</time>
      </trkpt>
      <trkpt lat="43.71405" lon="5.92018">
        <ele>455</ele>
        <time>2009-11-11T11:07:27Z</time>
      </trkpt>
      <trkpt lat="43.71398" lon="5.92061">
        <ele>457</ele>
        <time>2009-11-11T11:07:41Z</time>
      </trkpt>
      <trkpt lat="43.71399" lon="5.92098">
        <ele>461</ele>
        <time>2009-11-11T11:07:54Z</time>
      </trkpt>
      <trkpt lat="43.71404" lon="5.9212">
        <ele>463</ele>
        <time>2009-11-11T11:08:02Z</time>
      </trkpt>
      <trkpt lat="43.7138" lon="5.92144">
        <ele>465</ele>
        <time>2009-11-11T11:08:16Z</time>
      </trkpt>
      <trkpt lat="43.71369" lon="5.92174">
        <ele>464</ele>
        <time>2009-11-11T11:08:28Z</time>
      </trkpt>
      <trkpt lat="43.71381" lon="5.92213">
        <ele>465</ele>
        <time>2009-11-11T11:08:43Z</time>
      </trkpt>
      <trkpt lat="43.7141" lon="5.92233">
        <ele>467</ele>
        <time>2009-11-11T11:08:59Z</time>
      </trkpt>
      <trkpt lat="43.7142" lon="5.92266">
        <ele>467</ele>
        <time>2009-11-11T11:09:11Z</time>
      </trkpt>
      <trkpt lat="43.71418" lon="5.92315">
        <ele>469</ele>
        <time>2009-11-11T11:09:26Z</time>
      </trkpt>
      <trkpt lat="43.7141" lon="5.92327">
        <ele>470</ele>
        <time>2009-11-11T11:09:31Z</time>
      </trkpt>
      <trkpt lat="43.71408" lon="5.92341">
        <ele>471</ele>
        <time>2009-11-11T11:09:36Z</time>
      </trkpt>
      <trkpt lat="43.71401" lon="5.92348">
        <ele>472</ele>
        <time>2009-11-11T11:09:40Z</time>
      </trkpt>
      <trkpt lat="43.71374" lon="5.92366">
        <ele>472</ele>
        <time>2009-11-11T11:09:53Z</time>
      </trkpt>
      <trkpt lat="43.71364" lon="5.92416">
        <ele>473</ele>
        <time>2009-11-11T11:10:09Z</time>
      </trkpt>
      <trkpt lat="43.71375" lon="5.92451">
        <ele>474</ele>
        <time>2009-11-11T11:10:22Z</time>
      </trkpt>
      <trkpt lat="43.71385" lon="5.92486">
        <ele>475</ele>
        <time>2009-11-11T11:10:36Z</time>
      </trkpt>
      <trkpt lat="43.71369" lon="5.92513">
        <ele>474</ele>
        <time>2009-11-11T11:10:48Z</time>
      </trkpt>
      <trkpt lat="43.71347" lon="5.92532">
        <ele>477</ele>
        <time>2009-11-11T11:11:00Z</time>
      </trkpt>
      <trkpt lat="43.71326" lon="5.92576">
        <ele>479</ele>
        <time>2009-11-11T11:11:17Z</time>
      </trkpt>
      <trkpt lat="43.71321" lon="5.92614">
        <ele>480</ele>
        <time>2009-11-11T11:11:30Z</time>
      </trkpt>
      <trkpt lat="43.71312" lon="5.92651">
        <ele>482</ele>
        <time>2009-11-11T11:11:43Z</time>
      </trkpt>
      <trkpt lat="43.713" lon="5.92693">
        <ele>481</ele>
        <time>2009-11-11T11:11:58Z</time>
      </trkpt>
      <trkpt lat="43.71293" lon="5.92749">
        <ele>481</ele>
        <time>2009-11-11T11:12:17Z</time>
      </trkpt>
      <trkpt lat="43.71289" lon="5.92793">
        <ele>483</ele>
        <time>2009-11-11T11:12:32Z</time>
      </trkpt>
      <trkpt lat="43.71288" lon="5.92829">
        <ele>487</ele>
        <time>2009-11-11T11:12:47Z</time>
      </trkpt>
      <trkpt lat="43.71296" lon="5.92854">
        <ele>488</ele>
        <time>2009-11-11T11:12:59Z</time>
      </trkpt>
      <trkpt lat="43.71293" lon="5.9289">
        <ele>489</ele>
        <time>2009-11-11T11:13:11Z</time>
      </trkpt>
      <trkpt lat="43.71283" lon="5.9294">
        <ele>491</ele>
        <time>2009-11-11T11:13:27Z</time>
      </trkpt>
      <trkpt lat="43.71273" lon="5.92975">
        <ele>492</ele>
        <time>2009-11-11T11:13:38Z</time>
      </trkpt>
      <trkpt lat="43.71273" lon="5.9301">
        <ele>492</ele>
        <time>2009-11-11T11:13:49Z</time>
      </trkpt>
      <trkpt lat="43.71284" lon="5.9304">
        <ele>494</ele>
        <time>2009-11-11T11:14:01Z</time>
      </trkpt>
      <trkpt lat="43.7129" lon="5.93046">
        <ele>495</ele>
        <time>2009-11-11T11:14:05Z</time>
      </trkpt>
      <trkpt lat="43.71296" lon="5.93045">
        <ele>496</ele>
        <time>2009-11-11T11:14:10Z</time>
      </trkpt>
      <trkpt lat="43.7131" lon="5.93042">
        <ele>499</ele>
        <time>2009-11-11T11:14:18Z</time>
      </trkpt>
      <trkpt lat="43.71315" lon="5.93041">
        <ele>500</ele>
        <time>2009-11-11T11:14:21Z</time>
      </trkpt>
      <trkpt lat="43.71326" lon="5.93032">
        <ele>501</ele>
        <time>2009-11-11T11:14:30Z</time>
      </trkpt>
      <trkpt lat="43.71332" lon="5.93029">
        <ele>503</ele>
        <time>2009-11-11T11:14:35Z</time>
      </trkpt>
      <trkpt lat="43.71344" lon="5.93015">
        <ele>504</ele>
        <time>2009-11-11T11:14:48Z</time>
      </trkpt>
      <trkpt lat="43.71351" lon="5.93012">
        <ele>505</ele>
        <time>2009-11-11T11:14:53Z</time>
      </trkpt>
      <trkpt lat="43.71355" lon="5.93005">
        <ele>507</ele>
        <time>2009-11-11T11:14:57Z</time>
      </trkpt>
      <trkpt lat="43.71364" lon="5.92998">
        <ele>508</ele>
        <time>2009-11-11T11:15:04Z</time>
      </trkpt>
      <trkpt lat="43.71374" lon="5.92989">
        <ele>509</ele>
        <time>2009-11-11T11:15:12Z</time>
      </trkpt>
      <trkpt lat="43.7139" lon="5.9298">
        <ele>511</ele>
        <time>2009-11-11T11:15:24Z</time>
      </trkpt>
      <trkpt lat="43.71391" lon="5.9298">
        <ele>511</ele>
        <time>2009-11-11T11:15:25Z</time>
      </trkpt>
      <trkpt lat="43.71398" lon="5.92975">
        <ele>513</ele>
        <time>2009-11-11T11:15:31Z</time>
      </trkpt>
      <trkpt lat="43.71406" lon="5.92968">
        <ele>514</ele>
        <time>2009-11-11T11:15:39Z</time>
      </trkpt>
      <trkpt lat="43.71413" lon="5.92964">
        <ele>516</ele>
        <time>2009-11-11T11:15:45Z</time>
      </trkpt>
      <trkpt lat="43.71429" lon="5.92954">
        <ele>521</ele>
        <time>2009-11-11T11:15:58Z</time>
      </trkpt>
      <trkpt lat="43.71437" lon="5.9295">
        <ele>523</ele>
        <time>2009-11-11T11:16:05Z</time>
      </trkpt>
      <trkpt lat="43.7145" lon="5.92945">
        <ele>526</ele>
        <time>2009-11-11T11:16:18Z</time>
      </trkpt>
      <trkpt lat="43.71451" lon="5.92943">
        <ele>526</ele>
        <time>2009-11-11T11:16:20Z</time>
      </trkpt>
      <trkpt lat="43.71456" lon="5.92936">
        <ele>526</ele>
        <time>2009-11-11T11:16:28Z</time>
      </trkpt>
      <trkpt lat="43.71467" lon="5.92928">
        <ele>526</ele>
        <time>2009-11-11T11:16:41Z</time>
      </trkpt>
      <trkpt lat="43.71474" lon="5.92922">
        <ele>528</ele>
        <time>2009-11-11T11:16:48Z</time>
      </trkpt>
      <trkpt lat="43.71483" lon="5.92909">
        <ele>528</ele>
        <time>2009-11-11T11:17:01Z</time>
      </trkpt>
      <trkpt lat="43.71485" lon="5.92907">
        <ele>528</ele>
        <time>2009-11-11T11:17:03Z</time>
      </trkpt>
      <trkpt lat="43.71488" lon="5.92902">
        <ele>528</ele>
        <time>2009-11-11T11:17:07Z</time>
      </trkpt>
      <trkpt lat="43.71491" lon="5.92899">
        <ele>529</ele>
        <time>2009-11-11T11:17:11Z</time>
      </trkpt>
      <trkpt lat="43.71498" lon="5.92893">
        <ele>529</ele>
        <time>2009-11-11T11:17:19Z</time>
      </trkpt>
      <trkpt lat="43.71506" lon="5.92886">
        <ele>529</ele>
        <time>2009-11-11T11:17:25Z</time>
      </trkpt>
      <trkpt lat="43.71511" lon="5.92882">
        <ele>531</ele>
        <time>2009-11-11T11:17:30Z</time>
      </trkpt>
      <trkpt lat="43.7152" lon="5.9287">
        <ele>535</ele>
        <time>2009-11-11T11:17:39Z</time>
      </trkpt>
      <trkpt lat="43.71527" lon="5.92859">
        <ele>536</ele>
        <time>2009-11-11T11:17:47Z</time>
      </trkpt>
      <trkpt lat="43.71543" lon="5.92847">
        <ele>539</ele>
        <time>2009-11-11T11:18:01Z</time>
      </trkpt>
      <trkpt lat="43.71555" lon="5.92847">
        <ele>541</ele>
        <time>2009-11-11T11:18:10Z</time>
      </trkpt>
      <trkpt lat="43.71571" lon="5.92837">
        <ele>546</ele>
        <time>2009-11-11T11:18:24Z</time>
      </trkpt>
      <trkpt lat="43.71576" lon="5.92838">
        <ele>546</ele>
        <time>2009-11-11T11:18:28Z</time>
      </trkpt>
      <trkpt lat="43.71587" lon="5.9283">
        <ele>546</ele>
        <time>2009-11-11T11:18:38Z</time>
      </trkpt>
      <trkpt lat="43.716" lon="5.92827">
        <ele>548</ele>
        <time>2009-11-11T11:18:47Z</time>
      </trkpt>
      <trkpt lat="43.71604" lon="5.92824">
        <ele>550</ele>
        <time>2009-11-11T11:18:51Z</time>
      </trkpt>
      <trkpt lat="43.71606" lon="5.92823">
        <ele>550</ele>
        <time>2009-11-11T11:18:53Z</time>
      </trkpt>
      <trkpt lat="43.71611" lon="5.92824">
        <ele>551</ele>
        <time>2009-11-11T11:18:57Z</time>
      </trkpt>
      <trkpt lat="43.71625" lon="5.92828">
        <ele>551</ele>
        <time>2009-11-11T11:19:09Z</time>
      </trkpt>
      <trkpt lat="43.71632" lon="5.92833">
        <ele>551</ele>
        <time>2009-11-11T11:19:14Z</time>
      </trkpt>
      <trkpt lat="43.71634" lon="5.92836">
        <ele>552</ele>
        <time>2009-11-11T11:19:17Z</time>
      </trkpt>
      <trkpt lat="43.71649" lon="5.92834">
        <ele>555</ele>
        <time>2009-11-11T11:19:27Z</time>
      </trkpt>
      <trkpt lat="43.71668" lon="5.9283">
        <ele>557</ele>
        <time>2009-11-11T11:19:39Z</time>
      </trkpt>
      <trkpt lat="43.71689" lon="5.92827">
        <ele>560</ele>
        <time>2009-11-11T11:19:53Z</time>
      </trkpt>
      <trkpt lat="43.717" lon="5.92823">
        <ele>562</ele>
        <time>2009-11-11T11:20:00Z</time>
      </trkpt>
      <trkpt lat="43.71725" lon="5.92819">
        <ele>565</ele>
        <time>2009-11-11T11:20:14Z</time>
      </trkpt>
      <trkpt lat="43.71747" lon="5.92812">
        <ele>567</ele>
        <time>2009-11-11T11:20:26Z</time>
      </trkpt>
      <trkpt lat="43.71765" lon="5.92817">
        <ele>568</ele>
        <time>2009-11-11T11:20:40Z</time>
      </trkpt>
      <trkpt lat="43.71786" lon="5.92809">
        <ele>569</ele>
        <time>2009-11-11T11:20:54Z</time>
      </trkpt>
      <trkpt lat="43.71807" lon="5.92799">
        <ele>572</ele>
        <time>2009-11-11T11:21:06Z</time>
      </trkpt>
      <trkpt lat="43.71823" lon="5.92809">
        <ele>574</ele>
        <time>2009-11-11T11:21:18Z</time>
      </trkpt>
      <trkpt lat="43.71832" lon="5.92821">
        <ele>574</ele>
        <time>2009-11-11T11:21:26Z</time>
      </trkpt>
      <trkpt lat="43.71847" lon="5.92829">
        <ele>576</ele>
        <time>2009-11-11T11:21:37Z</time>
      </trkpt>
      <trkpt lat="43.7186" lon="5.92842">
        <ele>574</ele>
        <time>2009-11-11T11:21:47Z</time>
      </trkpt>
      <trkpt lat="43.71861" lon="5.92845">
        <ele>574</ele>
        <time>2009-11-11T11:21:48Z</time>
      </trkpt>
      <trkpt lat="43.71865" lon="5.92873">
        <ele>574</ele>
        <time>2009-11-11T11:22:00Z</time>
      </trkpt>
      <trkpt lat="43.71884" lon="5.9289">
        <ele>575</ele>
        <time>2009-11-11T11:22:13Z</time>
      </trkpt>
      <trkpt lat="43.71905" lon="5.92911">
        <ele>574</ele>
        <time>2009-11-11T11:22:25Z</time>
      </trkpt>
      <trkpt lat="43.71929" lon="5.92943">
        <ele>574</ele>
        <time>2009-11-11T11:22:38Z</time>
      </trkpt>
      <trkpt lat="43.71958" lon="5.92975">
        <ele>577</ele>
        <time>2009-11-11T11:22:52Z</time>
      </trkpt>
      <trkpt lat="43.71986" lon="5.92989">
        <ele>578</ele>
        <time>2009-11-11T11:23:06Z</time>
      </trkpt>
      <trkpt lat="43.72007" lon="5.92987">
        <ele>579</ele>
        <time>2009-11-11T11:23:17Z</time>
      </trkpt>
      <trkpt lat="43.72036" lon="5.92995">
        <ele>579</ele>
        <time>2009-11-11T11:23:30Z</time>
      </trkpt>
      <trkpt lat="43.72067" lon="5.92994">
        <ele>582</ele>
        <time>2009-11-11T11:23:43Z</time>
      </trkpt>
      <trkpt lat="43.721" lon="5.92992">
        <ele>582</ele>
        <time>2009-11-11T11:23:55Z</time>
      </trkpt>
      <trkpt lat="43.72136" lon="5.93001">
        <ele>581</ele>
        <time>2009-11-11T11:24:08Z</time>
      </trkpt>
      <trkpt lat="43.72158" lon="5.93035">
        <ele>581</ele>
        <time>2009-11-11T11:24:21Z</time>
      </trkpt>
      <trkpt lat="43.72176" lon="5.93071">
        <ele>582</ele>
        <time>2009-11-11T11:24:35Z</time>
      </trkpt>
      <trkpt lat="43.72186" lon="5.931">
        <ele>581</ele>
        <time>2009-11-11T11:24:48Z</time>
      </trkpt>
      <trkpt lat="43.72187" lon="5.93106">
        <ele>581</ele>
        <time>2009-11-11T11:24:52Z</time>
      </trkpt>
      <trkpt lat="43.72187" lon="5.93112">
        <ele>582</ele>
        <time>2009-11-11T11:24:57Z</time>
      </trkpt>
      <trkpt lat="43.72187" lon="5.93121">
        <ele>582</ele>
        <time>2009-11-11T11:25:17Z</time>
      </trkpt>
      <trkpt lat="43.72187" lon="5.93122">
        <ele>582</ele>
        <time>2009-11-11T11:25:54Z</time>
      </trkpt>
      <trkpt lat="43.72187" lon="5.93121">
        <ele>582</ele>
        <time>2009-11-11T11:26:59Z</time>
      </trkpt>
      <trkpt lat="43.72186" lon="5.93124">
        <ele>581</ele>
        <time>2009-11-11T11:27:38Z</time>
      </trkpt>
      <trkpt lat="43.72186" lon="5.93123">
        <ele>581</ele>
        <time>2009-11-11T11:28:01Z</time>
      </trkpt>
      <trkpt lat="43.72179" lon="5.9313">
        <ele>580</ele>
        <time>2009-11-11T11:28:12Z</time>
      </trkpt>
      <trkpt lat="43.72179" lon="5.93133">
        <ele>580</ele>
        <time>2009-11-11T11:28:18Z</time>
      </trkpt>
      <trkpt lat="43.72169" lon="5.93167">
        <ele>582</ele>
        <time>2009-11-11T11:28:29Z</time>
      </trkpt>
      <trkpt lat="43.72147" lon="5.93214">
        <ele>585</ele>
        <time>2009-11-11T11:28:43Z</time>
      </trkpt>
      <trkpt lat="43.72139" lon="5.93222">
        <ele>586</ele>
        <time>2009-11-11T11:28:48Z</time>
      </trkpt>
      <trkpt lat="43.72133" lon="5.93231">
        <ele>586</ele>
        <time>2009-11-11T11:28:54Z</time>
      </trkpt>
      <trkpt lat="43.72128" lon="5.93244">
        <ele>585</ele>
        <time>2009-11-11T11:29:00Z</time>
      </trkpt>
      <trkpt lat="43.72116" lon="5.93265">
        <ele>585</ele>
        <time>2009-11-11T11:29:09Z</time>
      </trkpt>
      <trkpt lat="43.72096" lon="5.93297">
        <ele>586</ele>
        <time>2009-11-11T11:29:22Z</time>
      </trkpt>
      <trkpt lat="43.72082" lon="5.93319">
        <ele>585</ele>
        <time>2009-11-11T11:29:33Z</time>
      </trkpt>
      <trkpt lat="43.72073" lon="5.93332">
        <ele>584</ele>
        <time>2009-11-11T11:29:40Z</time>
      </trkpt>
      <trkpt lat="43.72053" lon="5.93371">
        <ele>583</ele>
        <time>2009-11-11T11:29:55Z</time>
      </trkpt>
      <trkpt lat="43.72048" lon="5.9343">
        <ele>590</ele>
        <time>2009-11-11T11:30:10Z</time>
      </trkpt>
      <trkpt lat="43.72044" lon="5.9348">
        <ele>594</ele>
        <time>2009-11-11T11:30:23Z</time>
      </trkpt>
      <trkpt lat="43.72042" lon="5.9354">
        <ele>593</ele>
        <time>2009-11-11T11:30:38Z</time>
      </trkpt>
      <trkpt lat="43.72037" lon="5.93583">
        <ele>594</ele>
        <time>2009-11-11T11:30:50Z</time>
      </trkpt>
      <trkpt lat="43.72029" lon="5.93641">
        <ele>598</ele>
        <time>2009-11-11T11:31:06Z</time>
      </trkpt>
      <trkpt lat="43.72004" lon="5.93686">
        <ele>596</ele>
        <time>2009-11-11T11:31:19Z</time>
      </trkpt>
      <trkpt lat="43.71989" lon="5.93702">
        <ele>595</ele>
        <time>2009-11-11T11:31:24Z</time>
      </trkpt>
      <trkpt lat="43.7194" lon="5.93762">
        <ele>593</ele>
        <time>2009-11-11T11:31:39Z</time>
      </trkpt>
      <trkpt lat="43.71882" lon="5.93823">
        <ele>590</ele>
        <time>2009-11-11T11:31:54Z</time>
      </trkpt>
      <trkpt lat="43.71832" lon="5.93892">
        <ele>589</ele>
        <time>2009-11-11T11:32:08Z</time>
      </trkpt>
      <trkpt lat="43.71824" lon="5.93908">
        <ele>589</ele>
        <time>2009-11-11T11:32:11Z</time>
      </trkpt>
      <trkpt lat="43.71806" lon="5.93939">
        <ele>589</ele>
        <time>2009-11-11T11:32:17Z</time>
      </trkpt>
      <trkpt lat="43.71794" lon="5.93961">
        <ele>589</ele>
        <time>2009-11-11T11:32:21Z</time>
      </trkpt>
      <trkpt lat="43.71785" lon="5.93976">
        <ele>589</ele>
        <time>2009-11-11T11:32:24Z</time>
      </trkpt>
      <trkpt lat="43.71754" lon="5.94037">
        <ele>589</ele>
        <time>2009-11-11T11:32:35Z</time>
      </trkpt>
      <trkpt lat="43.71717" lon="5.94114">
        <ele>587</ele>
        <time>2009-11-11T11:32:46Z</time>
      </trkpt>
      <trkpt lat="43.7166" lon="5.94242">
        <ele>579</ele>
        <time>2009-11-11T11:32:58Z</time>
      </trkpt>
      <trkpt lat="43.71587" lon="5.94386">
        <ele>569</ele>
        <time>2009-11-11T11:33:10Z</time>
      </trkpt>
      <trkpt lat="43.71543" lon="5.94457">
        <ele>564</ele>
        <time>2009-11-11T11:33:17Z</time>
      </trkpt>
      <trkpt lat="43.71505" lon="5.94491">
        <ele>560</ele>
        <time>2009-11-11T11:33:22Z</time>
      </trkpt>
      <trkpt lat="43.71481" lon="5.945">
        <ele>558</ele>
        <time>2009-11-11T11:33:25Z</time>
      </trkpt>
      <trkpt lat="43.71453" lon="5.94526">
        <ele>555</ele>
        <time>2009-11-11T11:33:30Z</time>
      </trkpt>
      <trkpt lat="43.7143" lon="5.9455">
        <ele>555</ele>
        <time>2009-11-11T11:33:39Z</time>
      </trkpt>
      <trkpt lat="43.71398" lon="5.94583">
        <ele>555</ele>
        <time>2009-11-11T11:33:51Z</time>
      </trkpt>
      <trkpt lat="43.71391" lon="5.94589">
        <ele>554</ele>
        <time>2009-11-11T11:33:53Z</time>
      </trkpt>
      <trkpt lat="43.71375" lon="5.94608">
        <ele>553</ele>
        <time>2009-11-11T11:33:57Z</time>
      </trkpt>
      <trkpt lat="43.71363" lon="5.94616">
        <ele>552</ele>
        <time>2009-11-11T11:33:59Z</time>
      </trkpt>
      <trkpt lat="43.71343" lon="5.94631">
        <ele>550</ele>
        <time>2009-11-11T11:34:03Z</time>
      </trkpt>
      <trkpt lat="43.7131" lon="5.94653">
        <ele>543</ele>
        <time>2009-11-11T11:34:12Z</time>
      </trkpt>
      <trkpt lat="43.71305" lon="5.9466">
        <ele>541</ele>
        <time>2009-11-11T11:34:23Z</time>
      </trkpt>
      <trkpt lat="43.71305" lon="5.94663">
        <ele>543</ele>
        <time>2009-11-11T11:34:34Z</time>
      </trkpt>
      <trkpt lat="43.71304" lon="5.94665">
        <ele>544</ele>
        <time>2009-11-11T11:34:44Z</time>
      </trkpt>
      <trkpt lat="43.713" lon="5.94661">
        <ele>554</ele>
        <time>2009-11-11T11:46:38Z</time>
      </trkpt>
      <trkpt lat="43.71301" lon="5.94658">
        <ele>554</ele>
        <time>2009-11-11T11:46:41Z</time>
      </trkpt>
      <trkpt lat="43.71295" lon="5.9465">
        <ele>552</ele>
        <time>2009-11-11T11:46:50Z</time>
      </trkpt>
      <trkpt lat="43.71287" lon="5.94615">
        <ele>546</ele>
        <time>2009-11-11T11:47:01Z</time>
      </trkpt>
      <trkpt lat="43.7128" lon="5.94587">
        <ele>544</ele>
        <time>2009-11-11T11:47:06Z</time>
      </trkpt>
      <trkpt lat="43.71277" lon="5.94553">
        <ele>544</ele>
        <time>2009-11-11T11:47:12Z</time>
      </trkpt>
      <trkpt lat="43.71275" lon="5.9454">
        <ele>544</ele>
        <time>2009-11-11T11:47:14Z</time>
      </trkpt>
      <trkpt lat="43.71271" lon="5.9452">
        <ele>544</ele>
        <time>2009-11-11T11:47:17Z</time>
      </trkpt>
      <trkpt lat="43.71263" lon="5.94482">
        <ele>542</ele>
        <time>2009-11-11T11:47:22Z</time>
      </trkpt>
      <trkpt lat="43.7126" lon="5.94452">
        <ele>541</ele>
        <time>2009-11-11T11:47:26Z</time>
      </trkpt>
      <trkpt lat="43.71258" lon="5.94417">
        <ele>541</ele>
        <time>2009-11-11T11:47:31Z</time>
      </trkpt>
      <trkpt lat="43.71239" lon="5.94402">
        <ele>539</ele>
        <time>2009-11-11T11:47:36Z</time>
      </trkpt>
      <trkpt lat="43.71225" lon="5.94398">
        <ele>538</ele>
        <time>2009-11-11T11:47:39Z</time>
      </trkpt>
      <trkpt lat="43.71193" lon="5.94385">
        <ele>536</ele>
        <time>2009-11-11T11:47:45Z</time>
      </trkpt>
      <trkpt lat="43.71149" lon="5.94356">
        <ele>534</ele>
        <time>2009-11-11T11:47:53Z</time>
      </trkpt>
      <trkpt lat="43.7115" lon="5.94331">
        <ele>534</ele>
        <time>2009-11-11T11:47:56Z</time>
      </trkpt>
      <trkpt lat="43.71151" lon="5.94315">
        <ele>533</ele>
        <time>2009-11-11T11:47:58Z</time>
      </trkpt>
      <trkpt lat="43.71146" lon="5.9428">
        <ele>533</ele>
        <time>2009-11-11T11:48:02Z</time>
      </trkpt>
      <trkpt lat="43.71109" lon="5.94193">
        <ele>529</ele>
        <time>2009-11-11T11:48:11Z</time>
      </trkpt>
      <trkpt lat="43.71077" lon="5.94105">
        <ele>524</ele>
        <time>2009-11-11T11:48:19Z</time>
      </trkpt>
      <trkpt lat="43.71052" lon="5.93972">
        <ele>517</ele>
        <time>2009-11-11T11:48:31Z</time>
      </trkpt>
      <trkpt lat="43.71018" lon="5.93876">
        <ele>512</ele>
        <time>2009-11-11T11:48:42Z</time>
      </trkpt>
      <trkpt lat="43.71013" lon="5.93846">
        <ele>511</ele>
        <time>2009-11-11T11:48:49Z</time>
      </trkpt>
      <trkpt lat="43.71047" lon="5.93828">
        <ele>507</ele>
        <time>2009-11-11T11:48:58Z</time>
      </trkpt>
      <trkpt lat="43.71053" lon="5.93825">
        <ele>506</ele>
        <time>2009-11-11T11:49:00Z</time>
      </trkpt>
      <trkpt lat="43.71063" lon="5.93789">
        <ele>500</ele>
        <time>2009-11-11T11:49:07Z</time>
      </trkpt>
      <trkpt lat="43.71058" lon="5.93757">
        <ele>498</ele>
        <time>2009-11-11T11:49:12Z</time>
      </trkpt>
      <trkpt lat="43.7106" lon="5.9374">
        <ele>497</ele>
        <time>2009-11-11T11:49:15Z</time>
      </trkpt>
      <trkpt lat="43.71068" lon="5.93714">
        <ele>496</ele>
        <time>2009-11-11T11:49:20Z</time>
      </trkpt>
      <trkpt lat="43.71076" lon="5.93693">
        <ele>495</ele>
        <time>2009-11-11T11:49:24Z</time>
      </trkpt>
      <trkpt lat="43.71077" lon="5.93664">
        <ele>493</ele>
        <time>2009-11-11T11:49:29Z</time>
      </trkpt>
      <trkpt lat="43.71077" lon="5.93631">
        <ele>493</ele>
        <time>2009-11-11T11:49:34Z</time>
      </trkpt>
      <trkpt lat="43.71076" lon="5.93602">
        <ele>492</ele>
        <time>2009-11-11T11:49:38Z</time>
      </trkpt>
      <trkpt lat="43.71076" lon="5.93564">
        <ele>489</ele>
        <time>2009-11-11T11:49:44Z</time>
      </trkpt>
      <trkpt lat="43.71081" lon="5.93552">
        <ele>488</ele>
        <time>2009-11-11T11:49:46Z</time>
      </trkpt>
      <trkpt lat="43.7109" lon="5.93515">
        <ele>484</ele>
        <time>2009-11-11T11:49:51Z</time>
      </trkpt>
      <trkpt lat="43.711" lon="5.93488">
        <ele>481</ele>
        <time>2009-11-11T11:49:55Z</time>
      </trkpt>
      <trkpt lat="43.71111" lon="5.93461">
        <ele>478</ele>
        <time>2009-11-11T11:50:01Z</time>
      </trkpt>
      <trkpt lat="43.71123" lon="5.93449">
        <ele>479</ele>
        <time>2009-11-11T11:50:08Z</time>
      </trkpt>
      <trkpt lat="43.71138" lon="5.93425">
        <ele>483</ele>
        <time>2009-11-11T11:50:19Z</time>
      </trkpt>
      <trkpt lat="43.71139" lon="5.93422">
        <ele>483</ele>
        <time>2009-11-11T11:50:20Z</time>
      </trkpt>
      <trkpt lat="43.71164" lon="5.93368">
        <ele>484</ele>
        <time>2009-11-11T11:50:33Z</time>
      </trkpt>
      <trkpt lat="43.71167" lon="5.93341">
        <ele>484</ele>
        <time>2009-11-11T11:50:41Z</time>
      </trkpt>
      <trkpt lat="43.71181" lon="5.93299">
        <ele>484</ele>
        <time>2009-11-11T11:50:52Z</time>
      </trkpt>
      <trkpt lat="43.71192" lon="5.93256">
        <ele>485</ele>
        <time>2009-11-11T11:51:03Z</time>
      </trkpt>
      <trkpt lat="43.71188" lon="5.93238">
        <ele>485</ele>
        <time>2009-11-11T11:51:07Z</time>
      </trkpt>
      <trkpt lat="43.71172" lon="5.93209">
        <ele>485</ele>
        <time>2009-11-11T11:51:14Z</time>
      </trkpt>
      <trkpt lat="43.71163" lon="5.93187">
        <ele>484</ele>
        <time>2009-11-11T11:51:18Z</time>
      </trkpt>
      <trkpt lat="43.71144" lon="5.93157">
        <ele>483</ele>
        <time>2009-11-11T11:51:23Z</time>
      </trkpt>
      <trkpt lat="43.71129" lon="5.93123">
        <ele>482</ele>
        <time>2009-11-11T11:51:28Z</time>
      </trkpt>
      <trkpt lat="43.71124" lon="5.93089">
        <ele>481</ele>
        <time>2009-11-11T11:51:32Z</time>
      </trkpt>
      <trkpt lat="43.71119" lon="5.93055">
        <ele>480</ele>
        <time>2009-11-11T11:51:36Z</time>
      </trkpt>
      <trkpt lat="43.71106" lon="5.9303">
        <ele>477</ele>
        <time>2009-11-11T11:51:41Z</time>
      </trkpt>
      <trkpt lat="43.71102" lon="5.93018">
        <ele>476</ele>
        <time>2009-11-11T11:51:43Z</time>
      </trkpt>
      <trkpt lat="43.71078" lon="5.92991">
        <ele>472</ele>
        <time>2009-11-11T11:51:50Z</time>
      </trkpt>
      <trkpt lat="43.71055" lon="5.92961">
        <ele>468</ele>
        <time>2009-11-11T11:51:58Z</time>
      </trkpt>
      <trkpt lat="43.71043" lon="5.92932">
        <ele>463</ele>
        <time>2009-11-11T11:52:04Z</time>
      </trkpt>
      <trkpt lat="43.71048" lon="5.92917">
        <ele>460</ele>
        <time>2009-11-11T11:52:08Z</time>
      </trkpt>
      <trkpt lat="43.71053" lon="5.92907">
        <ele>458</ele>
        <time>2009-11-11T11:52:10Z</time>
      </trkpt>
      <trkpt lat="43.71049" lon="5.92886">
        <ele>455</ele>
        <time>2009-11-11T11:52:15Z</time>
      </trkpt>
      <trkpt lat="43.71039" lon="5.92873">
        <ele>454</ele>
        <time>2009-11-11T11:52:19Z</time>
      </trkpt>
      <trkpt lat="43.7102" lon="5.92862">
        <ele>456</ele>
        <time>2009-11-11T11:52:30Z</time>
      </trkpt>
      <trkpt lat="43.71016" lon="5.9286">
        <ele>456</ele>
        <time>2009-11-11T11:52:32Z</time>
      </trkpt>
      <trkpt lat="43.7101" lon="5.92843">
        <ele>461</ele>
        <time>2009-11-11T11:52:42Z</time>
      </trkpt>
      <trkpt lat="43.71009" lon="5.92835">
        <ele>464</ele>
        <time>2009-11-11T11:52:46Z</time>
      </trkpt>
      <trkpt lat="43.71006" lon="5.92826">
        <ele>469</ele>
        <time>2009-11-11T11:52:54Z</time>
      </trkpt>
      <trkpt lat="43.70988" lon="5.92798">
        <ele>471</ele>
        <time>2009-11-11T11:53:07Z</time>
      </trkpt>
      <trkpt lat="43.70983" lon="5.92789">
        <ele>471</ele>
        <time>2009-11-11T11:53:11Z</time>
      </trkpt>
      <trkpt lat="43.7096" lon="5.92771">
        <ele>470</ele>
        <time>2009-11-11T11:53:24Z</time>
      </trkpt>
      <trkpt lat="43.70953" lon="5.92767">
        <ele>472</ele>
        <time>2009-11-11T11:53:28Z</time>
      </trkpt>
      <trkpt lat="43.70933" lon="5.92758">
        <ele>476</ele>
        <time>2009-11-11T11:53:40Z</time>
      </trkpt>
      <trkpt lat="43.70905" lon="5.92747">
        <ele>480</ele>
        <time>2009-11-11T11:53:54Z</time>
      </trkpt>
      <trkpt lat="43.7087" lon="5.92753">
        <ele>480</ele>
        <time>2009-11-11T11:54:06Z</time>
      </trkpt>
      <trkpt lat="43.70852" lon="5.92756">
        <ele>479</ele>
        <time>2009-11-11T11:54:12Z</time>
      </trkpt>
      <trkpt lat="43.70833" lon="5.92764">
        <ele>480</ele>
        <time>2009-11-11T11:54:19Z</time>
      </trkpt>
      <trkpt lat="43.70819" lon="5.92762">
        <ele>479</ele>
        <time>2009-11-11T11:54:26Z</time>
      </trkpt>
      <trkpt lat="43.70802" lon="5.92752">
        <ele>479</ele>
        <time>2009-11-11T11:54:33Z</time>
      </trkpt>
      <trkpt lat="43.70778" lon="5.92728">
        <ele>479</ele>
        <time>2009-11-11T11:54:45Z</time>
      </trkpt>
      <trkpt lat="43.70773" lon="5.92717">
        <ele>480</ele>
        <time>2009-11-11T11:54:48Z</time>
      </trkpt>
      <trkpt lat="43.70745" lon="5.92692">
        <ele>481</ele>
        <time>2009-11-11T11:54:59Z</time>
      </trkpt>
      <trkpt lat="43.70731" lon="5.92686">
        <ele>480</ele>
        <time>2009-11-11T11:55:05Z</time>
      </trkpt>
      <trkpt lat="43.70716" lon="5.92669">
        <ele>480</ele>
        <time>2009-11-11T11:55:15Z</time>
      </trkpt>
      <trkpt lat="43.70696" lon="5.92656">
        <ele>483</ele>
        <time>2009-11-11T11:55:28Z</time>
      </trkpt>
      <trkpt lat="43.70672" lon="5.92651">
        <ele>485</ele>
        <time>2009-11-11T11:55:40Z</time>
      </trkpt>
      <trkpt lat="43.70643" lon="5.92656">
        <ele>487</ele>
        <time>2009-11-11T11:55:52Z</time>
      </trkpt>
      <trkpt lat="43.70631" lon="5.92655">
        <ele>487</ele>
        <time>2009-11-11T11:55:58Z</time>
      </trkpt>
      <trkpt lat="43.70622" lon="5.92636">
        <ele>487</ele>
        <time>2009-11-11T11:56:08Z</time>
      </trkpt>
      <trkpt lat="43.70618" lon="5.92615">
        <ele>487</ele>
        <time>2009-11-11T11:56:14Z</time>
      </trkpt>
      <trkpt lat="43.70616" lon="5.92603">
        <ele>487</ele>
        <time>2009-11-11T11:56:16Z</time>
      </trkpt>
      <trkpt lat="43.70608" lon="5.92553">
        <ele>488</ele>
        <time>2009-11-11T11:56:28Z</time>
      </trkpt>
      <trkpt lat="43.70601" lon="5.92529">
        <ele>488</ele>
        <time>2009-11-11T11:56:39Z</time>
      </trkpt>
      <trkpt lat="43.70592" lon="5.92496">
        <ele>488</ele>
        <time>2009-11-11T11:56:52Z</time>
      </trkpt>
      <trkpt lat="43.7058" lon="5.9246">
        <ele>489</ele>
        <time>2009-11-11T11:57:05Z</time>
      </trkpt>
      <trkpt lat="43.70581" lon="5.92446">
        <ele>489</ele>
        <time>2009-11-11T11:57:10Z</time>
      </trkpt>
      <trkpt lat="43.70582" lon="5.92386">
        <ele>491</ele>
        <time>2009-11-11T11:57:25Z</time>
      </trkpt>
      <trkpt lat="43.70568" lon="5.92345">
        <ele>489</ele>
        <time>2009-11-11T11:57:37Z</time>
      </trkpt>
      <trkpt lat="43.70562" lon="5.92295">
        <ele>489</ele>
        <time>2009-11-11T11:57:48Z</time>
      </trkpt>
      <trkpt lat="43.70558" lon="5.92264">
        <ele>487</ele>
        <time>2009-11-11T11:57:53Z</time>
      </trkpt>
      <trkpt lat="43.70556" lon="5.92241">
        <ele>486</ele>
        <time>2009-11-11T11:57:56Z</time>
      </trkpt>
      <trkpt lat="43.70555" lon="5.92209">
        <ele>485</ele>
        <time>2009-11-11T11:58:00Z</time>
      </trkpt>
      <trkpt lat="43.70554" lon="5.92191">
        <ele>483</ele>
        <time>2009-11-11T11:58:02Z</time>
      </trkpt>
      <trkpt lat="43.70549" lon="5.92157">
        <ele>482</ele>
        <time>2009-11-11T11:58:06Z</time>
      </trkpt>
      <trkpt lat="43.70549" lon="5.92128">
        <ele>481</ele>
        <time>2009-11-11T11:58:10Z</time>
      </trkpt>
      <trkpt lat="43.70555" lon="5.92105">
        <ele>480</ele>
        <time>2009-11-11T11:58:14Z</time>
      </trkpt>
      <trkpt lat="43.70565" lon="5.92081">
        <ele>480</ele>
        <time>2009-11-11T11:58:19Z</time>
      </trkpt>
      <trkpt lat="43.70571" lon="5.92057">
        <ele>479</ele>
        <time>2009-11-11T11:58:23Z</time>
      </trkpt>
      <trkpt lat="43.70592" lon="5.91992">
        <ele>478</ele>
        <time>2009-11-11T11:58:36Z</time>
      </trkpt>
      <trkpt lat="43.70605" lon="5.91955">
        <ele>482</ele>
        <time>2009-11-11T11:58:48Z</time>
      </trkpt>
      <trkpt lat="43.70615" lon="5.91928">
        <ele>483</ele>
        <time>2009-11-11T11:58:55Z</time>
      </trkpt>
      <trkpt lat="43.70622" lon="5.91907">
        <ele>480</ele>
        <time>2009-11-11T11:59:02Z</time>
      </trkpt>
      <trkpt lat="43.70626" lon="5.91886">
        <ele>476</ele>
        <time>2009-11-11T11:59:08Z</time>
      </trkpt>
      <trkpt lat="43.70618" lon="5.91875">
        <ele>475</ele>
        <time>2009-11-11T11:59:14Z</time>
      </trkpt>
      <trkpt lat="43.70617" lon="5.91855">
        <ele>473</ele>
        <time>2009-11-11T11:59:21Z</time>
      </trkpt>
      <trkpt lat="43.70621" lon="5.91836">
        <ele>471</ele>
        <time>2009-11-11T11:59:30Z</time>
      </trkpt>
      <trkpt lat="43.70625" lon="5.91826">
        <ele>471</ele>
        <time>2009-11-11T11:59:36Z</time>
      </trkpt>
      <trkpt lat="43.70627" lon="5.91824">
        <ele>471</ele>
        <time>2009-11-11T11:59:38Z</time>
      </trkpt>
      <trkpt lat="43.70634" lon="5.91808">
        <ele>473</ele>
        <time>2009-11-11T11:59:47Z</time>
      </trkpt>
      <trkpt lat="43.70635" lon="5.91794">
        <ele>474</ele>
        <time>2009-11-11T11:59:57Z</time>
      </trkpt>
      <trkpt lat="43.70629" lon="5.91784">
        <ele>478</ele>
        <time>2009-11-11T12:00:11Z</time>
      </trkpt>
      <trkpt lat="43.70628" lon="5.91783">
        <ele>481</ele>
        <time>2009-11-11T12:00:28Z</time>
      </trkpt>
      <trkpt lat="43.70626" lon="5.91778">
        <ele>483</ele>
        <time>2009-11-11T12:00:34Z</time>
      </trkpt>
      <trkpt lat="43.70628" lon="5.91773">
        <ele>484</ele>
        <time>2009-11-11T12:00:38Z</time>
      </trkpt>
      <trkpt lat="43.7063" lon="5.91769">
        <ele>485</ele>
        <time>2009-11-11T12:00:42Z</time>
      </trkpt>
      <trkpt lat="43.70631" lon="5.91749">
        <ele>486</ele>
        <time>2009-11-11T12:00:52Z</time>
      </trkpt>
      <trkpt lat="43.70631" lon="5.91744">
        <ele>486</ele>
        <time>2009-11-11T12:00:54Z</time>
      </trkpt>
      <trkpt lat="43.70631" lon="5.91728">
        <ele>492</ele>
        <time>2009-11-11T12:01:02Z</time>
      </trkpt>
      <trkpt lat="43.70632" lon="5.91708">
        <ele>497</ele>
        <time>2009-11-11T12:01:12Z</time>
      </trkpt>
      <trkpt lat="43.70634" lon="5.917">
        <ele>499</ele>
        <time>2009-11-11T12:01:16Z</time>
      </trkpt>
      <trkpt lat="43.70641" lon="5.91678">
        <ele>500</ele>
        <time>2009-11-11T12:01:28Z</time>
      </trkpt>
      <trkpt lat="43.7064" lon="5.91666">
        <ele>501</ele>
        <time>2009-11-11T12:01:34Z</time>
      </trkpt>
      <trkpt lat="43.70625" lon="5.91643">
        <ele>501</ele>
        <time>2009-11-11T12:01:48Z</time>
      </trkpt>
      <trkpt lat="43.70619" lon="5.91631">
        <ele>505</ele>
        <time>2009-11-11T12:02:14Z</time>
      </trkpt>
      <trkpt lat="43.70617" lon="5.916">
        <ele>505</ele>
        <time>2009-11-11T12:02:22Z</time>
      </trkpt>
      <trkpt lat="43.7062" lon="5.91587">
        <ele>505</ele>
        <time>2009-11-11T12:02:25Z</time>
      </trkpt>
      <trkpt lat="43.70614" lon="5.91566">
        <ele>504</ele>
        <time>2009-11-11T12:02:30Z</time>
      </trkpt>
      <trkpt lat="43.7061" lon="5.91551">
        <ele>503</ele>
        <time>2009-11-11T12:02:33Z</time>
      </trkpt>
      <trkpt lat="43.70605" lon="5.91541">
        <ele>503</ele>
        <time>2009-11-11T12:02:35Z</time>
      </trkpt>
      <trkpt lat="43.70593" lon="5.91495">
        <ele>501</ele>
        <time>2009-11-11T12:02:45Z</time>
      </trkpt>
      <trkpt lat="43.70608" lon="5.91465">
        <ele>498</ele>
        <time>2009-11-11T12:02:53Z</time>
      </trkpt>
      <trkpt lat="43.70625" lon="5.91461">
        <ele>496</ele>
        <time>2009-11-11T12:03:00Z</time>
      </trkpt>
      <trkpt lat="43.70633" lon="5.91466">
        <ele>495</ele>
        <time>2009-11-11T12:03:02Z</time>
      </trkpt>
      <trkpt lat="43.70654" lon="5.91493">
        <ele>492</ele>
        <time>2009-11-11T12:03:09Z</time>
      </trkpt>
      <trkpt lat="43.70663" lon="5.91522">
        <ele>491</ele>
        <time>2009-11-11T12:03:14Z</time>
      </trkpt>
      <trkpt lat="43.70683" lon="5.91547">
        <ele>489</ele>
        <time>2009-11-11T12:03:20Z</time>
      </trkpt>
      <trkpt lat="43.70703" lon="5.91534">
        <ele>488</ele>
        <time>2009-11-11T12:03:24Z</time>
      </trkpt>
      <trkpt lat="43.70721" lon="5.91528">
        <ele>485</ele>
        <time>2009-11-11T12:03:27Z</time>
      </trkpt>
      <trkpt lat="43.70768" lon="5.91531">
        <ele>477</ele>
        <time>2009-11-11T12:03:35Z</time>
      </trkpt>
      <trkpt lat="43.70794" lon="5.91503">
        <ele>472</ele>
        <time>2009-11-11T12:03:42Z</time>
      </trkpt>
      <trkpt lat="43.70783" lon="5.91475">
        <ele>466</ele>
        <time>2009-11-11T12:03:48Z</time>
      </trkpt>
      <trkpt lat="43.70781" lon="5.91473">
        <ele>466</ele>
        <time>2009-11-11T12:03:49Z</time>
      </trkpt>
      <trkpt lat="43.7076" lon="5.9145">
        <ele>467</ele>
        <time>2009-11-11T12:04:01Z</time>
      </trkpt>
      <trkpt lat="43.70754" lon="5.91446">
        <ele>467</ele>
        <time>2009-11-11T12:04:03Z</time>
      </trkpt>
      <trkpt lat="43.70741" lon="5.91418">
        <ele>466</ele>
        <time>2009-11-11T12:04:10Z</time>
      </trkpt>
      <trkpt lat="43.70743" lon="5.9141">
        <ele>466</ele>
        <time>2009-11-11T12:04:12Z</time>
      </trkpt>
      <trkpt lat="43.70768" lon="5.91407">
        <ele>463</ele>
        <time>2009-11-11T12:04:21Z</time>
      </trkpt>
      <trkpt lat="43.70795" lon="5.91418">
        <ele>462</ele>
        <time>2009-11-11T12:04:27Z</time>
      </trkpt>
      <trkpt lat="43.70815" lon="5.91424">
        <ele>461</ele>
        <time>2009-11-11T12:04:31Z</time>
      </trkpt>
      <trkpt lat="43.70838" lon="5.91417">
        <ele>459</ele>
        <time>2009-11-11T12:04:36Z</time>
      </trkpt>
      <trkpt lat="43.70857" lon="5.91375">
        <ele>456</ele>
        <time>2009-11-11T12:04:44Z</time>
      </trkpt>
      <trkpt lat="43.70868" lon="5.91369">
        <ele>454</ele>
        <time>2009-11-11T12:04:47Z</time>
      </trkpt>
      <trkpt lat="43.70881" lon="5.91357">
        <ele>452</ele>
        <time>2009-11-11T12:04:51Z</time>
      </trkpt>
      <trkpt lat="43.709" lon="5.91335">
        <ele>449</ele>
        <time>2009-11-11T12:05:00Z</time>
      </trkpt>
      <trkpt lat="43.70908" lon="5.91316">
        <ele>445</ele>
        <time>2009-11-11T12:05:06Z</time>
      </trkpt>
      <trkpt lat="43.70927" lon="5.913">
        <ele>440</ele>
        <time>2009-11-11T12:05:12Z</time>
      </trkpt>
      <trkpt lat="43.70935" lon="5.91245">
        <ele>439</ele>
        <time>2009-11-11T12:05:23Z</time>
      </trkpt>
      <trkpt lat="43.70947" lon="5.91199">
        <ele>441</ele>
        <time>2009-11-11T12:05:34Z</time>
      </trkpt>
      <trkpt lat="43.70962" lon="5.91172">
        <ele>443</ele>
        <time>2009-11-11T12:05:43Z</time>
      </trkpt>
      <trkpt lat="43.70983" lon="5.91165">
        <ele>443</ele>
        <time>2009-11-11T12:05:51Z</time>
      </trkpt>
      <trkpt lat="43.71007" lon="5.91151">
        <ele>443</ele>
        <time>2009-11-11T12:06:01Z</time>
      </trkpt>
      <trkpt lat="43.71028" lon="5.91114">
        <ele>440</ele>
        <time>2009-11-11T12:06:11Z</time>
      </trkpt>
      <trkpt lat="43.71042" lon="5.91084">
        <ele>438</ele>
        <time>2009-11-11T12:06:17Z</time>
      </trkpt>
      <trkpt lat="43.7106" lon="5.9106">
        <ele>438</ele>
        <time>2009-11-11T12:06:26Z</time>
      </trkpt>
      <trkpt lat="43.71062" lon="5.91058">
        <ele>438</ele>
        <time>2009-11-11T12:06:27Z</time>
      </trkpt>
      <trkpt lat="43.7106" lon="5.91031">
        <ele>440</ele>
        <time>2009-11-11T12:06:37Z</time>
      </trkpt>
      <trkpt lat="43.7106" lon="5.90999">
        <ele>440</ele>
        <time>2009-11-11T12:06:49Z</time>
      </trkpt>
      <trkpt lat="43.71061" lon="5.90987">
        <ele>439</ele>
        <time>2009-11-11T12:06:56Z</time>
      </trkpt>
      <trkpt lat="43.7106" lon="5.9098">
        <ele>442</ele>
        <time>2009-11-11T12:07:06Z</time>
      </trkpt>
      <trkpt lat="43.7106" lon="5.90978">
        <ele>442</ele>
        <time>2009-11-11T12:07:25Z</time>
      </trkpt>
      <trkpt lat="43.71063" lon="5.90963">
        <ele>443</ele>
        <time>2009-11-11T12:07:43Z</time>
      </trkpt>
      <trkpt lat="43.71077" lon="5.90905">
        <ele>441</ele>
        <time>2009-11-11T12:07:56Z</time>
      </trkpt>
      <trkpt lat="43.71081" lon="5.90881">
        <ele>440</ele>
        <time>2009-11-11T12:08:00Z</time>
      </trkpt>
      <trkpt lat="43.71085" lon="5.90854">
        <ele>439</ele>
        <time>2009-11-11T12:08:04Z</time>
      </trkpt>
      <trkpt lat="43.7109" lon="5.90827">
        <ele>438</ele>
        <time>2009-11-11T12:08:08Z</time>
      </trkpt>
      <trkpt lat="43.71089" lon="5.9081">
        <ele>437</ele>
        <time>2009-11-11T12:08:11Z</time>
      </trkpt>
      <trkpt lat="43.71077" lon="5.9077">
        <ele>432</ele>
        <time>2009-11-11T12:08:20Z</time>
      </trkpt>
      <trkpt lat="43.71086" lon="5.90735">
        <ele>430</ele>
        <time>2009-11-11T12:08:27Z</time>
      </trkpt>
      <trkpt lat="43.71096" lon="5.90698">
        <ele>429</ele>
        <time>2009-11-11T12:08:33Z</time>
      </trkpt>
      <trkpt lat="43.71092" lon="5.90665">
        <ele>432</ele>
        <time>2009-11-11T12:08:43Z</time>
      </trkpt>
      <trkpt lat="43.71095" lon="5.90652">
        <ele>435</ele>
        <time>2009-11-11T12:08:47Z</time>
      </trkpt>
      <trkpt lat="43.71112" lon="5.90622">
        <ele>435</ele>
        <time>2009-11-11T12:08:58Z</time>
      </trkpt>
      <trkpt lat="43.71113" lon="5.9062">
        <ele>435</ele>
        <time>2009-11-11T12:08:59Z</time>
      </trkpt>
      <trkpt lat="43.71126" lon="5.90611">
        <ele>434</ele>
        <time>2009-11-11T12:09:04Z</time>
      </trkpt>
      <trkpt lat="43.71135" lon="5.90611">
        <ele>433</ele>
        <time>2009-11-11T12:09:07Z</time>
      </trkpt>
      <trkpt lat="43.71144" lon="5.90611">
        <ele>432</ele>
        <time>2009-11-11T12:09:09Z</time>
      </trkpt>
      <trkpt lat="43.71177" lon="5.90596">
        <ele>426</ele>
        <time>2009-11-11T12:09:16Z</time>
      </trkpt>
      <trkpt lat="43.71185" lon="5.90581">
        <ele>424</ele>
        <time>2009-11-11T12:09:18Z</time>
      </trkpt>
      <trkpt lat="43.71193" lon="5.90546">
        <ele>423</ele>
        <time>2009-11-11T12:09:25Z</time>
      </trkpt>
      <trkpt lat="43.71193" lon="5.9054">
        <ele>423</ele>
        <time>2009-11-11T12:09:27Z</time>
      </trkpt>
      <trkpt lat="43.71193" lon="5.90531">
        <ele>424</ele>
        <time>2009-11-11T12:09:31Z</time>
      </trkpt>
      <trkpt lat="43.71196" lon="5.90513">
        <ele>424</ele>
        <time>2009-11-11T12:09:37Z</time>
      </trkpt>
      <trkpt lat="43.71199" lon="5.90511">
        <ele>426</ele>
        <time>2009-11-11T12:09:49Z</time>
      </trkpt>
      <trkpt lat="43.71208" lon="5.90478">
        <ele>426</ele>
        <time>2009-11-11T12:09:58Z</time>
      </trkpt>
      <trkpt lat="43.71208" lon="5.90473">
        <ele>426</ele>
        <time>2009-11-11T12:10:00Z</time>
      </trkpt>
      <trkpt lat="43.71209" lon="5.90456">
        <ele>425</ele>
        <time>2009-11-11T12:10:06Z</time>
      </trkpt>
      <trkpt lat="43.71217" lon="5.90401">
        <ele>426</ele>
        <time>2009-11-11T12:10:18Z</time>
      </trkpt>
      <trkpt lat="43.71221" lon="5.90365">
        <ele>426</ele>
        <time>2009-11-11T12:10:25Z</time>
      </trkpt>
      <trkpt lat="43.71227" lon="5.90347">
        <ele>424</ele>
        <time>2009-11-11T12:10:28Z</time>
      </trkpt>
      <trkpt lat="43.71234" lon="5.90324">
        <ele>423</ele>
        <time>2009-11-11T12:10:31Z</time>
      </trkpt>
      <trkpt lat="43.71238" lon="5.90289">
        <ele>420</ele>
        <time>2009-11-11T12:10:35Z</time>
      </trkpt>
      <trkpt lat="43.71242" lon="5.90272">
        <ele>418</ele>
        <time>2009-11-11T12:10:38Z</time>
      </trkpt>
      <trkpt lat="43.71237" lon="5.90255">
        <ele>418</ele>
        <time>2009-11-11T12:10:49Z</time>
      </trkpt>
      <trkpt lat="43.71237" lon="5.90255">
        <ele>422</ele>
        <time>2009-11-11T12:11:17Z</time>
      </trkpt>
      <trkpt lat="43.71237" lon="5.90254">
        <ele>423</ele>
        <time>2009-11-11T12:11:18Z</time>
      </trkpt>
      <trkpt lat="43.71244" lon="5.90233">
        <ele>424</ele>
        <time>2009-11-11T12:11:24Z</time>
      </trkpt>
      <trkpt lat="43.71243" lon="5.90227">
        <ele>425</ele>
        <time>2009-11-11T12:11:32Z</time>
      </trkpt>
      <trkpt lat="43.71246" lon="5.90228">
        <ele>426</ele>
        <time>2009-11-11T12:11:46Z</time>
      </trkpt>
      <trkpt lat="43.71247" lon="5.90228">
        <ele>427</ele>
        <time>2009-11-11T12:12:02Z</time>
      </trkpt>
      <trkpt lat="43.71246" lon="5.90222">
        <ele>429</ele>
        <time>2009-11-11T12:13:41Z</time>
      </trkpt>
      <trkpt lat="43.71244" lon="5.90186">
        <ele>431</ele>
        <time>2009-11-11T12:13:51Z</time>
      </trkpt>
      <trkpt lat="43.71246" lon="5.90181">
        <ele>433</ele>
        <time>2009-11-11T12:14:02Z</time>
      </trkpt>
      <trkpt lat="43.7125" lon="5.90159">
        <ele>431</ele>
        <time>2009-11-11T12:14:20Z</time>
      </trkpt>
      <trkpt lat="43.71258" lon="5.90116">
        <ele>431</ele>
        <time>2009-11-11T12:14:32Z</time>
      </trkpt>
      <trkpt lat="43.71263" lon="5.90062">
        <ele>428</ele>
        <time>2009-11-11T12:14:42Z</time>
      </trkpt>
      <trkpt lat="43.71265" lon="5.90025">
        <ele>429</ele>
        <time>2009-11-11T12:14:52Z</time>
      </trkpt>
      <trkpt lat="43.71268" lon="5.90009">
        <ele>428</ele>
        <time>2009-11-11T12:14:55Z</time>
      </trkpt>
      <trkpt lat="43.71277" lon="5.89972">
        <ele>427</ele>
        <time>2009-11-11T12:15:01Z</time>
      </trkpt>
      <trkpt lat="43.71283" lon="5.89948">
        <ele>425</ele>
        <time>2009-11-11T12:15:05Z</time>
      </trkpt>
      <trkpt lat="43.71287" lon="5.89937">
        <ele>425</ele>
        <time>2009-11-11T12:15:07Z</time>
      </trkpt>
      <trkpt lat="43.71293" lon="5.89898">
        <ele>423</ele>
        <time>2009-11-11T12:15:16Z</time>
      </trkpt>
      <trkpt lat="43.71294" lon="5.8988">
        <ele>421</ele>
        <time>2009-11-11T12:15:26Z</time>
      </trkpt>
      <trkpt lat="43.71302" lon="5.89867">
        <ele>419</ele>
        <time>2009-11-11T12:15:32Z</time>
      </trkpt>
      <trkpt lat="43.71302" lon="5.89827">
        <ele>413</ele>
        <time>2009-11-11T12:15:41Z</time>
      </trkpt>
      <trkpt lat="43.71301" lon="5.89799">
        <ele>411</ele>
        <time>2009-11-11T12:15:46Z</time>
      </trkpt>
      <trkpt lat="43.71306" lon="5.89765">
        <ele>410</ele>
        <time>2009-11-11T12:15:55Z</time>
      </trkpt>
      <trkpt lat="43.71313" lon="5.89725">
        <ele>407</ele>
        <time>2009-11-11T12:16:02Z</time>
      </trkpt>
      <trkpt lat="43.71308" lon="5.89712">
        <ele>410</ele>
        <time>2009-11-11T12:16:08Z</time>
      </trkpt>
      <trkpt lat="43.71304" lon="5.89697">
        <ele>411</ele>
        <time>2009-11-11T12:16:15Z</time>
      </trkpt>
      <trkpt lat="43.71305" lon="5.89685">
        <ele>413</ele>
        <time>2009-11-11T12:16:21Z</time>
      </trkpt>
      <trkpt lat="43.71311" lon="5.89664">
        <ele>418</ele>
        <time>2009-11-11T12:16:33Z</time>
      </trkpt>
      <trkpt lat="43.71312" lon="5.8965">
        <ele>420</ele>
        <time>2009-11-11T12:16:46Z</time>
      </trkpt>
      <trkpt lat="43.71313" lon="5.89644">
        <ele>421</ele>
        <time>2009-11-11T12:17:00Z</time>
      </trkpt>
      <trkpt lat="43.71313" lon="5.89644">
        <ele>424</ele>
        <time>2009-11-11T12:18:33Z</time>
      </trkpt>
      <trkpt lat="43.71315" lon="5.89639">
        <ele>424</ele>
        <time>2009-11-11T12:19:18Z</time>
      </trkpt>
      <trkpt lat="43.71318" lon="5.8963">
        <ele>424</ele>
        <time>2009-11-11T12:19:23Z</time>
      </trkpt>
      <trkpt lat="43.71318" lon="5.89626">
        <ele>424</ele>
        <time>2009-11-11T12:19:25Z</time>
      </trkpt>
      <trkpt lat="43.71317" lon="5.89621">
        <ele>424</ele>
        <time>2009-11-11T12:19:29Z</time>
      </trkpt>
      <trkpt lat="43.71317" lon="5.89613">
        <ele>423</ele>
        <time>2009-11-11T12:19:33Z</time>
      </trkpt>
      <trkpt lat="43.71321" lon="5.8958">
        <ele>423</ele>
        <time>2009-11-11T12:19:48Z</time>
      </trkpt>
      <trkpt lat="43.71327" lon="5.89542">
        <ele>424</ele>
        <time>2009-11-11T12:20:04Z</time>
      </trkpt>
      <trkpt lat="43.71323" lon="5.89532">
        <ele>424</ele>
        <time>2009-11-11T12:20:08Z</time>
      </trkpt>
      <trkpt lat="43.71315" lon="5.89523">
        <ele>425</ele>
        <time>2009-11-11T12:20:15Z</time>
      </trkpt>
      <trkpt lat="43.71304" lon="5.8949">
        <ele>424</ele>
        <time>2009-11-11T12:20:30Z</time>
      </trkpt>
      <trkpt lat="43.71306" lon="5.89453">
        <ele>423</ele>
        <time>2009-11-11T12:20:41Z</time>
      </trkpt>
      <trkpt lat="43.71312" lon="5.89441">
        <ele>423</ele>
        <time>2009-11-11T12:20:45Z</time>
      </trkpt>
      <trkpt lat="43.71327" lon="5.89402">
        <ele>422</ele>
        <time>2009-11-11T12:20:57Z</time>
      </trkpt>
      <trkpt lat="43.71336" lon="5.8937">
        <ele>422</ele>
        <time>2009-11-11T12:21:06Z</time>
      </trkpt>
      <trkpt lat="43.71345" lon="5.89309">
        <ele>422</ele>
        <time>2009-11-11T12:21:22Z</time>
      </trkpt>
      <trkpt lat="43.71342" lon="5.89263">
        <ele>426</ele>
        <time>2009-11-11T12:21:36Z</time>
      </trkpt>
      <trkpt lat="43.71338" lon="5.89241">
        <ele>426</ele>
        <time>2009-11-11T12:21:43Z</time>
      </trkpt>
      <trkpt lat="43.71334" lon="5.89218">
        <ele>426</ele>
        <time>2009-11-11T12:21:50Z</time>
      </trkpt>
      <trkpt lat="43.71325" lon="5.89195">
        <ele>425</ele>
        <time>2009-11-11T12:21:56Z</time>
      </trkpt>
      <trkpt lat="43.71315" lon="5.89183">
        <ele>423</ele>
        <time>2009-11-11T12:22:00Z</time>
      </trkpt>
      <trkpt lat="43.7131" lon="5.89163">
        <ele>421</ele>
        <time>2009-11-11T12:22:04Z</time>
      </trkpt>
      <trkpt lat="43.71318" lon="5.89127">
        <ele>418</ele>
        <time>2009-11-11T12:22:14Z</time>
      </trkpt>
      <trkpt lat="43.71327" lon="5.89098">
        <ele>416</ele>
        <time>2009-11-11T12:22:20Z</time>
      </trkpt>
      <trkpt lat="43.71335" lon="5.89065">
        <ele>413</ele>
        <time>2009-11-11T12:22:27Z</time>
      </trkpt>
      <trkpt lat="43.7133" lon="5.89025">
        <ele>409</ele>
        <time>2009-11-11T12:22:37Z</time>
      </trkpt>
      <trkpt lat="43.71348" lon="5.88987">
        <ele>404</ele>
        <time>2009-11-11T12:22:47Z</time>
      </trkpt>
      <trkpt lat="43.71351" lon="5.88979">
        <ele>403</ele>
        <time>2009-11-11T12:22:49Z</time>
      </trkpt>
      <trkpt lat="43.71363" lon="5.88943">
        <ele>397</ele>
        <time>2009-11-11T12:23:00Z</time>
      </trkpt>
      <trkpt lat="43.71371" lon="5.88906">
        <ele>396</ele>
        <time>2009-11-11T12:23:13Z</time>
      </trkpt>
      <trkpt lat="43.7138" lon="5.88881">
        <ele>395</ele>
        <time>2009-11-11T12:23:23Z</time>
      </trkpt>
      <trkpt lat="43.71383" lon="5.88874">
        <ele>395</ele>
        <time>2009-11-11T12:23:28Z</time>
      </trkpt>
      <trkpt lat="43.71403" lon="5.88849">
        <ele>391</ele>
        <time>2009-11-11T12:23:38Z</time>
      </trkpt>
      <trkpt lat="43.7142" lon="5.88816">
        <ele>390</ele>
        <time>2009-11-11T12:23:49Z</time>
      </trkpt>
      <trkpt lat="43.71437" lon="5.88756">
        <ele>392</ele>
        <time>2009-11-11T12:24:02Z</time>
      </trkpt>
      <trkpt lat="43.71445" lon="5.88709">
        <ele>391</ele>
        <time>2009-11-11T12:24:13Z</time>
      </trkpt>
      <trkpt lat="43.71445" lon="5.88706">
        <ele>391</ele>
        <time>2009-11-11T12:24:14Z</time>
      </trkpt>
      <trkpt lat="43.71449" lon="5.88682">
        <ele>387</ele>
        <time>2009-11-11T12:24:20Z</time>
      </trkpt>
      <trkpt lat="43.71453" lon="5.88647">
        <ele>383</ele>
        <time>2009-11-11T12:24:25Z</time>
      </trkpt>
      <trkpt lat="43.71459" lon="5.88615">
        <ele>378</ele>
        <time>2009-11-11T12:24:30Z</time>
      </trkpt>
      <trkpt lat="43.71462" lon="5.88563">
        <ele>372</ele>
        <time>2009-11-11T12:24:37Z</time>
      </trkpt>
      <trkpt lat="43.71468" lon="5.88527">
        <ele>369</ele>
        <time>2009-11-11T12:24:41Z</time>
      </trkpt>
      <trkpt lat="43.71471" lon="5.88487">
        <ele>366</ele>
        <time>2009-11-11T12:24:45Z</time>
      </trkpt>
      <trkpt lat="43.71485" lon="5.88422">
        <ele>364</ele>
        <time>2009-11-11T12:24:52Z</time>
      </trkpt>
      <trkpt lat="43.71485" lon="5.88377">
        <ele>360</ele>
        <time>2009-11-11T12:24:58Z</time>
      </trkpt>
      <trkpt lat="43.71487" lon="5.8835">
        <ele>357</ele>
        <time>2009-11-11T12:25:05Z</time>
      </trkpt>
      <trkpt lat="43.71491" lon="5.88351">
        <ele>358</ele>
        <time>2009-11-11T12:25:19Z</time>
      </trkpt>
      <trkpt lat="43.71491" lon="5.88351">
        <ele>359</ele>
        <time>2009-11-11T12:25:30Z</time>
      </trkpt>
      <trkpt lat="43.71497" lon="5.88348">
        <ele>359</ele>
        <time>2009-11-11T12:25:34Z</time>
      </trkpt>
      <trkpt lat="43.71517" lon="5.88328">
        <ele>357</ele>
        <time>2009-11-11T12:25:42Z</time>
      </trkpt>
      <trkpt lat="43.71525" lon="5.88308">
        <ele>353</ele>
        <time>2009-11-11T12:25:51Z</time>
      </trkpt>
      <trkpt lat="43.71519" lon="5.88269">
        <ele>347</ele>
        <time>2009-11-11T12:26:00Z</time>
      </trkpt>
      <trkpt lat="43.71538" lon="5.88257">
        <ele>344</ele>
        <time>2009-11-11T12:26:07Z</time>
      </trkpt>
      <trkpt lat="43.71551" lon="5.88282">
        <ele>343</ele>
        <time>2009-11-11T12:26:13Z</time>
      </trkpt>
      <trkpt lat="43.71576" lon="5.88302">
        <ele>342</ele>
        <time>2009-11-11T12:26:21Z</time>
      </trkpt>
      <trkpt lat="43.71597" lon="5.8832">
        <ele>346</ele>
        <time>2009-11-11T12:26:32Z</time>
      </trkpt>
      <trkpt lat="43.71623" lon="5.8834">
        <ele>347</ele>
        <time>2009-11-11T12:26:42Z</time>
      </trkpt>
      <trkpt lat="43.71648" lon="5.88373">
        <ele>348</ele>
        <time>2009-11-11T12:26:54Z</time>
      </trkpt>
      <trkpt lat="43.71673" lon="5.88391">
        <ele>350</ele>
        <time>2009-11-11T12:27:05Z</time>
      </trkpt>
      <trkpt lat="43.71694" lon="5.88425">
        <ele>353</ele>
        <time>2009-11-11T12:27:17Z</time>
      </trkpt>
      <trkpt lat="43.71712" lon="5.88467">
        <ele>354</ele>
        <time>2009-11-11T12:27:28Z</time>
      </trkpt>
      <trkpt lat="43.71732" lon="5.88493">
        <ele>355</ele>
        <time>2009-11-11T12:27:37Z</time>
      </trkpt>
      <trkpt lat="43.71766" lon="5.88484">
        <ele>356</ele>
        <time>2009-11-11T12:27:49Z</time>
      </trkpt>
      <trkpt lat="43.71799" lon="5.88468">
        <ele>357</ele>
        <time>2009-11-11T12:28:03Z</time>
      </trkpt>
      <trkpt lat="43.71827" lon="5.88436">
        <ele>359</ele>
        <time>2009-11-11T12:28:16Z</time>
      </trkpt>
      <trkpt lat="43.71832" lon="5.88433">
        <ele>359</ele>
        <time>2009-11-11T12:28:18Z</time>
      </trkpt>
      <trkpt lat="43.71848" lon="5.88446">
        <ele>361</ele>
        <time>2009-11-11T12:28:27Z</time>
      </trkpt>
      <trkpt lat="43.71863" lon="5.88478">
        <ele>363</ele>
        <time>2009-11-11T12:28:38Z</time>
      </trkpt>
      <trkpt lat="43.71889" lon="5.88512">
        <ele>365</ele>
        <time>2009-11-11T12:28:53Z</time>
      </trkpt>
      <trkpt lat="43.71894" lon="5.88516">
        <ele>365</ele>
        <time>2009-11-11T12:28:56Z</time>
      </trkpt>
      <trkpt lat="43.7191" lon="5.88532">
        <ele>364</ele>
        <time>2009-11-11T12:29:04Z</time>
      </trkpt>
      <trkpt lat="43.71916" lon="5.88536">
        <ele>364</ele>
        <time>2009-11-11T12:29:07Z</time>
      </trkpt>
      <trkpt lat="43.71951" lon="5.88526">
        <ele>365</ele>
        <time>2009-11-11T12:29:21Z</time>
      </trkpt>
      <trkpt lat="43.71983" lon="5.88506">
        <ele>366</ele>
        <time>2009-11-11T12:29:36Z</time>
      </trkpt>
      <trkpt lat="43.72008" lon="5.88478">
        <ele>366</ele>
        <time>2009-11-11T12:29:48Z</time>
      </trkpt>
      <trkpt lat="43.72028" lon="5.88447">
        <ele>367</ele>
        <time>2009-11-11T12:30:01Z</time>
      </trkpt>
      <trkpt lat="43.7204" lon="5.88431">
        <ele>367</ele>
        <time>2009-11-11T12:30:09Z</time>
      </trkpt>
      <trkpt lat="43.72045" lon="5.8842">
        <ele>368</ele>
        <time>2009-11-11T12:30:14Z</time>
      </trkpt>
      <trkpt lat="43.72063" lon="5.88388">
        <ele>368</ele>
        <time>2009-11-11T12:30:28Z</time>
      </trkpt>
      <trkpt lat="43.72082" lon="5.88361">
        <ele>369</ele>
        <time>2009-11-11T12:30:42Z</time>
      </trkpt>
      <trkpt lat="43.72083" lon="5.88352">
        <ele>369</ele>
        <time>2009-11-11T12:30:47Z</time>
      </trkpt>
      <trkpt lat="43.72087" lon="5.88332">
        <ele>368</ele>
        <time>2009-11-11T12:30:57Z</time>
      </trkpt>
      <trkpt lat="43.72089" lon="5.88325">
        <ele>369</ele>
        <time>2009-11-11T12:31:00Z</time>
      </trkpt>
      <trkpt lat="43.72092" lon="5.88316">
        <ele>370</ele>
        <time>2009-11-11T12:31:04Z</time>
      </trkpt>
      <trkpt lat="43.72105" lon="5.88278">
        <ele>372</ele>
        <time>2009-11-11T12:31:19Z</time>
      </trkpt>
      <trkpt lat="43.72117" lon="5.8826">
        <ele>372</ele>
        <time>2009-11-11T12:31:27Z</time>
      </trkpt>
      <trkpt lat="43.72122" lon="5.8821">
        <ele>373</ele>
        <time>2009-11-11T12:31:41Z</time>
      </trkpt>
      <trkpt lat="43.72137" lon="5.88167">
        <ele>377</ele>
        <time>2009-11-11T12:31:56Z</time>
      </trkpt>
      <trkpt lat="43.7215" lon="5.88132">
        <ele>378</ele>
        <time>2009-11-11T12:32:09Z</time>
      </trkpt>
      <trkpt lat="43.72142" lon="5.88102">
        <ele>380</ele>
        <time>2009-11-11T12:32:21Z</time>
      </trkpt>
      <trkpt lat="43.72129" lon="5.88086">
        <ele>379</ele>
        <time>2009-11-11T12:32:29Z</time>
      </trkpt>
      <trkpt lat="43.72116" lon="5.88058">
        <ele>382</ele>
        <time>2009-11-11T12:32:42Z</time>
      </trkpt>
      <trkpt lat="43.72105" lon="5.88031">
        <ele>384</ele>
        <time>2009-11-11T12:32:55Z</time>
      </trkpt>
      <trkpt lat="43.72113" lon="5.88007">
        <ele>385</ele>
        <time>2009-11-11T12:33:09Z</time>
      </trkpt>
      <trkpt lat="43.72113" lon="5.88006">
        <ele>385</ele>
        <time>2009-11-11T12:33:10Z</time>
      </trkpt>
      <trkpt lat="43.72135" lon="5.87983">
        <ele>383</ele>
        <time>2009-11-11T12:33:23Z</time>
      </trkpt>
      <trkpt lat="43.72137" lon="5.87978">
        <ele>382</ele>
        <time>2009-11-11T12:33:26Z</time>
      </trkpt>
      <trkpt lat="43.72148" lon="5.87957">
        <ele>383</ele>
        <time>2009-11-11T12:33:37Z</time>
      </trkpt>
      <trkpt lat="43.72149" lon="5.87955">
        <ele>383</ele>
        <time>2009-11-11T12:33:38Z</time>
      </trkpt>
      <trkpt lat="43.72151" lon="5.8794">
        <ele>384</ele>
        <time>2009-11-11T12:33:45Z</time>
      </trkpt>
      <trkpt lat="43.72155" lon="5.87927">
        <ele>385</ele>
        <time>2009-11-11T12:33:52Z</time>
      </trkpt>
      <trkpt lat="43.72168" lon="5.87906">
        <ele>389</ele>
        <time>2009-11-11T12:34:05Z</time>
      </trkpt>
      <trkpt lat="43.72186" lon="5.87897">
        <ele>392</ele>
        <time>2009-11-11T12:34:18Z</time>
      </trkpt>
      <trkpt lat="43.72199" lon="5.87871">
        <ele>391</ele>
        <time>2009-11-11T12:34:29Z</time>
      </trkpt>
      <trkpt lat="43.7221" lon="5.87845">
        <ele>390</ele>
        <time>2009-11-11T12:34:41Z</time>
      </trkpt>
      <trkpt lat="43.72229" lon="5.87814">
        <ele>391</ele>
        <time>2009-11-11T12:34:58Z</time>
      </trkpt>
      <trkpt lat="43.72258" lon="5.87826">
        <ele>391</ele>
        <time>2009-11-11T12:35:14Z</time>
      </trkpt>
      <trkpt lat="43.72286" lon="5.87847">
        <ele>389</ele>
        <time>2009-11-11T12:35:26Z</time>
      </trkpt>
      <trkpt lat="43.72313" lon="5.8787">
        <ele>390</ele>
        <time>2009-11-11T12:35:39Z</time>
      </trkpt>
      <trkpt lat="43.72336" lon="5.87895">
        <ele>389</ele>
        <time>2009-11-11T12:35:51Z</time>
      </trkpt>
      <trkpt lat="43.72368" lon="5.87912">
        <ele>386</ele>
        <time>2009-11-11T12:36:03Z</time>
      </trkpt>
      <trkpt lat="43.72388" lon="5.87926">
        <ele>386</ele>
        <time>2009-11-11T12:36:11Z</time>
      </trkpt>
      <trkpt lat="43.72393" lon="5.87918">
        <ele>387</ele>
        <time>2009-11-11T12:36:17Z</time>
      </trkpt>
      <trkpt lat="43.72393" lon="5.87914">
        <ele>387</ele>
        <time>2009-11-11T12:36:19Z</time>
      </trkpt>
      <trkpt lat="43.72395" lon="5.87897">
        <ele>389</ele>
        <time>2009-11-11T12:36:27Z</time>
      </trkpt>
      <trkpt lat="43.72397" lon="5.87892">
        <ele>389</ele>
        <time>2009-11-11T12:36:29Z</time>
      </trkpt>
      <trkpt lat="43.72392" lon="5.87853">
        <ele>391</ele>
        <time>2009-11-11T12:36:45Z</time>
      </trkpt>
      <trkpt lat="43.72391" lon="5.87841">
        <ele>392</ele>
        <time>2009-11-11T12:36:51Z</time>
      </trkpt>
      <trkpt lat="43.72387" lon="5.87807">
        <ele>396</ele>
        <time>2009-11-11T12:37:07Z</time>
      </trkpt>
      <trkpt lat="43.72387" lon="5.87803">
        <ele>397</ele>
        <time>2009-11-11T12:37:09Z</time>
      </trkpt>
      <trkpt lat="43.72378" lon="5.87771">
        <ele>399</ele>
        <time>2009-11-11T12:37:24Z</time>
      </trkpt>
      <trkpt lat="43.72368" lon="5.8774">
        <ele>400</ele>
        <time>2009-11-11T12:37:41Z</time>
      </trkpt>
      <trkpt lat="43.72361" lon="5.87718">
        <ele>401</ele>
        <time>2009-11-11T12:37:53Z</time>
      </trkpt>
      <trkpt lat="43.72359" lon="5.87691">
        <ele>403</ele>
        <time>2009-11-11T12:38:06Z</time>
      </trkpt>
      <trkpt lat="43.72358" lon="5.87655">
        <ele>402</ele>
        <time>2009-11-11T12:38:20Z</time>
      </trkpt>
      <trkpt lat="43.72354" lon="5.87618">
        <ele>402</ele>
        <time>2009-11-11T12:38:33Z</time>
      </trkpt>
      <trkpt lat="43.72342" lon="5.87576">
        <ele>404</ele>
        <time>2009-11-11T12:38:47Z</time>
      </trkpt>
      <trkpt lat="43.72328" lon="5.87539">
        <ele>407</ele>
        <time>2009-11-11T12:39:02Z</time>
      </trkpt>
      <trkpt lat="43.7233" lon="5.87506">
        <ele>412</ele>
        <time>2009-11-11T12:39:17Z</time>
      </trkpt>
      <trkpt lat="43.7233" lon="5.87504">
        <ele>412</ele>
        <time>2009-11-11T12:39:18Z</time>
      </trkpt>
      <trkpt lat="43.7234" lon="5.87497">
        <ele>414</ele>
        <time>2009-11-11T12:39:35Z</time>
      </trkpt>
      <trkpt lat="43.72341" lon="5.87497">
        <ele>414</ele>
        <time>2009-11-11T12:40:10Z</time>
      </trkpt>
      <trkpt lat="43.72341" lon="5.87498">
        <ele>414</ele>
        <time>2009-11-11T12:41:23Z</time>
      </trkpt>
      <trkpt lat="43.72341" lon="5.87497">
        <ele>414</ele>
        <time>2009-11-11T12:42:37Z</time>
      </trkpt>
      <trkpt lat="43.72341" lon="5.87499">
        <ele>413</ele>
        <time>2009-11-11T12:43:52Z</time>
      </trkpt>
      <trkpt lat="43.72352" lon="5.87495">
        <ele>414</ele>
        <time>2009-11-11T12:44:07Z</time>
      </trkpt>
      <trkpt lat="43.72355" lon="5.87493">
        <ele>414</ele>
        <time>2009-11-11T12:44:09Z</time>
      </trkpt>
      <trkpt lat="43.7237" lon="5.87504">
        <ele>416</ele>
        <time>2009-11-11T12:44:19Z</time>
      </trkpt>
      <trkpt lat="43.72391" lon="5.87494">
        <ele>421</ele>
        <time>2009-11-11T12:44:33Z</time>
      </trkpt>
      <trkpt lat="43.72404" lon="5.87475">
        <ele>423</ele>
        <time>2009-11-11T12:44:44Z</time>
      </trkpt>
      <trkpt lat="43.72405" lon="5.87474">
        <ele>423</ele>
        <time>2009-11-11T12:44:45Z</time>
      </trkpt>
      <trkpt lat="43.72415" lon="5.87472">
        <ele>425</ele>
        <time>2009-11-11T12:44:52Z</time>
      </trkpt>
      <trkpt lat="43.72418" lon="5.87471">
        <ele>426</ele>
        <time>2009-11-11T12:44:54Z</time>
      </trkpt>
      <trkpt lat="43.72425" lon="5.87476">
        <ele>427</ele>
        <time>2009-11-11T12:45:01Z</time>
      </trkpt>
      <trkpt lat="43.72438" lon="5.87481">
        <ele>429</ele>
        <time>2009-11-11T12:45:14Z</time>
      </trkpt>
      <trkpt lat="43.72439" lon="5.87481">
        <ele>430</ele>
        <time>2009-11-11T12:45:18Z</time>
      </trkpt>
      <trkpt lat="43.7244" lon="5.87483">
        <ele>430</ele>
        <time>2009-11-11T12:45:20Z</time>
      </trkpt>
      <trkpt lat="43.72447" lon="5.87487">
        <ele>431</ele>
        <time>2009-11-11T12:45:30Z</time>
      </trkpt>
      <trkpt lat="43.72451" lon="5.87483">
        <ele>433</ele>
        <time>2009-11-11T12:45:42Z</time>
      </trkpt>
      <trkpt lat="43.72452" lon="5.87476">
        <ele>437</ele>
        <time>2009-11-11T12:45:56Z</time>
      </trkpt>
      <trkpt lat="43.72461" lon="5.87478">
        <ele>439</ele>
        <time>2009-11-11T12:46:09Z</time>
      </trkpt>
      <trkpt lat="43.72469" lon="5.87479">
        <ele>441</ele>
        <time>2009-11-11T12:46:20Z</time>
      </trkpt>
      <trkpt lat="43.72477" lon="5.87482">
        <ele>444</ele>
        <time>2009-11-11T12:46:32Z</time>
      </trkpt>
      <trkpt lat="43.7249" lon="5.87483">
        <ele>448</ele>
        <time>2009-11-11T12:46:47Z</time>
      </trkpt>
      <trkpt lat="43.72498" lon="5.87484">
        <ele>449</ele>
        <time>2009-11-11T12:47:00Z</time>
      </trkpt>
      <trkpt lat="43.72499" lon="5.87484">
        <ele>449</ele>
        <time>2009-11-11T12:47:04Z</time>
      </trkpt>
      <trkpt lat="43.72502" lon="5.87486">
        <ele>451</ele>
        <time>2009-11-11T12:47:08Z</time>
      </trkpt>
      <trkpt lat="43.72515" lon="5.87494">
        <ele>454</ele>
        <time>2009-11-11T12:47:18Z</time>
      </trkpt>
      <trkpt lat="43.72522" lon="5.875">
        <ele>455</ele>
        <time>2009-11-11T12:47:23Z</time>
      </trkpt>
      <trkpt lat="43.72537" lon="5.87512">
        <ele>458</ele>
        <time>2009-11-11T12:47:35Z</time>
      </trkpt>
      <trkpt lat="43.7255" lon="5.87518">
        <ele>462</ele>
        <time>2009-11-11T12:47:46Z</time>
      </trkpt>
      <trkpt lat="43.72566" lon="5.87528">
        <ele>465</ele>
        <time>2009-11-11T12:47:58Z</time>
      </trkpt>
      <trkpt lat="43.72573" lon="5.87535">
        <ele>465</ele>
        <time>2009-11-11T12:48:04Z</time>
      </trkpt>
      <trkpt lat="43.72591" lon="5.87545">
        <ele>464</ele>
        <time>2009-11-11T12:48:13Z</time>
      </trkpt>
      <trkpt lat="43.72598" lon="5.87547">
        <ele>463</ele>
        <time>2009-11-11T12:48:15Z</time>
      </trkpt>
      <trkpt lat="43.72625" lon="5.8756">
        <ele>461</ele>
        <time>2009-11-11T12:48:25Z</time>
      </trkpt>
      <trkpt lat="43.72628" lon="5.87564">
        <ele>461</ele>
        <time>2009-11-11T12:48:28Z</time>
      </trkpt>
      <trkpt lat="43.72648" lon="5.87566">
        <ele>462</ele>
        <time>2009-11-11T12:48:40Z</time>
      </trkpt>
      <trkpt lat="43.72654" lon="5.87565">
        <ele>463</ele>
        <time>2009-11-11T12:48:44Z</time>
      </trkpt>
      <trkpt lat="43.72657" lon="5.87566">
        <ele>463</ele>
        <time>2009-11-11T12:48:46Z</time>
      </trkpt>
      <trkpt lat="43.72666" lon="5.87565">
        <ele>463</ele>
        <time>2009-11-11T12:48:52Z</time>
      </trkpt>
      <trkpt lat="43.72673" lon="5.87551">
        <ele>463</ele>
        <time>2009-11-11T12:48:57Z</time>
      </trkpt>
      <trkpt lat="43.72684" lon="5.87543">
        <ele>463</ele>
        <time>2009-11-11T12:49:01Z</time>
      </trkpt>
      <trkpt lat="43.72688" lon="5.87539">
        <ele>463</ele>
        <time>2009-11-11T12:49:03Z</time>
      </trkpt>
      <trkpt lat="43.72705" lon="5.87515">
        <ele>460</ele>
        <time>2009-11-11T12:49:11Z</time>
      </trkpt>
      <trkpt lat="43.72719" lon="5.87493">
        <ele>456</ele>
        <time>2009-11-11T12:49:17Z</time>
      </trkpt>
      <trkpt lat="43.7274" lon="5.87465">
        <ele>452</ele>
        <time>2009-11-11T12:49:24Z</time>
      </trkpt>
      <trkpt lat="43.72769" lon="5.87433">
        <ele>450</ele>
        <time>2009-11-11T12:49:33Z</time>
      </trkpt>
      <trkpt lat="43.72776" lon="5.87427">
        <ele>450</ele>
        <time>2009-11-11T12:49:35Z</time>
      </trkpt>
      <trkpt lat="43.72805" lon="5.87406">
        <ele>448</ele>
        <time>2009-11-11T12:49:43Z</time>
      </trkpt>
      <trkpt lat="43.72824" lon="5.87395">
        <ele>447</ele>
        <time>2009-11-11T12:49:51Z</time>
      </trkpt>
      <trkpt lat="43.72837" lon="5.87382">
        <ele>448</ele>
        <time>2009-11-11T12:49:59Z</time>
      </trkpt>
      <trkpt lat="43.7284" lon="5.87381">
        <ele>448</ele>
        <time>2009-11-11T12:50:00Z</time>
      </trkpt>
      <trkpt lat="43.72852" lon="5.87371">
        <ele>447</ele>
        <time>2009-11-11T12:50:05Z</time>
      </trkpt>
      <trkpt lat="43.72869" lon="5.87357">
        <ele>445</ele>
        <time>2009-11-11T12:50:09Z</time>
      </trkpt>
      <trkpt lat="43.72893" lon="5.87344">
        <ele>444</ele>
        <time>2009-11-11T12:50:14Z</time>
      </trkpt>
      <trkpt lat="43.72918" lon="5.8732">
        <ele>442</ele>
        <time>2009-11-11T12:50:22Z</time>
      </trkpt>
      <trkpt lat="43.72956" lon="5.87302">
        <ele>438</ele>
        <time>2009-11-11T12:50:32Z</time>
      </trkpt>
      <trkpt lat="43.72992" lon="5.87298">
        <ele>430</ele>
        <time>2009-11-11T12:50:41Z</time>
      </trkpt>
      <trkpt lat="43.73012" lon="5.87293">
        <ele>426</ele>
        <time>2009-11-11T12:50:45Z</time>
      </trkpt>
      <trkpt lat="43.73022" lon="5.8729">
        <ele>426</ele>
        <time>2009-11-11T12:50:47Z</time>
      </trkpt>
      <trkpt lat="43.73035" lon="5.8728">
        <ele>424</ele>
        <time>2009-11-11T12:50:51Z</time>
      </trkpt>
      <trkpt lat="43.73065" lon="5.87273">
        <ele>422</ele>
        <time>2009-11-11T12:50:59Z</time>
      </trkpt>
      <trkpt lat="43.73077" lon="5.87277">
        <ele>420</ele>
        <time>2009-11-11T12:51:01Z</time>
      </trkpt>
      <trkpt lat="43.73087" lon="5.87283">
        <ele>418</ele>
        <time>2009-11-11T12:51:03Z</time>
      </trkpt>
      <trkpt lat="43.73102" lon="5.87291">
        <ele>417</ele>
        <time>2009-11-11T12:51:07Z</time>
      </trkpt>
      <trkpt lat="43.7312" lon="5.87294">
        <ele>416</ele>
        <time>2009-11-11T12:51:12Z</time>
      </trkpt>
      <trkpt lat="43.73143" lon="5.87294">
        <ele>415</ele>
        <time>2009-11-11T12:51:20Z</time>
      </trkpt>
      <trkpt lat="43.73151" lon="5.87292">
        <ele>414</ele>
        <time>2009-11-11T12:51:23Z</time>
      </trkpt>
      <trkpt lat="43.73167" lon="5.87291">
        <ele>414</ele>
        <time>2009-11-11T12:51:28Z</time>
      </trkpt>
      <trkpt lat="43.73206" lon="5.87296">
        <ele>419</ele>
        <time>2009-11-11T12:51:40Z</time>
      </trkpt>
      <trkpt lat="43.73223" lon="5.87302">
        <ele>420</ele>
        <time>2009-11-11T12:51:50Z</time>
      </trkpt>
      <trkpt lat="43.73232" lon="5.87299">
        <ele>421</ele>
        <time>2009-11-11T12:51:55Z</time>
      </trkpt>
      <trkpt lat="43.73236" lon="5.87294">
        <ele>422</ele>
        <time>2009-11-11T12:51:59Z</time>
      </trkpt>
      <trkpt lat="43.73257" lon="5.87271">
        <ele>425</ele>
        <time>2009-11-11T12:52:10Z</time>
      </trkpt>
      <trkpt lat="43.73281" lon="5.8724">
        <ele>429</ele>
        <time>2009-11-11T12:52:21Z</time>
      </trkpt>
      <trkpt lat="43.73294" lon="5.87227">
        <ele>429</ele>
        <time>2009-11-11T12:52:26Z</time>
      </trkpt>
      <trkpt lat="43.73303" lon="5.87222">
        <ele>428</ele>
        <time>2009-11-11T12:52:28Z</time>
      </trkpt>
      <trkpt lat="43.73312" lon="5.87219">
        <ele>426</ele>
        <time>2009-11-11T12:52:30Z</time>
      </trkpt>
      <trkpt lat="43.73333" lon="5.87213">
        <ele>421</ele>
        <time>2009-11-11T12:52:36Z</time>
      </trkpt>
      <trkpt lat="43.73362" lon="5.87195">
        <ele>416</ele>
        <time>2009-11-11T12:52:45Z</time>
      </trkpt>
      <trkpt lat="43.7337" lon="5.8719">
        <ele>414</ele>
        <time>2009-11-11T12:52:47Z</time>
      </trkpt>
      <trkpt lat="43.73386" lon="5.87177">
        <ele>412</ele>
        <time>2009-11-11T12:52:52Z</time>
      </trkpt>
      <trkpt lat="43.73385" lon="5.87157">
        <ele>407</ele>
        <time>2009-11-11T12:52:59Z</time>
      </trkpt>
      <trkpt lat="43.73386" lon="5.87151">
        <ele>405</ele>
        <time>2009-11-11T12:53:02Z</time>
      </trkpt>
      <trkpt lat="43.73387" lon="5.87149">
        <ele>404</ele>
        <time>2009-11-11T12:53:04Z</time>
      </trkpt>
      <trkpt lat="43.73395" lon="5.87144">
        <ele>404</ele>
        <time>2009-11-11T12:53:16Z</time>
      </trkpt>
      <trkpt lat="43.73394" lon="5.87144">
        <ele>403</ele>
        <time>2009-11-11T12:53:48Z</time>
      </trkpt>
      <trkpt lat="43.73394" lon="5.87144">
        <ele>404</ele>
        <time>2009-11-11T12:53:59Z</time>
      </trkpt>
      <trkpt lat="43.73407" lon="5.87133">
        <ele>400</ele>
        <time>2009-11-11T12:54:08Z</time>
      </trkpt>
      <trkpt lat="43.73419" lon="5.87116">
        <ele>392</ele>
        <time>2009-11-11T12:54:17Z</time>
      </trkpt>
      <trkpt lat="43.73428" lon="5.87108">
        <ele>389</ele>
        <time>2009-11-11T12:54:21Z</time>
      </trkpt>
      <trkpt lat="43.73435" lon="5.87095">
        <ele>386</ele>
        <time>2009-11-11T12:54:26Z</time>
      </trkpt>
      <trkpt lat="43.73439" lon="5.87089">
        <ele>384</ele>
        <time>2009-11-11T12:54:28Z</time>
      </trkpt>
      <trkpt lat="43.73451" lon="5.87078">
        <ele>380</ele>
        <time>2009-11-11T12:54:32Z</time>
      </trkpt>
      <trkpt lat="43.73447" lon="5.87033">
        <ele>376</ele>
        <time>2009-11-11T12:54:41Z</time>
      </trkpt>
      <trkpt lat="43.73444" lon="5.87016">
        <ele>376</ele>
        <time>2009-11-11T12:54:45Z</time>
      </trkpt>
      <trkpt lat="43.73429" lon="5.86988">
        <ele>374</ele>
        <time>2009-11-11T12:54:52Z</time>
      </trkpt>
      <trkpt lat="43.73438" lon="5.86966">
        <ele>373</ele>
        <time>2009-11-11T12:54:59Z</time>
      </trkpt>
      <trkpt lat="43.73439" lon="5.86962">
        <ele>373</ele>
        <time>2009-11-11T12:55:00Z</time>
      </trkpt>
      <trkpt lat="43.73452" lon="5.86931">
        <ele>371</ele>
        <time>2009-11-11T12:55:08Z</time>
      </trkpt>
      <trkpt lat="43.73459" lon="5.86912">
        <ele>370</ele>
        <time>2009-11-11T12:55:12Z</time>
      </trkpt>
      <trkpt lat="43.73463" lon="5.86904">
        <ele>370</ele>
        <time>2009-11-11T12:55:14Z</time>
      </trkpt>
      <trkpt lat="43.73465" lon="5.86879">
        <ele>368</ele>
        <time>2009-11-11T12:55:20Z</time>
      </trkpt>
      <trkpt lat="43.73469" lon="5.86847">
        <ele>364</ele>
        <time>2009-11-11T12:55:27Z</time>
      </trkpt>
      <trkpt lat="43.73472" lon="5.86828">
        <ele>363</ele>
        <time>2009-11-11T12:55:30Z</time>
      </trkpt>
      <trkpt lat="43.73474" lon="5.868">
        <ele>357</ele>
        <time>2009-11-11T12:55:36Z</time>
      </trkpt>
      <trkpt lat="43.73474" lon="5.86781">
        <ele>353</ele>
        <time>2009-11-11T12:55:41Z</time>
      </trkpt>
      <trkpt lat="43.73473" lon="5.86768">
        <ele>351</ele>
        <time>2009-11-11T12:55:44Z</time>
      </trkpt>
      <trkpt lat="43.73469" lon="5.86737">
        <ele>345</ele>
        <time>2009-11-11T12:55:53Z</time>
      </trkpt>
      <trkpt lat="43.73469" lon="5.86729">
        <ele>344</ele>
        <time>2009-11-11T12:55:55Z</time>
      </trkpt>
      <trkpt lat="43.73464" lon="5.86687">
        <ele>338</ele>
        <time>2009-11-11T12:56:04Z</time>
      </trkpt>
      <trkpt lat="43.73469" lon="5.86676">
        <ele>335</ele>
        <time>2009-11-11T12:56:08Z</time>
      </trkpt>
      <trkpt lat="43.73475" lon="5.86661">
        <ele>331</ele>
        <time>2009-11-11T12:56:13Z</time>
      </trkpt>
      <trkpt lat="43.73482" lon="5.86646">
        <ele>329</ele>
        <time>2009-11-11T12:56:18Z</time>
      </trkpt>
      <trkpt lat="43.73493" lon="5.86617">
        <ele>321</ele>
        <time>2009-11-11T12:56:28Z</time>
      </trkpt>
      <trkpt lat="43.73491" lon="5.86582">
        <ele>314</ele>
        <time>2009-11-11T12:56:35Z</time>
      </trkpt>
      <trkpt lat="43.73476" lon="5.86559">
        <ele>309</ele>
        <time>2009-11-11T12:56:42Z</time>
      </trkpt>
      <trkpt lat="43.7347" lon="5.86555">
        <ele>307</ele>
        <time>2009-11-11T12:56:44Z</time>
      </trkpt>
      <trkpt lat="43.73461" lon="5.86552">
        <ele>304</ele>
        <time>2009-11-11T12:56:48Z</time>
      </trkpt>
      <trkpt lat="43.73435" lon="5.86534">
        <ele>301</ele>
        <time>2009-11-11T12:56:58Z</time>
      </trkpt>
      <trkpt lat="43.73437" lon="5.86529">
        <ele>301</ele>
        <time>2009-11-11T12:56:59Z</time>
      </trkpt>
      <trkpt lat="43.73449" lon="5.86489">
        <ele>298</ele>
        <time>2009-11-11T12:57:06Z</time>
      </trkpt>
      <trkpt lat="43.73456" lon="5.86477">
        <ele>297</ele>
        <time>2009-11-11T12:57:09Z</time>
      </trkpt>
      <trkpt lat="43.73441" lon="5.86462">
        <ele>296</ele>
        <time>2009-11-11T12:57:15Z</time>
      </trkpt>
      <trkpt lat="43.73426" lon="5.8645">
        <ele>295</ele>
        <time>2009-11-11T12:57:19Z</time>
      </trkpt>
      <trkpt lat="43.73418" lon="5.86431">
        <ele>292</ele>
        <time>2009-11-11T12:57:25Z</time>
      </trkpt>
      <trkpt lat="43.73377" lon="5.86391">
        <ele>292</ele>
        <time>2009-11-11T12:57:37Z</time>
      </trkpt>
      <trkpt lat="43.73367" lon="5.86377">
        <ele>293</ele>
        <time>2009-11-11T12:57:40Z</time>
      </trkpt>
      <trkpt lat="43.73374" lon="5.86313">
        <ele>290</ele>
        <time>2009-11-11T12:57:49Z</time>
      </trkpt>
      <trkpt lat="43.73383" lon="5.86298">
        <ele>290</ele>
        <time>2009-11-11T12:57:51Z</time>
      </trkpt>
      <trkpt lat="43.73397" lon="5.86295">
        <ele>288</ele>
        <time>2009-11-11T12:57:57Z</time>
      </trkpt>
      <trkpt lat="43.73399" lon="5.86305">
        <ele>287</ele>
        <time>2009-11-11T12:57:59Z</time>
      </trkpt>
      <trkpt lat="43.73398" lon="5.86336">
        <ele>286</ele>
        <time>2009-11-11T12:58:04Z</time>
      </trkpt>
      <trkpt lat="43.73398" lon="5.86355">
        <ele>286</ele>
        <time>2009-11-11T12:58:07Z</time>
      </trkpt>
      <trkpt lat="43.73415" lon="5.86388">
        <ele>286</ele>
        <time>2009-11-11T12:58:14Z</time>
      </trkpt>
      <trkpt lat="43.73425" lon="5.86391">
        <ele>286</ele>
        <time>2009-11-11T12:58:16Z</time>
      </trkpt>
      <trkpt lat="43.7345" lon="5.86407">
        <ele>287</ele>
        <time>2009-11-11T12:58:22Z</time>
      </trkpt>
      <trkpt lat="43.73466" lon="5.86419">
        <ele>288</ele>
        <time>2009-11-11T12:58:26Z</time>
      </trkpt>
      <trkpt lat="43.7348" lon="5.86425">
        <ele>289</ele>
        <time>2009-11-11T12:58:29Z</time>
      </trkpt>
      <trkpt lat="43.73519" lon="5.86456">
        <ele>289</ele>
        <time>2009-11-11T12:58:38Z</time>
      </trkpt>
      <trkpt lat="43.73532" lon="5.86466">
        <ele>290</ele>
        <time>2009-11-11T12:58:41Z</time>
      </trkpt>
      <trkpt lat="43.73558" lon="5.86489">
        <ele>291</ele>
        <time>2009-11-11T12:58:47Z</time>
      </trkpt>
      <trkpt lat="43.73592" lon="5.86524">
        <ele>291</ele>
        <time>2009-11-11T12:58:55Z</time>
      </trkpt>
      <trkpt lat="43.73607" lon="5.86559">
        <ele>293</ele>
        <time>2009-11-11T12:59:01Z</time>
      </trkpt>
      <trkpt lat="43.73615" lon="5.86579">
        <ele>294</ele>
        <time>2009-11-11T12:59:05Z</time>
      </trkpt>
      <trkpt lat="43.7362" lon="5.8659">
        <ele>295</ele>
        <time>2009-11-11T12:59:07Z</time>
      </trkpt>
      <trkpt lat="43.73644" lon="5.86593">
        <ele>295</ele>
        <time>2009-11-11T12:59:12Z</time>
      </trkpt>
      <trkpt lat="43.7366" lon="5.86586">
        <ele>295</ele>
        <time>2009-11-11T12:59:15Z</time>
      </trkpt>
      <trkpt lat="43.73677" lon="5.86567">
        <ele>295</ele>
        <time>2009-11-11T12:59:19Z</time>
      </trkpt>
      <trkpt lat="43.73703" lon="5.8655">
        <ele>295</ele>
        <time>2009-11-11T12:59:24Z</time>
      </trkpt>
      <trkpt lat="43.73764" lon="5.86494">
        <ele>295</ele>
        <time>2009-11-11T12:59:41Z</time>
      </trkpt>
      <trkpt lat="43.73803" lon="5.86456">
        <ele>293</ele>
        <time>2009-11-11T12:59:54Z</time>
      </trkpt>
      <trkpt lat="43.73852" lon="5.86407">
        <ele>293</ele>
        <time>2009-11-11T13:00:09Z</time>
      </trkpt>
      <trkpt lat="43.7387" lon="5.8639">
        <ele>294</ele>
        <time>2009-11-11T13:00:15Z</time>
      </trkpt>
      <trkpt lat="43.73886" lon="5.86396">
        <ele>294</ele>
        <time>2009-11-11T13:00:23Z</time>
      </trkpt>
      <trkpt lat="43.73903" lon="5.86422">
        <ele>293</ele>
        <time>2009-11-11T13:00:29Z</time>
      </trkpt>
      <trkpt lat="43.73962" lon="5.86514">
        <ele>292</ele>
        <time>2009-11-11T13:00:46Z</time>
      </trkpt>
      <trkpt lat="43.74021" lon="5.86605">
        <ele>293</ele>
        <time>2009-11-11T13:01:03Z</time>
      </trkpt>
      <trkpt lat="43.74039" lon="5.86633">
        <ele>294</ele>
        <time>2009-11-11T13:01:08Z</time>
      </trkpt>
      <trkpt lat="43.74095" lon="5.86721">
        <ele>292</ele>
        <time>2009-11-11T13:01:24Z</time>
      </trkpt>
      <trkpt lat="43.74098" lon="5.86727">
        <ele>292</ele>
        <time>2009-11-11T13:01:25Z</time>
      </trkpt>
      <trkpt lat="43.74116" lon="5.86755">
        <ele>292</ele>
        <time>2009-11-11T13:01:30Z</time>
      </trkpt>
      <trkpt lat="43.74168" lon="5.86837">
        <ele>293</ele>
        <time>2009-11-11T13:01:45Z</time>
      </trkpt>
      <trkpt lat="43.74219" lon="5.86916">
        <ele>293</ele>
        <time>2009-11-11T13:02:00Z</time>
      </trkpt>
      <trkpt lat="43.74226" lon="5.86927">
        <ele>293</ele>
        <time>2009-11-11T13:02:02Z</time>
      </trkpt>
      <trkpt lat="43.74263" lon="5.8698">
        <ele>293</ele>
        <time>2009-11-11T13:02:12Z</time>
      </trkpt>
      <trkpt lat="43.74318" lon="5.87065">
        <ele>294</ele>
        <time>2009-11-11T13:02:27Z</time>
      </trkpt>
      <trkpt lat="43.74354" lon="5.87124">
        <ele>294</ele>
        <time>2009-11-11T13:02:37Z</time>
      </trkpt>
      <trkpt lat="43.74402" lon="5.87203">
        <ele>295</ele>
        <time>2009-11-11T13:02:51Z</time>
      </trkpt>
      <trkpt lat="43.74414" lon="5.87219">
        <ele>295</ele>
        <time>2009-11-11T13:02:54Z</time>
      </trkpt>
      <trkpt lat="43.74451" lon="5.87267">
        <ele>295</ele>
        <time>2009-11-11T13:03:04Z</time>
      </trkpt>
      <trkpt lat="43.74462" lon="5.87278">
        <ele>296</ele>
        <time>2009-11-11T13:03:07Z</time>
      </trkpt>
      <trkpt lat="43.7449" lon="5.87312">
        <ele>297</ele>
        <time>2009-11-11T13:03:14Z</time>
      </trkpt>
      <trkpt lat="43.74502" lon="5.87339">
        <ele>299</ele>
        <time>2009-11-11T13:03:19Z</time>
      </trkpt>
      <trkpt lat="43.74541" lon="5.874">
        <ele>299</ele>
        <time>2009-11-11T13:03:32Z</time>
      </trkpt>
      <trkpt lat="43.74548" lon="5.87408">
        <ele>299</ele>
        <time>2009-11-11T13:03:34Z</time>
      </trkpt>
      <trkpt lat="43.74579" lon="5.87452">
        <ele>300</ele>
        <time>2009-11-11T13:03:43Z</time>
      </trkpt>
      <trkpt lat="43.74602" lon="5.87478">
        <ele>301</ele>
        <time>2009-11-11T13:03:49Z</time>
      </trkpt>
      <trkpt lat="43.74622" lon="5.87501">
        <ele>302</ele>
        <time>2009-11-11T13:03:54Z</time>
      </trkpt>
      <trkpt lat="43.74631" lon="5.87523">
        <ele>302</ele>
        <time>2009-11-11T13:03:58Z</time>
      </trkpt>
      <trkpt lat="43.74652" lon="5.876">
        <ele>301</ele>
        <time>2009-11-11T13:04:09Z</time>
      </trkpt>
      <trkpt lat="43.74665" lon="5.87666">
        <ele>301</ele>
        <time>2009-11-11T13:04:19Z</time>
      </trkpt>
      <trkpt lat="43.74682" lon="5.87737">
        <ele>301</ele>
        <time>2009-11-11T13:04:30Z</time>
      </trkpt>
      <trkpt lat="43.74709" lon="5.87833">
        <ele>303</ele>
        <time>2009-11-11T13:04:45Z</time>
      </trkpt>
      <trkpt lat="43.74724" lon="5.87871">
        <ele>302</ele>
        <time>2009-11-11T13:04:51Z</time>
      </trkpt>
      <trkpt lat="43.74778" lon="5.87949">
        <ele>302</ele>
        <time>2009-11-11T13:05:07Z</time>
      </trkpt>
      <trkpt lat="43.74792" lon="5.8797">
        <ele>302</ele>
        <time>2009-11-11T13:05:13Z</time>
      </trkpt>
      <trkpt lat="43.74797" lon="5.87979">
        <ele>302</ele>
        <time>2009-11-11T13:05:15Z</time>
      </trkpt>
      <trkpt lat="43.74808" lon="5.87998">
        <ele>302</ele>
        <time>2009-11-11T13:05:19Z</time>
      </trkpt>
      <trkpt lat="43.74849" lon="5.88048">
        <ele>305</ele>
        <time>2009-11-11T13:05:30Z</time>
      </trkpt>
      <trkpt lat="43.74912" lon="5.8811">
        <ele>305</ele>
        <time>2009-11-11T13:05:44Z</time>
      </trkpt>
      <trkpt lat="43.74917" lon="5.88114">
        <ele>306</ele>
        <time>2009-11-11T13:05:45Z</time>
      </trkpt>
      <trkpt lat="43.74945" lon="5.88147">
        <ele>308</ele>
        <time>2009-11-11T13:05:52Z</time>
      </trkpt>
      <trkpt lat="43.7498" lon="5.88168">
        <ele>312</ele>
        <time>2009-11-11T13:06:03Z</time>
      </trkpt>
      <trkpt lat="43.75008" lon="5.88186">
        <ele>313</ele>
        <time>2009-11-11T13:06:14Z</time>
      </trkpt>
      <trkpt lat="43.75013" lon="5.88188">
        <ele>313</ele>
        <time>2009-11-11T13:06:24Z</time>
      </trkpt>
      <trkpt lat="43.75019" lon="5.88193">
        <ele>314</ele>
        <time>2009-11-11T13:06:28Z</time>
      </trkpt>
      <trkpt lat="43.75067" lon="5.88219">
        <ele>314</ele>
        <time>2009-11-11T13:06:43Z</time>
      </trkpt>
      <trkpt lat="43.75091" lon="5.88244">
        <ele>313</ele>
        <time>2009-11-11T13:06:49Z</time>
      </trkpt>
      <trkpt lat="43.75111" lon="5.88266">
        <ele>313</ele>
        <time>2009-11-11T13:06:54Z</time>
      </trkpt>
      <trkpt lat="43.75126" lon="5.88279">
        <ele>312</ele>
        <time>2009-11-11T13:06:58Z</time>
      </trkpt>
      <trkpt lat="43.75137" lon="5.88296">
        <ele>310</ele>
        <time>2009-11-11T13:07:01Z</time>
      </trkpt>
      <trkpt lat="43.7516" lon="5.88348">
        <ele>301</ele>
        <time>2009-11-11T13:07:09Z</time>
      </trkpt>
      <trkpt lat="43.75165" lon="5.8836">
        <ele>300</ele>
        <time>2009-11-11T13:07:11Z</time>
      </trkpt>
      <trkpt lat="43.75184" lon="5.88387">
        <ele>298</ele>
        <time>2009-11-11T13:07:16Z</time>
      </trkpt>
      <trkpt lat="43.75204" lon="5.88435">
        <ele>299</ele>
        <time>2009-11-11T13:07:24Z</time>
      </trkpt>
      <trkpt lat="43.7522" lon="5.88495">
        <ele>300</ele>
        <time>2009-11-11T13:07:33Z</time>
      </trkpt>
      <trkpt lat="43.75224" lon="5.8851">
        <ele>301</ele>
        <time>2009-11-11T13:07:36Z</time>
      </trkpt>
      <trkpt lat="43.75231" lon="5.88521">
        <ele>301</ele>
        <time>2009-11-11T13:07:38Z</time>
      </trkpt>
      <trkpt lat="43.75236" lon="5.88532">
        <ele>302</ele>
        <time>2009-11-11T13:07:40Z</time>
      </trkpt>
      <trkpt lat="43.75246" lon="5.88548">
        <ele>302</ele>
        <time>2009-11-11T13:07:43Z</time>
      </trkpt>
      <trkpt lat="43.75256" lon="5.88575">
        <ele>302</ele>
        <time>2009-11-11T13:07:47Z</time>
      </trkpt>
      <trkpt lat="43.75268" lon="5.88603">
        <ele>302</ele>
        <time>2009-11-11T13:07:51Z</time>
      </trkpt>
      <trkpt lat="43.75276" lon="5.88624">
        <ele>301</ele>
        <time>2009-11-11T13:07:54Z</time>
      </trkpt>
      <trkpt lat="43.75284" lon="5.88643">
        <ele>301</ele>
        <time>2009-11-11T13:07:57Z</time>
      </trkpt>
      <trkpt lat="43.7529" lon="5.88658">
        <ele>301</ele>
        <time>2009-11-11T13:07:59Z</time>
      </trkpt>
      <trkpt lat="43.75294" lon="5.88672">
        <ele>301</ele>
        <time>2009-11-11T13:08:01Z</time>
      </trkpt>
      <trkpt lat="43.75308" lon="5.88729">
        <ele>300</ele>
        <time>2009-11-11T13:08:10Z</time>
      </trkpt>
      <trkpt lat="43.7531" lon="5.88735">
        <ele>300</ele>
        <time>2009-11-11T13:08:11Z</time>
      </trkpt>
      <trkpt lat="43.75315" lon="5.8876">
        <ele>301</ele>
        <time>2009-11-11T13:08:15Z</time>
      </trkpt>
      <trkpt lat="43.75318" lon="5.88773">
        <ele>301</ele>
        <time>2009-11-11T13:08:17Z</time>
      </trkpt>
      <trkpt lat="43.75316" lon="5.88813">
        <ele>301</ele>
        <time>2009-11-11T13:08:24Z</time>
      </trkpt>
      <trkpt lat="43.75312" lon="5.88832">
        <ele>300</ele>
        <time>2009-11-11T13:08:28Z</time>
      </trkpt>
      <trkpt lat="43.75311" lon="5.88841">
        <ele>300</ele>
        <time>2009-11-11T13:08:30Z</time>
      </trkpt>
      <trkpt lat="43.75309" lon="5.88867">
        <ele>300</ele>
        <time>2009-11-11T13:08:36Z</time>
      </trkpt>
      <trkpt lat="43.75309" lon="5.88895">
        <ele>301</ele>
        <time>2009-11-11T13:08:44Z</time>
      </trkpt>
      <trkpt lat="43.75319" lon="5.88925">
        <ele>302</ele>
        <time>2009-11-11T13:08:52Z</time>
      </trkpt>
      <trkpt lat="43.75324" lon="5.88939">
        <ele>303</ele>
        <time>2009-11-11T13:08:56Z</time>
      </trkpt>
      <trkpt lat="43.75335" lon="5.88978">
        <ele>307</ele>
        <time>2009-11-11T13:09:08Z</time>
      </trkpt>
      <trkpt lat="43.75339" lon="5.8899">
        <ele>308</ele>
        <time>2009-11-11T13:09:12Z</time>
      </trkpt>
      <trkpt lat="43.75358" lon="5.88994">
        <ele>309</ele>
        <time>2009-11-11T13:09:20Z</time>
      </trkpt>
      <trkpt lat="43.75406" lon="5.88986">
        <ele>310</ele>
        <time>2009-11-11T13:09:34Z</time>
      </trkpt>
      <trkpt lat="43.75445" lon="5.88985">
        <ele>314</ele>
        <time>2009-11-11T13:09:46Z</time>
      </trkpt>
      <trkpt lat="43.75472" lon="5.88985">
        <ele>318</ele>
        <time>2009-11-11T13:09:57Z</time>
      </trkpt>
      <trkpt lat="43.75488" lon="5.88958">
        <ele>321</ele>
        <time>2009-11-11T13:10:09Z</time>
      </trkpt>
      <trkpt lat="43.75489" lon="5.88955">
        <ele>321</ele>
        <time>2009-11-11T13:10:10Z</time>
      </trkpt>
      <trkpt lat="43.75495" lon="5.8895">
        <ele>322</ele>
        <time>2009-11-11T13:10:14Z</time>
      </trkpt>
      <trkpt lat="43.75505" lon="5.88934">
        <ele>325</ele>
        <time>2009-11-11T13:10:25Z</time>
      </trkpt>
      <trkpt lat="43.75522" lon="5.88917">
        <ele>327</ele>
        <time>2009-11-11T13:10:37Z</time>
      </trkpt>
      <trkpt lat="43.75537" lon="5.88888">
        <ele>333</ele>
        <time>2009-11-11T13:10:52Z</time>
      </trkpt>
      <trkpt lat="43.75544" lon="5.88872">
        <ele>333</ele>
        <time>2009-11-11T13:10:59Z</time>
      </trkpt>
      <trkpt lat="43.75551" lon="5.88856">
        <ele>334</ele>
        <time>2009-11-11T13:11:06Z</time>
      </trkpt>
      <trkpt lat="43.75563" lon="5.88822">
        <ele>335</ele>
        <time>2009-11-11T13:11:20Z</time>
      </trkpt>
      <trkpt lat="43.75572" lon="5.88793">
        <ele>337</ele>
        <time>2009-11-11T13:11:32Z</time>
      </trkpt>
      <trkpt lat="43.75577" lon="5.88782">
        <ele>338</ele>
        <time>2009-11-11T13:11:37Z</time>
      </trkpt>
      <trkpt lat="43.75582" lon="5.88769">
        <ele>339</ele>
        <time>2009-11-11T13:11:43Z</time>
      </trkpt>
      <trkpt lat="43.75594" lon="5.88736">
        <ele>338</ele>
        <time>2009-11-11T13:11:57Z</time>
      </trkpt>
      <trkpt lat="43.7561" lon="5.88701">
        <ele>339</ele>
        <time>2009-11-11T13:12:10Z</time>
      </trkpt>
      <trkpt lat="43.75625" lon="5.88678">
        <ele>343</ele>
        <time>2009-11-11T13:12:22Z</time>
      </trkpt>
      <trkpt lat="43.75626" lon="5.88676">
        <ele>343</ele>
        <time>2009-11-11T13:12:23Z</time>
      </trkpt>
      <trkpt lat="43.7563" lon="5.88669">
        <ele>344</ele>
        <time>2009-11-11T13:12:27Z</time>
      </trkpt>
      <trkpt lat="43.75649" lon="5.88643">
        <ele>344</ele>
        <time>2009-11-11T13:12:40Z</time>
      </trkpt>
      <trkpt lat="43.75684" lon="5.88628">
        <ele>346</ele>
        <time>2009-11-11T13:12:53Z</time>
      </trkpt>
      <trkpt lat="43.75705" lon="5.88605">
        <ele>348</ele>
        <time>2009-11-11T13:13:05Z</time>
      </trkpt>
      <trkpt lat="43.75705" lon="5.88603">
        <ele>348</ele>
        <time>2009-11-11T13:13:06Z</time>
      </trkpt>
      <trkpt lat="43.75712" lon="5.88595">
        <ele>348</ele>
        <time>2009-11-11T13:13:15Z</time>
      </trkpt>
      <trkpt lat="43.75713" lon="5.88592">
        <ele>348</ele>
        <time>2009-11-11T13:13:37Z</time>
      </trkpt>
      <trkpt lat="43.75713" lon="5.88591">
        <ele>347</ele>
        <time>2009-11-11T13:13:41Z</time>
      </trkpt>
    </trkseg>
  </trk>
</gpx>